Provisional Data: Starrucca Creek near Stevens Point, PA


Please select a monitoring station.
Please select start date.
Please select start date.

Toggle Unit: C/F Toggle Unit: C/F
Sample Time Temperature (C) Temperature (F) Specific Conductivity (mS/cm) pH   Turbidity (NTU+) DO (mg/L)
6/22/2021 12:00:00 AM 21.5 70.7 0.107 6.85 3.71 7.55
6/22/2021 12:15:00 AM 21.41 70.538 0.108 6.83 4.18 7.53
6/22/2021 12:30:00 AM 21.33 70.394 0.108 6.85 4.06 7.59
6/22/2021 12:45:00 AM 21.26 70.268 0.108 6.82 4.59 7.57
6/22/2021 1:00:00 AM 21.19 70.142 0.108 6.86 3.89 7.61
6/22/2021 1:15:00 AM 21.14 70.052 0.108 6.88 3.32 7.67
6/22/2021 1:30:00 AM 21.03 69.854 0.108 6.88 4.1 7.68
6/22/2021 1:45:00 AM 20.92 69.656 0.108 6.82 3.81 7.64
6/22/2021 2:00:00 AM 20.86 69.548 0.108 6.82 7.07 7.65
6/22/2021 2:15:00 AM 20.76 69.368 0.108 6.84 4.1 7.7
6/22/2021 2:30:00 AM 20.77 69.386 0.108 6.85 5 7.74
6/22/2021 2:45:00 AM 20.61 69.098 0.107 6.82 4.3 7.7
6/22/2021 3:00:00 AM 20.47 68.846 0.107 6.83 3.9 7.74
6/22/2021 3:15:00 AM 20.42 68.756 0.107 6.77 4.29 7.72
6/22/2021 3:30:00 AM 20.32 68.576 0.106 6.78 3.41 7.73
6/22/2021 3:45:00 AM 20.2 68.36 0.106 6.81 3.8 7.72
6/22/2021 4:00:00 AM 20.08 68.144 0.106 6.81 3.68 7.81
6/22/2021 4:15:00 AM 20.07 68.126 0.107 6.79 4.48 7.85
6/22/2021 4:30:00 AM 19.9 67.82 0.106 6.82 3.61 7.86
6/22/2021 4:45:00 AM 19.86 67.748 0.107 6.87 3.96 7.98
6/22/2021 5:00:00 AM 19.75 67.55 0.107 6.83 3.84 7.95
6/22/2021 5:15:00 AM 19.61 67.298 0.106 6.85 3.87 7.96
6/22/2021 5:30:00 AM 19.54 67.172 0.106 6.89 4.11 8
6/22/2021 5:45:00 AM 19.39 66.902 0.106 6.85 3.93 8.01
6/22/2021 6:00:00 AM 19.33 66.794 0.106 6.88 3.9 8.09
6/22/2021 6:15:00 AM 19.22 66.596 0.106 6.83 3.94 8.11
6/22/2021 6:30:00 AM 19.12 66.416 0.106 6.88 3.79 8.16
6/22/2021 6:45:00 AM 18.96 66.128 0.106 6.84 4.13 8.13
6/22/2021 7:00:00 AM 18.89 66.002 0.106 6.8 6.44 8.23
6/22/2021 7:15:00 AM 18.8 65.84 0.106 6.86 16.02 8.26
6/22/2021 7:30:00 AM 18.71 65.67799 0.106 6.87 4.08 8.35
6/22/2021 7:45:00 AM 18.66 65.588 0.106 6.87 4.44 8.46
6/22/2021 8:00:00 AM 18.6 65.48 0.105 6.91 4.23 8.53
6/22/2021 8:15:00 AM 18.61 65.498 0.105 6.96 3.73 8.67
6/22/2021 8:30:00 AM 18.53 65.354 0.105 6.95 4.16 8.73
6/22/2021 8:45:00 AM 18.42 65.156 0.105 6.9 5.23 8.75
6/22/2021 9:00:00 AM 18.37 65.066 0.104 6.93 4.28 8.8
6/22/2021 9:15:00 AM 18.31 64.958 0.104 6.94 3.53 8.84
6/22/2021 9:30:00 AM 18.34 65.012 0.104 7.02 3.82 8.95
6/22/2021 9:45:00 AM 18.27 64.886 0.104 6.96 3.6 9
6/22/2021 10:00:00 AM 18.28 64.904 0.104 7.09 3.41 9.13
6/22/2021 10:15:00 AM 18.16 64.688 0.104 6.95 3.47 9.08
6/22/2021 10:30:00 AM 18.21 64.778 0.104 7.05 4.46 9.15
6/22/2021 10:45:00 AM 18.17 64.706 0.104 7.05 3.88 9.22
6/22/2021 11:00:00 AM 18.16 64.688 0.104 7.02 3.6 9.24
6/22/2021 11:15:00 AM 18.17 64.706 0.104 7.13 3.64 9.28
6/22/2021 11:30:00 AM 18.04 64.472 0.104 6.97 3.48 9.08
6/22/2021 11:45:00 AM 18.01 64.418 0.104 7 3.45 9.16
6/22/2021 12:00:00 PM 17.99 64.382 0.104 7.04 3.61 9.23
6/22/2021 12:15:00 PM 17.97 64.346 0.103 7.02 3.42 9.31
6/22/2021 12:30:00 PM 17.98 64.364 0.103 7.06 3.51 9.33
6/22/2021 12:45:00 PM 17.96 64.328 0.103 7.1 3.31 9.27
6/22/2021 1:00:00 PM 17.97 64.346 0.103 7.18 3.56 9.39
6/22/2021 1:15:00 PM 17.9 64.22 0.103 7.06 4.12 9.31
6/22/2021 1:30:00 PM 17.84 64.112 0.103 7.03 5.99 9.25
6/22/2021 1:45:00 PM 17.93 64.274 0.103 7.21 3.32 9.39
6/22/2021 2:00:00 PM 17.77 63.986 0.103 7.03 4.83 9.27
6/22/2021 2:15:00 PM 17.72 63.896 0.103 7.05 3.59 9.21
6/22/2021 2:30:00 PM 17.64 63.752 0.103 6.96 3.49 9.13
6/22/2021 2:45:00 PM 17.69 63.842 0.103 7.08 3.41 9.23
6/22/2021 3:00:00 PM 17.6 63.68 0.103 7.08 3.28 9.21
6/22/2021 3:15:00 PM 17.59 63.662 0.103 7.13 3.49 9.28
6/22/2021 3:30:00 PM 17.5 63.5 0.102 7.05 3.87 9.22
6/22/2021 3:45:00 PM 17.47 63.446 0.102 7.1 3.36 9.26
6/22/2021 4:00:00 PM 17.4 63.32 0.102 7.09 3.87 9.32
6/22/2021 4:15:00 PM 17.34 63.212 0.102 7.06 4.95 9.31
6/22/2021 4:30:00 PM 17.34 63.212 0.102 7.04 3.84 9.37
6/22/2021 4:45:00 PM 17.27 63.086 0.102 6.99 3.63 9.28
6/22/2021 5:00:00 PM 17.25 63.05 0.102 7.11 3.64 9.26
6/22/2021 5:15:00 PM 17.14 62.852 0.102 6.99 4.15 9.26
6/22/2021 5:30:00 PM 17.13 62.834 0.103 7.1 4 9.42
6/22/2021 5:45:00 PM 17.02 62.636 0.103 7.07 4.47 9.37
6/22/2021 6:00:00 PM 17.01 62.618 0.103 7.09 4.47 9.43
6/22/2021 6:15:00 PM 16.94 62.492 0.102 7.08 4.05 9.52
6/22/2021 6:30:00 PM 16.91 62.438 0.102 7.08 4.91 9.54
6/22/2021 6:45:00 PM 16.92 62.456 0.102 7.12 4.25 9.57
6/22/2021 7:00:00 PM 16.83 62.294 0.102 7.01 3.71 9.47
6/22/2021 7:15:00 PM 16.79 62.222 0.102 7.06 3.58 9.45
6/22/2021 7:30:00 PM 16.77 62.186 0.103 7.03 3.32 9.36
6/22/2021 7:45:00 PM 16.72 62.096 0.103 7.06 3.28 9.34
6/22/2021 8:00:00 PM 16.59 61.862 0.103 6.99 4.09 9.24
6/22/2021 8:15:00 PM 16.49 61.682 0.104 6.93 3.43 9.16
6/22/2021 8:30:00 PM 16.41 61.538 0.104 6.95 3.51 9.08
6/22/2021 8:45:00 PM 16.35 61.43 0.104 6.96 3.41 9.06
6/22/2021 9:00:00 PM 16.22 61.196 0.104 6.89 3.85 8.96
6/22/2021 9:15:00 PM 16.13 61.034 0.104 6.86 3.54 8.92
6/22/2021 9:30:00 PM 16.06 60.908 0.104 6.87 4.01 8.93
6/22/2021 9:45:00 PM 15.96 60.728 0.105 6.87 3.86 8.92
6/22/2021 10:00:00 PM 15.84 60.512 0.105 6.87 3.75 8.95
6/22/2021 10:15:00 PM 15.75 60.35 0.105 6.89 3.35 8.96
6/22/2021 10:30:00 PM 15.55 59.99 0.104 6.84 3.99 8.97
6/22/2021 10:45:00 PM 15.52 59.936 0.105 6.87 3.53 8.97
6/22/2021 11:00:00 PM 15.39 59.702 0.105 6.83 3.63 8.99
6/22/2021 11:15:00 PM 15.32 59.576 0.105 6.86 3.59 9.03
6/22/2021 11:30:00 PM 15.22 59.396 0.105 6.82 3.36 9.06
6/22/2021 11:45:00 PM 15.11 59.198 0.105 6.82 3.59 9.03
6/23/2021 12:00:00 AM 15 59 0.105 6.81 3.4 9.05
6/23/2021 12:15:00 AM 14.91 58.838 0.106 6.8 4.08 9.11
6/23/2021 12:30:00 AM 14.81 58.658 0.105 6.83 3.49 9.13
6/23/2021 12:45:00 AM 14.69 58.442 0.106 6.81 3.51 9.16
6/23/2021 1:00:00 AM 14.6 58.28 0.106 6.84 3.98 9.2
6/23/2021 1:15:00 AM 14.49 58.082 0.106 6.85 3.99 9.24
6/23/2021 1:30:00 AM 14.4 57.92 0.106 6.86 3.6 9.25
6/23/2021 1:45:00 AM 14.29 57.722 0.106 6.84 3.76 9.29
6/23/2021 2:00:00 AM 14.2 57.56 0.106 6.85 3.91 9.32
6/23/2021 2:15:00 AM 14.12 57.416 0.106 6.85 3.52 9.36
6/23/2021 2:30:00 AM 14.01 57.218 0.105 6.79 3.46 9.29
6/23/2021 2:45:00 AM 13.95 57.11 0.106 6.84 3.42 9.36
6/23/2021 3:00:00 AM 13.88 56.984 0.106 6.81 3.96 9.39
6/23/2021 3:15:00 AM 13.79 56.822 0.106 6.8 3.48 9.38
6/23/2021 3:30:00 AM 13.72 56.696 0.105 6.86 3.58 9.43
6/23/2021 3:45:00 AM 13.67 56.606 0.106 6.86 3.43 9.47
6/23/2021 4:00:00 AM 13.58 56.444 0.106 6.85 3.45 9.49
6/23/2021 4:15:00 AM 13.52 56.336 0.106 6.87 3.67 9.53
6/23/2021 4:30:00 AM 13.43 56.174 0.106 6.87 3.38 9.57
6/23/2021 4:45:00 AM 13.36 56.048 0.106 6.84 3.25 9.53
6/23/2021 5:00:00 AM 13.31 55.958 0.106 6.85 3.58 9.57
6/23/2021 5:15:00 AM 13.23 55.814 0.106 6.85 3.62 9.55
6/23/2021 5:30:00 AM 13.15 55.67 0.106 6.83 4.36 9.57
6/23/2021 5:45:00 AM 13.07 55.526 0.106 6.84 3.61 9.63
6/23/2021 6:00:00 AM 13.02 55.436 0.106 6.86 3.47 9.69
6/23/2021 6:15:00 AM 12.95 55.31 0.106 6.84 3.61 9.7
6/23/2021 6:30:00 AM 12.88 55.184 0.105 6.85 3.34 9.78
6/23/2021 6:45:00 AM 12.8 55.04 0.105 6.79 3.39 9.81
6/23/2021 7:00:00 AM 12.77 54.986 0.105 6.86 4.24 9.97
6/23/2021 7:15:00 AM 12.74 54.932 0.105 6.92 3.47 10.11
6/23/2021 7:30:00 AM 12.72 54.896 0.105 6.89 3.23 10.1
6/23/2021 7:45:00 AM 12.72 54.896 0.105 6.89 3.29 10.16
6/23/2021 8:00:00 AM 12.76 54.968 0.105 7 3.32 10.28
6/23/2021 8:15:00 AM 12.78 55.004 0.105 6.97 3.18 10.32
6/23/2021 8:30:00 AM 12.85 55.13 0.105 6.99 3.33 10.35
6/23/2021 8:45:00 AM 12.95 55.31 0.105 7.02 3.02 10.39
6/23/2021 9:00:00 AM 13.02 55.436 0.104 6.92 2.97 10.31
6/23/2021 9:15:00 AM 13.17 55.706 0.105 7.01 3.26 10.4
6/23/2021 9:30:00 AM 13.37 56.066 0.105 7.09 3.13 10.44
6/23/2021 9:45:00 AM 13.54 56.372 0.104 7.01 2.96 10.36
6/23/2021 10:00:00 AM 13.79 56.822 0.104 7.08 3.39 10.4
6/23/2021 10:15:00 AM 13.92 57.056 0.104 7.09 3.13 10.42
6/23/2021 10:30:00 AM 14.17 57.506 0.104 7.12 3 10.4
6/23/2021 10:45:00 AM 14.41 57.938 0.104 7.14 3.29 10.39
6/23/2021 11:00:00 AM 14.7 58.46 0.104 7.19 3.25 10.4
6/23/2021 11:15:00 AM 14.78 58.604 0.103 7.03 3.26 10.24
6/23/2021 11:30:00 AM 15.13 59.234 0.104 7.11 3.25 10.24
6/23/2021 11:45:00 AM 15.42 59.756 0.104 7.05 3.06 10.22
6/23/2021 12:00:00 PM 15.62 60.116 0.104 7.07 3.17 10.17
6/23/2021 12:15:00 PM 15.91 60.638 0.104 7.27 3.06 10.21
6/23/2021 12:30:00 PM 16.06 60.908 0.104 7.07 3.15 10.04
6/23/2021 12:45:00 PM 16.28 61.304 0.104 7.11 2.99 10.05
6/23/2021 1:00:00 PM 16.58 61.844 0.104 7.12 3.18 10.05
6/23/2021 1:15:00 PM 16.71 62.078 0.104 7.2 2.98 10
6/23/2021 1:30:00 PM 17.06 62.708 0.104 7.23 3.07 10.01
6/23/2021 1:45:00 PM 17.23 63.014 0.104 7.18 3.01 9.94
6/23/2021 2:00:00 PM 17.58 63.644 0.104 7.27 3.16 9.95
6/23/2021 2:15:00 PM 17.76 63.968 0.104 7.26 3.13 9.84
6/23/2021 2:30:00 PM 17.9 64.22 0.103 7.11 3.15 9.75
6/23/2021 2:45:00 PM 18.28 64.904 0.104 7.26 3.38 9.73
6/23/2021 3:00:00 PM 18.33 64.994 0.104 7.15 3.43 9.62
6/23/2021 3:15:00 PM 18.6 65.48 0.104 7.2 3.27 9.59
6/23/2021 3:30:00 PM 18.72 65.696 0.104 7.33 3.28 9.59
6/23/2021 3:45:00 PM 18.6 65.48 0.104 7.11 3.42 9.44
6/23/2021 4:00:00 PM 18.69 65.642 0.104 7.15 3.07 9.49
6/23/2021 4:15:00 PM 18.69 65.642 0.104 7.17 3.01 9.51
6/23/2021 4:30:00 PM 18.69 65.642 0.104 7.14 3.23 9.44
6/23/2021 4:45:00 PM 18.75 65.75 0.104 7.12 3.08 9.43
6/23/2021 5:00:00 PM 18.77 65.786 0.104 7.16 3.27 9.43
6/23/2021 5:15:00 PM 18.71 65.67799 0.104 7.12 3.07 9.38
6/23/2021 5:30:00 PM 18.67 65.606 0.104 7.19 3.36 9.33
6/23/2021 5:45:00 PM 18.57 65.426 0.104 6.87 3.5 9.19
6/23/2021 6:00:00 PM 18.48 65.264 0.104 7.02 3.08 9.16
6/23/2021 6:15:00 PM 18.38 65.084 0.105 7.01 3.13 9.14
6/23/2021 6:30:00 PM 18.32 64.976 0.105 7.07 3.19 9.1
6/23/2021 6:45:00 PM 18.17 64.706 0.105 6.96 3.09 9.03
6/23/2021 7:00:00 PM 18.07 64.526 0.105 6.92 3.31 8.97
6/23/2021 7:15:00 PM 18.03 64.454 0.105 6.94 3.2 8.91
6/23/2021 7:30:00 PM 17.95 64.31 0.106 6.95 3.21 8.93
6/23/2021 7:45:00 PM 17.85 64.13 0.106 6.9 3.22 8.88
6/23/2021 8:00:00 PM 17.75 63.95 0.106 6.91 3.05 8.86
6/23/2021 8:15:00 PM 17.64 63.752 0.106 6.88 3.8 8.81
6/23/2021 8:30:00 PM 17.51 63.518 0.106 6.89 3.14 8.81
6/23/2021 8:45:00 PM 17.34 63.212 0.106 6.8 3.07 8.72
6/23/2021 9:00:00 PM 17.2 62.96 0.106 6.8 3.55 8.72
6/23/2021 9:15:00 PM 17.15 62.87 0.106 6.85 3.39 8.74
6/23/2021 9:30:00 PM 16.95 62.51 0.106 6.77 3.37 8.68
6/23/2021 9:45:00 PM 16.92 62.456 0.107 6.83 3.23 8.77
6/23/2021 10:00:00 PM 16.77 62.186 0.107 6.84 3.38 8.76
6/23/2021 10:15:00 PM 16.66 61.988 0.107 6.86 4.07 8.8
6/23/2021 10:30:00 PM 16.52 61.736 0.107 6.81 3.41 8.78
6/23/2021 10:45:00 PM 16.4 61.52 0.107 6.86 3.69 8.88
6/23/2021 11:00:00 PM 16.26 61.268 0.107 6.84 3.56 8.88
6/23/2021 11:15:00 PM 16.13 61.034 0.107 6.85 3.7 8.92
6/23/2021 11:30:00 PM 15.98 60.764 0.107 6.8 3.64 8.94
6/23/2021 11:45:00 PM 15.88 60.584 0.107 6.86 3.4 9.01
6/24/2021 12:00:00 AM 15.76 60.368 0.107 6.85 3.81 9.02
6/24/2021 12:15:00 AM 15.61 60.098 0.107 6.79 3.64 9
6/24/2021 12:30:00 AM 15.53 59.954 0.108 6.85 3.68 9.09
6/24/2021 12:45:00 AM 15.39 59.702 0.107 6.85 3.53 9.1
6/24/2021 1:00:00 AM 15.28 59.504 0.108 6.76 3.56 9.1
6/24/2021 1:15:00 AM 15.16 59.288 0.108 6.85 3.95 9.16
6/24/2021 1:30:00 AM 15.08 59.144 0.108 6.87 3.89 9.21
6/24/2021 1:45:00 AM 14.91 58.838 0.107 6.81 3.49 9.19
6/24/2021 2:00:00 AM 14.86 58.748 0.108 6.84 4.04 9.23
6/24/2021 2:15:00 AM 14.77 58.586 0.108 6.84 3.24 9.26
6/24/2021 2:30:00 AM 14.63 58.334 0.107 6.8 3.63 9.26
6/24/2021 2:45:00 AM 14.56 58.208 0.108 6.84 3.89 9.3
6/24/2021 3:00:00 AM 14.43 57.974 0.107 6.8 3.61 9.26
6/24/2021 3:15:00 AM 14.33 57.794 0.107 6.77 3.48 9.32
6/24/2021 3:30:00 AM 14.26 57.668 0.108 6.81 3.3 9.37
6/24/2021 3:45:00 AM 14.15 57.47 0.107 6.81 3.53 9.37
6/24/2021 4:00:00 AM 14.06 57.308 0.108 6.82 3.62 9.43
6/24/2021 4:15:00 AM 13.99 57.182 0.108 6.87 3.29 9.48
6/24/2021 4:30:00 AM 13.87 56.966 0.108 6.81 3.41 9.47
6/24/2021 4:45:00 AM 13.76 56.768 0.107 6.8 3.51 9.48
6/24/2021 5:00:00 AM 13.65 56.57 0.107 6.8 3.59 9.51
6/24/2021 5:15:00 AM 13.57 56.426 0.107 6.83 3.73 9.55
6/24/2021 5:30:00 AM 13.46 56.228 0.107 6.8 3.87 9.56
6/24/2021 5:45:00 AM 13.39 56.102 0.107 6.82 3.55 9.63
6/24/2021 6:00:00 AM 13.29 55.922 0.107 6.82 3.36 9.66
6/24/2021 6:15:00 AM 13.19 55.742 0.107 6.81 3.37 9.7
6/24/2021 6:30:00 AM 13.12 55.616 0.107 6.83 3.41 9.81
6/24/2021 6:45:00 AM 13.04 55.472 0.107 6.83 3.31 9.82
6/24/2021 7:00:00 AM 12.96 55.328 0.107 6.85 3.32 9.86
6/24/2021 7:15:00 AM 12.94 55.292 0.107 6.87 3.57 10.01
6/24/2021 7:30:00 AM 12.94 55.292 0.107 6.92 3.17 10.09
6/24/2021 7:45:00 AM 12.91 55.238 0.106 6.93 3.19 10.14
6/24/2021 8:00:00 AM 12.94 55.292 0.106 6.95 3.58 10.22
6/24/2021 8:15:00 AM 12.98 55.364 0.106 6.96 3.5 10.27
6/24/2021 8:30:00 AM 13.12 55.616 0.106 6.98 3.29 10.33
6/24/2021 8:45:00 AM 13.25 55.85 0.106 7.03 3.17 10.39
6/24/2021 9:00:00 AM 13.38 56.084 0.106 7.04 3.37 10.41
6/24/2021 9:15:00 AM 13.55 56.39 0.106 7.08 3.25 10.45
6/24/2021 9:30:00 AM 13.76 56.768 0.106 7.1 3.1 10.48
6/24/2021 9:45:00 AM 14 57.2 0.105 7.11 3.18 10.48
6/24/2021 10:00:00 AM 14.22 57.596 0.105 7.09 2.97 10.46
6/24/2021 10:15:00 AM 14.4 57.92 0.105 7.1 3.03 10.46
6/24/2021 10:30:00 AM 14.63 58.334 0.105 7.14 3.05 10.45
6/24/2021 10:45:00 AM 14.96 58.928 0.105 7.15 3.14 10.43
6/24/2021 11:00:00 AM 15.3 59.54 0.105 7.15 3.06 10.39
6/24/2021 11:15:00 AM 15.55 59.99 0.104 7.07 2.91 10.28
6/24/2021 11:30:00 AM 15.98 60.764 0.105 7.2 3.19 10.35
6/24/2021 11:45:00 AM 16.27 61.286 0.104 7.09 6.06 10.27
6/24/2021 12:00:00 PM 16.44 61.592 0.104 7.13 3.38 10.22
6/24/2021 12:15:00 PM 16.85 62.33 0.104 7.24 3.06 10.18
6/24/2021 12:30:00 PM 17.25 63.05 0.104 7.17 3.08 10.11
6/24/2021 12:45:00 PM 17.72 63.896 0.105 7.21 3.15 10.04
6/24/2021 1:00:00 PM 18 64.4 0.104 7.27 3.07 9.99
6/24/2021 1:15:00 PM 18.55 65.39 0.104 7.25 3.42 9.99
6/24/2021 1:30:00 PM 18.78 65.804 0.104 7.19 3.77 9.8
6/24/2021 1:45:00 PM 19.12 66.416 0.104 7.14 3.39 9.62
6/24/2021 2:00:00 PM 19.42 66.956 0.104 7.11 3.02 9.59
6/24/2021 2:15:00 PM 19.73 67.514 0.104 7.26 3.21 9.57
6/24/2021 2:30:00 PM 19.8 67.64 0.104 7.05 3.11 9.4
6/24/2021 2:45:00 PM 20.06 68.108 0.104 7.18 3.05 9.42
6/24/2021 3:00:00 PM 20.24 68.432 0.104 7.21 2.79 9.33
6/24/2021 3:15:00 PM 20.3 68.54 0.104 7.19 2.82 9.27
6/24/2021 3:30:00 PM 20.51 68.918 0.104 7.17 2.75 9.21
6/24/2021 3:45:00 PM 20.6 69.08 0.105 7.22 3.02 9.2
6/24/2021 4:00:00 PM 20.6 69.08 0.105 7.17 3.11 9.1
6/24/2021 4:15:00 PM 20.58 69.044 0.105 7.15 2.8 9.04
6/24/2021 4:30:00 PM 20.67 69.206 0.105 7.1 3.1 9.02
6/24/2021 4:45:00 PM 20.61 69.098 0.105 7.16 2.93 9.02
6/24/2021 5:00:00 PM 20.56 69.008 0.105 7.11 3.25 8.91
6/24/2021 5:15:00 PM 20.44 68.792 0.105 7.07 2.83 8.9
6/24/2021 5:30:00 PM 20.44 68.792 0.105 7.12 2.86 8.87
6/24/2021 5:45:00 PM 20.18 68.324 0.105 6.93 2.83 8.8
6/24/2021 6:00:00 PM 20.17 68.306 0.105 7.02 3.39 8.75
6/24/2021 6:15:00 PM 20.03 68.054 0.105 6.95 3.05 8.7
6/24/2021 6:30:00 PM 19.93 67.874 0.105 6.95 2.97 8.67
6/24/2021 6:45:00 PM 19.83 67.694 0.105 6.95 2.88 8.65
6/24/2021 7:00:00 PM 19.69 67.442 0.106 6.87 3.15 8.57
6/24/2021 7:15:00 PM 19.67 67.406 0.106 6.96 3.14 8.58
6/24/2021 7:30:00 PM 19.58 67.244 0.106 6.92 3.04 8.54
6/24/2021 7:45:00 PM 19.48 67.064 0.106 6.94 3.3 8.5
6/24/2021 8:00:00 PM 19.36 66.848 0.106 6.87 3.21 8.46
6/24/2021 8:15:00 PM 19.19 66.542 0.107 6.75 3.03 8.4
6/24/2021 8:30:00 PM 19.08 66.344 0.107 6.83 3.33 8.38
6/24/2021 8:45:00 PM 18.92 66.056 0.107 6.75 2.92 8.35
6/24/2021 9:00:00 PM 18.84 65.912 0.107 6.81 3.25 8.35
6/24/2021 9:15:00 PM 18.68 65.624 0.107 6.81 3.74 8.35
6/24/2021 9:30:00 PM 18.56 65.408 0.107 6.78 3.22 8.33
6/24/2021 9:45:00 PM 18.39 65.102 0.107 6.8 3.16 8.34
6/24/2021 10:00:00 PM 18.28 64.904 0.108 6.82 3.31 8.39
6/24/2021 10:15:00 PM 18.14 64.652 0.108 6.81 3.06 8.4
6/24/2021 10:30:00 PM 17.99 64.382 0.108 6.81 3.2 8.43
6/24/2021 10:45:00 PM 17.85 64.13 0.108 6.79 3.26 8.46
6/24/2021 11:00:00 PM 17.75 63.95 0.109 6.83 3.76 8.52
6/24/2021 11:15:00 PM 17.55 63.59 0.108 6.74 3.36 8.51
6/24/2021 11:30:00 PM 17.42 63.356 0.108 6.79 3.91 8.53
6/24/2021 11:45:00 PM 17.28 63.104 0.108 6.76 3.26 8.56
6/25/2021 12:00:00 AM 17.15 62.87 0.109 6.78 3.86 8.6
6/25/2021 12:15:00 AM 17.03 62.654 0.109 6.78 3.28 8.62
6/25/2021 12:30:00 AM 16.89 62.402 0.109 6.75 3.82 8.6
6/25/2021 12:45:00 AM 16.84 62.312 0.109 6.83 3.3 8.72
6/25/2021 1:00:00 AM 16.72 62.096 0.109 6.82 3.6 8.7
6/25/2021 1:15:00 AM 16.56 61.808 0.108 6.8 3.65 8.74
6/25/2021 1:30:00 AM 16.43 61.574 0.109 6.74 3.81 8.72
6/25/2021 1:45:00 AM 16.36 61.448 0.109 6.77 3.23 8.77
6/25/2021 2:00:00 AM 16.28 61.304 0.109 6.81 3.72 8.82
6/25/2021 2:15:00 AM 16.11 60.998 0.108 6.79 3.37 8.84
6/25/2021 2:30:00 AM 16.02 60.836 0.108 6.78 3.5 8.82
6/25/2021 2:45:00 AM 15.95 60.71 0.109 6.81 3.43 8.89
6/25/2021 3:00:00 AM 15.81 60.458 0.108 6.75 3.5 8.9
6/25/2021 3:15:00 AM 15.76 60.368 0.109 6.84 4.98 8.98
6/25/2021 3:30:00 AM 15.65 60.17 0.109 6.81 3.54 8.99
6/25/2021 3:45:00 AM 15.51 59.918 0.108 6.78 3.46 8.98
6/25/2021 4:00:00 AM 15.44 59.792 0.108 6.82 3.81 9.04
6/25/2021 4:15:00 AM 15.34 59.612 0.109 6.78 3.7 9.05
6/25/2021 4:30:00 AM 15.26 59.468 0.109 6.85 3.81 9.12
6/25/2021 4:45:00 AM 15.07 59.126 0.108 6.83 3.54 9.14
6/25/2021 5:00:00 AM 15.03 59.054 0.109 6.82 3.64 9.14
6/25/2021 5:15:00 AM 14.88 58.784 0.108 6.74 3.37 9.04
6/25/2021 5:30:00 AM 14.84 58.712 0.109 6.87 9.85 9.23
6/25/2021 5:45:00 AM 14.7 58.46 0.109 6.79 4.17 9.23
6/25/2021 6:00:00 AM 14.59 58.262 0.109 6.79 6.31 9.25
6/25/2021 6:15:00 AM 14.49 58.082 0.108 6.79 3.48 9.33
6/25/2021 6:30:00 AM 14.43 57.974 0.109 6.87 3.19 9.45
6/25/2021 6:45:00 AM 14.31 57.758 0.108 6.82 3.23 9.49
6/25/2021 7:00:00 AM 14.22 57.596 0.108 6.87 3.73 9.6
6/25/2021 7:15:00 AM 14.16 57.488 0.108 6.87 3.29 9.69
6/25/2021 7:30:00 AM 14.18 57.524 0.108 6.9 3.38 9.88
6/25/2021 7:45:00 AM 14.16 57.488 0.108 6.93 3.06 9.96
6/25/2021 8:00:00 AM 14.17 57.506 0.107 6.94 4.42 10.05
6/25/2021 8:15:00 AM 14.24 57.632 0.108 7 3.64 10.18
6/25/2021 8:30:00 AM 14.32 57.776 0.107 7.01 3.23 10.25
6/25/2021 8:45:00 AM 14.47 58.046 0.107 7.06 3.8 10.32
6/25/2021 9:00:00 AM 14.62 58.316 0.106 7.09 3.02 10.35
6/25/2021 9:15:00 AM 14.77 58.586 0.106 7.15 2.79 10.41
6/25/2021 9:30:00 AM 14.96 58.928 0.106 7.19 2.83 10.43
6/25/2021 9:45:00 AM 15.18 59.324 0.106 7.23 2.78 10.46
6/25/2021 10:00:00 AM 15.37 59.666 0.106 7.17 3.17 10.41
6/25/2021 10:15:00 AM 15.52 59.936 0.106 7.21 2.83 10.41
6/25/2021 10:30:00 AM 15.76 60.368 0.106 7.2 2.85 10.44
6/25/2021 10:45:00 AM 16.01 60.818 0.105 7.22 3.22 10.39
6/25/2021 11:00:00 AM 16.23 61.214 0.105 7.26 2.71 10.38
6/25/2021 11:15:00 AM 16.52 61.736 0.105 7.35 2.78 10.39
6/25/2021 11:30:00 AM 16.81 62.258 0.105 7.19 2.86 10.24
6/25/2021 11:45:00 AM 17.16 62.888 0.105 7.38 3.13 10.26
6/25/2021 12:00:00 PM 17.45 63.41 0.105 7.17 2.95 10.07
6/25/2021 12:15:00 PM 17.84 64.112 0.105 7.3 3.07 10.09
6/25/2021 12:30:00 PM 18.16 64.688 0.104 7.32 2.96 10.02
6/25/2021 12:45:00 PM 18.54 65.372 0.104 7.34 2.93 9.97
6/25/2021 1:00:00 PM 19 66.2 0.105 7.4 3.11 9.92
6/25/2021 1:15:00 PM 19.31 66.758 0.105 7.4 3.21 9.9
6/25/2021 1:30:00 PM 19.56 67.208 0.104 7.45 2.93 9.86
6/25/2021 1:45:00 PM 19.96 67.92799 0.104 7.56 2.92 9.85
6/25/2021 2:00:00 PM 20.34 68.612 0.105 7.71 2.82 9.79
6/25/2021 2:15:00 PM 20.47 68.846 0.105 7.63 2.92 9.74
6/25/2021 2:30:00 PM 20.74 69.332 0.104 7.74 3.16 9.73
6/25/2021 2:45:00 PM 20.89 69.602 0.104 7.81 3.71 9.69
6/25/2021 3:00:00 PM 21.05 69.89 0.104 7.9 3.16 9.67
6/25/2021 3:15:00 PM 21.13 70.034 0.104 7.74 2.7 9.57
6/25/2021 3:30:00 PM 21.24 70.232 0.104 7.76 6.37 9.49
6/25/2021 3:45:00 PM 21.32 70.376 0.104 7.73 2.69 9.44
6/25/2021 4:00:00 PM 21.25 70.25 0.104 7.61 4.44 9.28
6/25/2021 4:15:00 PM 21.34 70.412 0.104 7.64 3.14 9.31
6/25/2021 4:30:00 PM 21.47 70.646 0.104 7.74 3.68 9.34
6/25/2021 4:45:00 PM 21.61 70.898 0.104 7.79 4.28 9.3
6/25/2021 5:00:00 PM 21.53 70.754 0.104 7.59 4.63 9.2
6/25/2021 5:15:00 PM 21.49 70.682 0.104 7.63 2.9 9.15
6/25/2021 5:30:00 PM 21.52 70.736 0.105 7.67 2.89 9.08
6/25/2021 5:45:00 PM 21.44 70.592 0.104 7.45 2.83 8.96
6/25/2021 6:00:00 PM 21.4 70.52 0.105 7.29 2.88 8.81
6/25/2021 6:15:00 PM 21.37 70.466 0.105 7.27 2.88 8.69
6/25/2021 6:30:00 PM 21.25 70.25 0.106 7.19 2.87 8.61
6/25/2021 6:45:00 PM 21.01 69.818 0.105 7 3.07 8.52
6/25/2021 7:00:00 PM 20.91 69.638 0.106 7.04 2.86 8.45
6/25/2021 7:15:00 PM 20.81 69.458 0.106 7.06 2.95 8.44
6/25/2021 7:30:00 PM 20.68 69.224 0.106 7.03 3 8.41
6/25/2021 7:45:00 PM 20.56 69.008 0.106 7 3.03 8.4
6/25/2021 8:00:00 PM 20.45 68.81 0.107 7.02 3.28 8.38
6/25/2021 8:15:00 PM 20.29 68.522 0.107 6.92 3.05 8.29
6/25/2021 8:30:00 PM 20.18 68.324 0.107 6.96 2.95 8.27
6/25/2021 8:45:00 PM 20.06 68.108 0.107 6.93 2.85 8.21
6/25/2021 9:00:00 PM 19.95 67.91 0.107 6.94 2.99 8.2
6/25/2021 9:15:00 PM 19.79 67.622 0.107 6.87 3.42 8.12
6/25/2021 9:30:00 PM 19.67 67.406 0.107 6.89 3.64 8.11
6/25/2021 9:45:00 PM 19.54 67.172 0.108 6.88 3.1 8.11
6/25/2021 10:00:00 PM 19.39 66.902 0.108 6.87 3.2 8.12
6/25/2021 10:15:00 PM 19.25 66.65 0.108 6.84 3.77 8.13
6/25/2021 10:30:00 PM 19.12 66.416 0.109 6.84 3.33 8.15
6/25/2021 10:45:00 PM 18.99 66.182 0.109 6.84 3.29 8.19
6/25/2021 11:00:00 PM 18.82 65.876 0.109 6.79 3.17 8.21
6/25/2021 11:15:00 PM 18.68 65.624 0.109 6.83 3.36 8.23
6/25/2021 11:30:00 PM 18.53 65.354 0.109 6.81 4.05 8.26
6/25/2021 11:45:00 PM 18.42 65.156 0.11 6.84 3.09 8.29
6/26/2021 12:00:00 AM 18.29 64.922 0.11 6.83 3.4 8.32
6/26/2021 12:15:00 AM 18.15 64.67 0.11 6.82 3.19 8.35
6/26/2021 12:30:00 AM 18.01 64.418 0.11 6.84 3.23 8.36
6/26/2021 12:45:00 AM 17.87 64.166 0.11 6.82 3.34 8.4
6/26/2021 1:00:00 AM 17.75 63.95 0.11 6.82 3.42 8.44
6/26/2021 1:15:00 AM 17.62 63.716 0.11 6.84 3.17 8.48
6/26/2021 1:30:00 AM 17.51 63.518 0.11 6.82 3.36 8.5
6/26/2021 1:45:00 AM 17.39 63.302 0.11 6.84 3.21 8.54
6/26/2021 2:00:00 AM 17.26 63.068 0.11 6.8 3.22 8.51
6/26/2021 2:15:00 AM 17.19 62.942 0.11 6.84 3.15 8.59
6/26/2021 2:30:00 AM 17.08 62.744 0.11 6.83 3.45 8.61
6/26/2021 2:45:00 AM 16.95 62.51 0.11 6.8 3.27 8.61
6/26/2021 3:00:00 AM 16.88 62.384 0.11 6.84 3.71 8.66
6/26/2021 3:15:00 AM 16.79 62.222 0.11 6.84 3.31 8.69
6/26/2021 3:30:00 AM 16.68 62.024 0.11 6.82 3.84 8.7
6/26/2021 3:45:00 AM 16.62 61.916 0.11 6.83 3.41 8.69
6/26/2021 4:00:00 AM 16.53 61.754 0.11 6.83 3.24 8.73
6/26/2021 4:15:00 AM 16.47 61.646 0.11 6.86 3.28 8.78
6/26/2021 4:30:00 AM 16.4 61.52 0.11 6.84 3.55 8.78
6/26/2021 4:45:00 AM 16.37 61.466 0.11 6.85 3.36 8.79
6/26/2021 5:00:00 AM 16.32 61.376 0.11 6.86 3.26 8.8
6/26/2021 5:15:00 AM 16.29 61.322 0.11 6.86 3.38 8.81
6/26/2021 5:30:00 AM 16.25 61.25 0.11 6.82 3.5 8.78
6/26/2021 5:45:00 AM 16.24 61.232 0.11 6.86 3.35 8.86
6/26/2021 6:00:00 AM 16.22 61.196 0.11 6.83 3.27 8.85
6/26/2021 6:15:00 AM 16.22 61.196 0.11 6.86 3.4 8.89
6/26/2021 6:30:00 AM 16.24 61.232 0.11 6.89 3.23 8.95
6/26/2021 6:45:00 AM 16.23 61.214 0.11 6.88 3.21 9.02
6/26/2021 7:00:00 AM 16.21 61.178 0.11 6.88 3.28 9.03
6/26/2021 7:15:00 AM 16.24 61.232 0.11 6.9 3.25 9.07
6/26/2021 7:30:00 AM 16.26 61.268 0.11 6.92 3.15 9.11
6/26/2021 7:45:00 AM 16.28 61.304 0.109 6.92 3.84 9.28
6/26/2021 8:00:00 AM 16.34 61.412 0.109 6.96 2.93 9.44
6/26/2021 8:15:00 AM 16.42 61.556 0.109 7 3.52 9.62
6/26/2021 8:30:00 AM 16.52 61.736 0.109 7.05 3.21 9.77
6/26/2021 8:45:00 AM 16.64 61.952 0.109 7.09 2.89 9.84
6/26/2021 9:00:00 AM 16.73 62.114 0.108 7.11 3 9.8
6/26/2021 9:15:00 AM 16.81 62.258 0.108 7.09 3.08 9.84
6/26/2021 9:30:00 AM 16.93 62.474 0.108 7.16 3.32 9.9
6/26/2021 9:45:00 AM 17.05 62.69 0.108 7.16 3.08 10
6/26/2021 10:00:00 AM 17.21 62.978 0.107 7.14 3.22 10.01
6/26/2021 10:15:00 AM 17.43 63.374 0.107 7.26 3.33 10.1
6/26/2021 10:30:00 AM 17.71 63.878 0.107 7.33 3.03 10.14
6/26/2021 10:45:00 AM 17.95 64.31 0.107 7.31 3.44 10.14
6/26/2021 11:00:00 AM 18.18 64.724 0.107 7.35 2.97 10.15
6/26/2021 11:15:00 AM 18.44 65.192 0.106 7.52 3.11 10.18
6/26/2021 11:30:00 AM 18.62 65.516 0.106 7.47 3.24 10.14
6/26/2021 11:45:00 AM 18.87 65.966 0.106 7.6 15.86 10.13
6/26/2021 12:00:00 PM 19.07 66.326 0.106 7.62 3 10.1
6/26/2021 12:15:00 PM 19.29 66.722 0.106 7.69 3.13 10.07
6/26/2021 12:30:00 PM 19.61 67.298 0.106 7.74 2.9 10.03
6/26/2021 12:45:00 PM 19.97 67.946 0.105 7.77 3.15 9.98
6/26/2021 1:00:00 PM 20.31 68.558 0.105 7.9 2.85 9.93
6/26/2021 1:15:00 PM 20.5 68.9 0.105 7.74 3.02 9.82
6/26/2021 1:30:00 PM 21.03 69.854 0.105 7.94 2.93 9.75
6/26/2021 1:45:00 PM 21.44 70.592 0.105 8.06 3.43 9.74
6/26/2021 2:00:00 PM 21.65 70.97 0.105 7.81 3.1 9.55
6/26/2021 2:15:00 PM 22.09 71.762 0.105 8.13 2.86 9.58
6/26/2021 2:30:00 PM 22.25 72.05 0.105 8.02 2.93 9.46
6/26/2021 2:45:00 PM 22.37 72.266 0.105 7.93 2.88 9.35
6/26/2021 3:00:00 PM 22.56 72.608 0.105 7.87 2.8 9.28
6/26/2021 3:15:00 PM 22.79 73.022 0.105 8.08 2.89 9.28
6/26/2021 3:30:00 PM 22.85 73.13 0.105 7.95 2.91 9.15
6/26/2021 3:45:00 PM 22.93 73.274 0.105 7.85 3.29 9.13
6/26/2021 4:00:00 PM 22.97 73.346 0.105 7.8 2.68 9.05
6/26/2021 4:15:00 PM 22.97 73.346 0.105 7.71 2.72 9
6/26/2021 4:30:00 PM 22.95 73.31 0.105 7.67 2.84 8.91
6/26/2021 4:45:00 PM 22.99 73.382 0.105 7.62 2.91 8.85
6/26/2021 5:00:00 PM 22.99 73.382 0.105 7.56 2.75 8.75
6/26/2021 5:15:00 PM 22.96 73.328 0.105 7.45 2.77 8.7
6/26/2021 5:30:00 PM 22.96 73.328 0.105 7.43 2.96 8.74
6/26/2021 5:45:00 PM 22.94 73.292 0.106 7.45 2.96 8.69
6/26/2021 6:00:00 PM 22.86 73.148 0.106 7.4 2.95 8.63
6/26/2021 6:15:00 PM 22.81 73.058 0.106 7.35 3.66 8.55
6/26/2021 6:30:00 PM 22.77 72.986 0.106 7.24 3.09 8.44
6/26/2021 6:45:00 PM 22.73 72.914 0.106 7.23 3.2 8.34
6/26/2021 7:00:00 PM 22.69 72.842 0.107 7.15 3.16 8.19
6/26/2021 7:15:00 PM 22.66 72.788 0.107 7.18 3.5 8.16
6/26/2021 7:30:00 PM 22.57 72.626 0.107 7.11 3.17 8.16
6/26/2021 7:45:00 PM 22.49 72.482 0.108 7.11 3.26 8.1
6/26/2021 8:00:00 PM 22.37 72.266 0.108 7.05 3.11 8.01
6/26/2021 8:15:00 PM 22.19 71.942 0.108 7 3.02 7.92
6/26/2021 8:30:00 PM 22.1 71.78 0.108 7 3.18 7.87
6/26/2021 8:45:00 PM 22 71.6 0.109 6.98 3.19 7.84
6/26/2021 9:00:00 PM 21.85 71.33 0.109 6.93 4.37 7.77
6/26/2021 9:15:00 PM 21.72 71.096 0.109 6.92 3.37 7.72
6/26/2021 9:30:00 PM 21.6 70.88 0.109 6.9 3.22 7.7
6/26/2021 9:45:00 PM 21.51 70.718 0.11 6.89 3.21 7.68
6/26/2021 10:00:00 PM 21.37 70.466 0.11 6.87 3.61 7.67
6/26/2021 10:15:00 PM 21.27 70.286 0.11 6.88 3.41 7.67
6/26/2021 10:30:00 PM 21.16 70.088 0.11 6.85 3.33 7.69
6/26/2021 10:45:00 PM 21.09 69.962 0.11 6.87 3.44 7.71
6/26/2021 11:00:00 PM 20.99 69.782 0.111 6.84 4.01 7.7
6/26/2021 11:15:00 PM 20.89 69.602 0.111 6.87 3.33 7.76
6/26/2021 11:30:00 PM 20.73 69.314 0.111 6.82 3.48 7.75
6/26/2021 11:45:00 PM 20.67 69.206 0.111 6.88 3.66 7.8
6/27/2021 12:00:00 AM 20.51 68.918 0.111 6.82 3.53 7.79
6/27/2021 12:15:00 AM 20.46 68.828 0.112 6.86 3.46 7.85
6/27/2021 12:30:00 AM 20.31 68.558 0.112 6.82 3.5 7.84
6/27/2021 12:45:00 AM 20.25 68.45 0.112 6.88 3.24 7.89
6/27/2021 1:00:00 AM 20.13 68.234 0.112 6.86 3.38 7.9
6/27/2021 1:15:00 AM 20.05 68.09 0.112 6.87 3.57 7.94
6/27/2021 1:30:00 AM 19.95 67.91 0.112 6.84 3.38 7.93
6/27/2021 1:45:00 AM 19.88 67.784 0.112 6.87 3.08 7.98
6/27/2021 2:00:00 AM 19.79 67.622 0.112 6.86 3.52 7.99
6/27/2021 2:15:00 AM 19.73 67.514 0.112 6.85 3.47 8
6/27/2021 2:30:00 AM 19.68 67.424 0.112 6.85 3.34 8.02
6/27/2021 2:45:00 AM 19.62 67.316 0.112 6.87 3.35 8.04
6/27/2021 3:00:00 AM 19.52 67.136 0.112 6.83 3.4 8.01
6/27/2021 3:15:00 AM 19.5 67.1 0.112 6.86 3.59 8.05
6/27/2021 3:30:00 AM 19.45 67.01 0.112 6.83 3.49 8.04
6/27/2021 3:45:00 AM 19.43 66.974 0.112 6.87 3.55 8.08
6/27/2021 4:00:00 AM 19.35 66.83 0.112 6.84 3.41 8.05
6/27/2021 4:15:00 AM 19.28 66.704 0.112 6.85 3.71 8.1
6/27/2021 4:30:00 AM 19.25 66.65 0.112 6.85 3.35 8.09
6/27/2021 4:45:00 AM 19.14 66.452 0.112 6.82 3.64 8.1
6/27/2021 5:00:00 AM 19.16 66.488 0.112 6.89 3.6 8.16
6/27/2021 5:15:00 AM 19.07 66.326 0.112 6.85 3.46 8.15
6/27/2021 5:30:00 AM 18.98 66.164 0.112 6.84 3.55 8.16
6/27/2021 5:45:00 AM 18.98 66.164 0.112 6.85 3.54 8.19
6/27/2021 6:00:00 AM 18.94 66.092 0.112 6.87 3.58 8.25
6/27/2021 6:15:00 AM 18.92 66.056 0.112 6.89 3.69 8.32
6/27/2021 6:30:00 AM 18.85 65.93 0.112 6.83 3.49 8.35
6/27/2021 6:45:00 AM 18.83 65.894 0.112 6.89 3.67 8.45
6/27/2021 7:00:00 AM 18.82 65.876 0.112 6.92 3.4 8.54
6/27/2021 7:15:00 AM 18.81 65.858 0.112 6.93 3.43 8.62
6/27/2021 7:30:00 AM 18.83 65.894 0.111 6.95 3.84 8.73
6/27/2021 7:45:00 AM 18.84 65.912 0.111 6.98 3.53 8.8
6/27/2021 8:00:00 AM 18.9 66.02 0.111 7 3.33 8.89
6/27/2021 8:15:00 AM 18.93 66.074 0.111 7 3.48 8.94
6/27/2021 8:30:00 AM 19.09 66.362 0.111 7.07 3.83 9.05
6/27/2021 8:45:00 AM 19.21 66.578 0.111 7.1 3.43 9.11
6/27/2021 9:00:00 AM 19.33 66.794 0.11 7.12 3.33 9.16
6/27/2021 9:15:00 AM 19.48 67.064 0.11 7.18 3.87 9.21
6/27/2021 9:30:00 AM 19.62 67.316 0.11 7.14 3.27 9.25
6/27/2021 9:45:00 AM 19.83 67.694 0.11 7.18 3.18 9.26
6/27/2021 10:00:00 AM 20.01 68.018 0.109 7.2 3.31 9.28
6/27/2021 10:15:00 AM 20.2 68.36 0.109 7.24 3.28 9.31
6/27/2021 10:30:00 AM 20.44 68.792 0.109 7.29 3.69 9.32
6/27/2021 10:45:00 AM 20.74 69.332 0.109 7.32 3.3 9.34
6/27/2021 11:00:00 AM 21.04 69.872 0.109 7.37 3.22 9.34
6/27/2021 11:15:00 AM 21.35 70.43 0.108 7.35 3.31 9.34
6/27/2021 11:30:00 AM 21.65 70.97 0.108 7.46 3.32 9.37
6/27/2021 11:45:00 AM 21.85 71.33 0.108 7.46 3.2 9.31
6/27/2021 12:00:00 PM 22.11 71.798 0.108 7.5 3.09 9.3
6/27/2021 12:15:00 PM 22.38 72.284 0.108 7.5 3.27 9.25
6/27/2021 12:30:00 PM 22.72 72.896 0.108 7.58 3.57 9.26
6/27/2021 12:45:00 PM 23.05 73.49 0.107 7.6 3.3 9.13
6/27/2021 1:00:00 PM 23.21 73.778 0.107 7.47 3.37 9.02
6/27/2021 1:15:00 PM 23.52 74.336 0.107 7.64 3.19 9.08
6/27/2021 1:30:00 PM 23.89 75.002 0.107 7.7 3.34 9.06
6/27/2021 1:45:00 PM 24.07 75.326 0.107 7.66 2.96 8.99
6/27/2021 2:00:00 PM 24.32 75.776 0.107 7.73 3.47 8.98
6/27/2021 2:15:00 PM 24.56 76.208 0.107 7.75 3.39 8.91
6/27/2021 2:30:00 PM 24.85 76.73 0.107 7.74 3.05 8.81
6/27/2021 2:45:00 PM 24.85 76.73 0.107 7.57 3.08 8.73
6/27/2021 3:00:00 PM 24.97 76.946 0.107 7.68 2.99 8.69
6/27/2021 3:15:00 PM 25.05 77.09 0.107 7.73 3.05 8.71
6/27/2021 3:30:00 PM 25.16 77.288 0.107 7.73 3.41 8.7
6/27/2021 3:45:00 PM 25.28 77.504 0.107 7.77 3 8.69
6/27/2021 4:00:00 PM 25.27 77.486 0.107 7.65 2.99 8.63
6/27/2021 4:15:00 PM 25.36 77.648 0.107 7.69 3.27 8.58
6/27/2021 4:30:00 PM 25.29 77.522 0.107 7.57 2.82 8.51
6/27/2021 4:45:00 PM 25.33 77.594 0.107 7.57 3.09 8.46
6/27/2021 5:00:00 PM 25.41 77.738 0.107 7.55 3.13 8.42
6/27/2021 5:15:00 PM 25.45 77.81 0.107 7.5 2.92 8.35
6/27/2021 5:30:00 PM 25.37 77.666 0.107 7.46 2.74 8.33
6/27/2021 5:45:00 PM 25.35 77.63 0.107 7.49 3.06 8.33
6/27/2021 6:00:00 PM 25.26 77.468 0.107 7.39 3.27 8.28
6/27/2021 6:15:00 PM 25.13 77.234 0.108 7.31 3.36 8.16
6/27/2021 6:30:00 PM 24.99 76.982 0.108 7.28 3.16 8.08
6/27/2021 6:45:00 PM 24.84 76.712 0.108 7.2 3.05 8.01
6/27/2021 7:00:00 PM 24.8 76.64 0.108 7.27 3.01 7.99
6/27/2021 7:15:00 PM 24.59 76.262 0.108 7.14 3.08 7.91
6/27/2021 7:30:00 PM 24.51 76.118 0.108 7.09 2.88 7.82
6/27/2021 7:45:00 PM 24.36 75.848 0.108 7.06 3.29 7.76
6/27/2021 8:00:00 PM 24.25 75.65 0.109 7.04 3.96 7.7
6/27/2021 8:15:00 PM 24.12 75.416 0.109 7.03 3.4 7.62
6/27/2021 8:30:00 PM 24.02 75.236 0.109 7.01 3.32 7.55
6/27/2021 8:45:00 PM 23.88 74.984 0.109 6.95 3.26 7.47
6/27/2021 9:00:00 PM 23.77 74.786 0.109 6.96 3.42 7.41
6/27/2021 9:15:00 PM 23.64 74.552 0.11 6.95 3.43 7.35
6/27/2021 9:30:00 PM 23.52 74.336 0.11 6.92 3.6 7.31
6/27/2021 9:45:00 PM 23.33 73.994 0.11 6.87 3.73 7.26
6/27/2021 10:00:00 PM 23.24 73.832 0.111 6.88 3.54 7.28
6/27/2021 10:15:00 PM 23.08 73.544 0.111 6.85 3.49 7.25
6/27/2021 10:30:00 PM 23.02 73.436 0.111 6.87 3.63 7.28
6/27/2021 10:45:00 PM 22.88 73.184 0.111 6.85 3.36 7.31
6/27/2021 11:00:00 PM 22.83 73.094 0.112 6.89 3.64 7.33
6/27/2021 11:15:00 PM 22.73 72.914 0.112 6.89 3.61 7.36
6/27/2021 11:30:00 PM 22.59 72.662 0.112 6.85 3.78 7.37
6/27/2021 11:45:00 PM 22.49 72.482 0.112 6.87 4.15 7.4
6/28/2021 12:00:00 AM 22.32 72.176 0.112 6.84 4.02 7.37
6/28/2021 12:15:00 AM 22.24 72.032 0.113 6.85 6.32 7.4
6/28/2021 12:30:00 AM 22.18 71.924 0.113 6.9 3.73 7.48
6/28/2021 12:45:00 AM 22.06 71.708 0.113 6.9 3.71 7.49
6/28/2021 1:00:00 AM 21.98 71.564 0.113 6.91 4.38 7.53
6/28/2021 1:15:00 AM 21.82 71.276 0.113 6.87 3.74 7.54
6/28/2021 1:30:00 AM 21.68 71.024 0.113 6.85 3.91 7.55
6/28/2021 1:45:00 AM 21.62 70.916 0.113 6.88 3.86 7.59
6/28/2021 2:00:00 AM 21.5 70.7 0.113 6.86 3.8 7.6
6/28/2021 2:15:00 AM 21.43 70.574 0.113 6.89 4.48 7.62
6/28/2021 2:30:00 AM 21.34 70.412 0.113 6.86 3.72 7.67
6/28/2021 2:45:00 AM 21.24 70.232 0.113 6.83 4.48 7.66
6/28/2021 3:00:00 AM 21.21 70.17799 0.114 6.88 3.76 7.69
6/28/2021 3:15:00 AM 21.02 69.836 0.113 6.8 3.71 7.69
6/28/2021 3:30:00 AM 21.01 69.818 0.113 6.88 3.92 7.73
6/28/2021 3:45:00 AM 20.91 69.638 0.113 6.86 5.52 7.74
6/28/2021 4:00:00 AM 20.79 69.422 0.113 6.83 4.73 7.72
6/28/2021 4:15:00 AM 20.77 69.386 0.113 6.87 3.85 7.78
6/28/2021 4:30:00 AM 20.66 69.188 0.113 6.85 6.68 7.79
6/28/2021 4:45:00 AM 20.6 69.08 0.113 6.83 4.99 7.78
6/28/2021 5:00:00 AM 20.52 68.936 0.113 6.84 10.09 7.79
6/28/2021 5:15:00 AM 20.49 68.882 0.114 6.85 4.02 7.85
6/28/2021 5:30:00 AM 20.32 68.576 0.113 6.81 9.1 7.86
6/28/2021 5:45:00 AM 20.35 68.63 0.113 6.86 5.5 7.9
6/28/2021 6:00:00 AM 20.29 68.522 0.114 6.87 4.18 7.96
6/28/2021 6:15:00 AM 20.23 68.414 0.114 6.88 6.07 8.03
6/28/2021 6:30:00 AM 20.22 68.396 0.114 6.91 3.45 8.12
6/28/2021 6:45:00 AM 20.14 68.252 0.114 6.88 3.85 8.13
6/28/2021 7:00:00 AM 20.1 68.18 0.113 6.91 18.67 8.22
6/28/2021 7:15:00 AM 20.08 68.144 0.113 6.93 3.99 8.28
6/28/2021 7:30:00 AM 20.07 68.126 0.113 6.94 4.51 8.35
6/28/2021 7:45:00 AM 20.09 68.162 0.113 6.97 4.05 8.47
6/28/2021 8:00:00 AM 20.09 68.162 0.113 6.99 3.74 8.55
6/28/2021 8:15:00 AM 20.14 68.252 0.113 7.02 5.35 8.64
6/28/2021 8:30:00 AM 20.2 68.36 0.112 7 3.69 8.7
6/28/2021 8:45:00 AM 20.34 68.612 0.112 7.08 8.51 8.79
6/28/2021 9:00:00 AM 20.44 68.792 0.112 7.09 3.48 8.88
6/28/2021 9:15:00 AM 20.56 69.008 0.112 7.13 8.51 8.9
6/28/2021 9:30:00 AM 20.72 69.296 0.112 7.13 3.6 8.95
6/28/2021 9:45:00 AM 20.92 69.656 0.111 7.18 3.45 9.02
6/28/2021 10:00:00 AM 21.18 70.124 0.111 7.26 3.36 9.1
6/28/2021 10:15:00 AM 21.3 70.34 0.111 7.24 3.39 9.09
6/28/2021 10:30:00 AM 21.5 70.7 0.111 7.27 3.47 9.1
6/28/2021 10:45:00 AM 21.69 71.042 0.11 7.28 3.4 9.13
6/28/2021 11:00:00 AM 21.96 71.528 0.11 7.31 3.22 9.11
6/28/2021 11:15:00 AM 22.14 71.852 0.11 7.29 3.19 9.09
6/28/2021 11:30:00 AM 22.4 72.32 0.11 7.29 3.1 9.08
6/28/2021 11:45:00 AM 22.69 72.842 0.11 7.3 3.38 9.09
6/28/2021 12:00:00 PM 22.97 73.346 0.109 7.37 3.52 9.07
6/28/2021 12:15:00 PM 23.21 73.778 0.109 7.4 3.74 8.95
6/28/2021 12:30:00 PM 23.24 73.832 0.109 7.29 3.22 8.74
6/28/2021 12:45:00 PM 23.3 73.94 0.109 7.21 3.19 8.66
6/28/2021 1:00:00 PM 23.72 74.696 0.109 7.34 3.7 8.77
6/28/2021 1:15:00 PM 24.14 75.452 0.109 7.35 4.19 8.77
6/28/2021 1:30:00 PM 24.58 76.244 0.108 7.34 3.36 8.7
6/28/2021 1:45:00 PM 25 77 0.109 7.39 16.44 8.66
6/28/2021 2:00:00 PM 25.17 77.306 0.109 7.29 3.17 8.57
6/28/2021 2:15:00 PM 25.29 77.522 0.109 7.35 3.75 8.45
6/28/2021 2:30:00 PM 25.53 77.954 0.109 7.34 3.23 8.4
6/28/2021 2:45:00 PM 25.89 78.602 0.109 7.45 3.3 8.37
6/28/2021 3:00:00 PM 26.12 79.016 0.109 7.35 3.38 8.3
6/28/2021 3:15:00 PM 26.28 79.304 0.109 7.42 3.2 8.27
6/28/2021 3:30:00 PM 26.38 79.484 0.109 7.34 2.96 8.16
6/28/2021 3:45:00 PM 26.51 79.718 0.109 7.24 2.85 8.09
6/28/2021 4:00:00 PM 26.54 79.772 0.109 7.3 2.73 8.05
6/28/2021 4:15:00 PM 26.62 79.916 0.109 7.28 2.86 7.97
6/28/2021 4:30:00 PM 26.61 79.898 0.109 7.28 2.86 7.95
6/28/2021 4:45:00 PM 26.63 79.934 0.11 7.27 3.03 7.9
6/28/2021 5:00:00 PM 26.51 79.718 0.11 7.14 3.31 7.86
6/28/2021 5:15:00 PM 26.42 79.556 0.11 7.07 14.68 7.76
6/28/2021 5:30:00 PM 26.41 79.538 0.11 7.17 8.34 7.74
6/28/2021 5:45:00 PM 26.25 79.25 0.11 7.12 8.25 7.7
6/28/2021 6:00:00 PM 26.14 79.052 0.11 7.08 3.92 7.61
6/28/2021 6:15:00 PM 26.04 78.872 0.11 7.04 3.34 7.53
6/28/2021 6:30:00 PM 25.86 78.548 0.11 7 3 7.4
6/28/2021 6:45:00 PM 25.85 78.53 0.11 7.03 3.18 7.42
6/28/2021 7:00:00 PM 25.73 78.314 0.11 7.02 3.16 7.3
6/28/2021 7:15:00 PM 25.55 77.99 0.11 6.96 3.5 7.29
6/28/2021 7:30:00 PM 25.44 77.792 0.11 6.95 3 7.3
6/28/2021 7:45:00 PM 25.37 77.666 0.111 6.97 2.92 7.27
6/28/2021 8:00:00 PM 25.29 77.522 0.111 6.99 3.19 7.26
6/28/2021 8:15:00 PM 25.2 77.36 0.111 6.99 3.14 7.22
6/28/2021 8:30:00 PM 25.1 77.18 0.111 7.01 3.72 7.19
6/28/2021 8:45:00 PM 24.96 76.92799 0.111 6.94 3.13 7.14
6/28/2021 9:00:00 PM 24.82 76.676 0.111 6.94 3.35 7.09
6/28/2021 9:15:00 PM 24.73 76.514 0.112 6.91 3.33 7.08
6/28/2021 9:30:00 PM 24.54 76.172 0.112 6.87 3.43 7.08
6/28/2021 9:45:00 PM 24.5 76.1 0.112 6.9 3.26 7.08
6/28/2021 10:00:00 PM 24.39 75.902 0.112 6.92 3.47 7.09
6/28/2021 10:15:00 PM 24.26 75.668 0.113 6.92 3.47 7.1
6/28/2021 10:30:00 PM 24.15 75.47 0.113 6.92 3.96 7.12
6/28/2021 10:45:00 PM 23.96 75.128 0.113 6.85 3.43 7.11
6/28/2021 11:00:00 PM 23.84 74.912 0.113 6.86 3.57 7.14
6/28/2021 11:15:00 PM 23.77 74.786 0.113 6.9 3.63 7.19
6/28/2021 11:30:00 PM 23.65 74.57 0.114 6.91 3.66 7.22
6/28/2021 11:45:00 PM 23.55 74.39 0.114 6.92 3.65 7.25
6/29/2021 12:00:00 AM 23.41 74.138 0.114 6.9 3.67 7.28
6/29/2021 12:15:00 AM 23.33 73.994 0.114 6.89 3.45 7.31
6/29/2021 12:30:00 AM 23.17 73.706 0.114 6.89 3.57 7.3
6/29/2021 12:45:00 AM 23.06 73.508 0.114 6.89 5.32 7.33
6/29/2021 1:00:00 AM 22.99 73.382 0.114 6.9 3.57 7.37
6/29/2021 1:15:00 AM 22.88 73.184 0.114 6.9 3.65 7.38
6/29/2021 1:30:00 AM 22.78 73.004 0.115 6.9 3.69 7.41
6/29/2021 1:45:00 AM 22.62 72.716 0.114 6.86 3.89 7.42
6/29/2021 2:00:00 AM 22.6 72.68 0.115 6.9 3.91 7.46
6/29/2021 2:15:00 AM 22.43 72.374 0.114 6.84 4.14 7.45
6/29/2021 2:30:00 AM 22.4 72.32 0.115 6.89 3.87 7.48
6/29/2021 2:45:00 AM 22.26 72.068 0.115 6.89 3.72 7.5
6/29/2021 3:00:00 AM 22.2 71.96 0.115 6.91 3.77 7.53
6/29/2021 3:15:00 AM 22.11 71.798 0.115 6.89 3.79 7.55
6/29/2021 3:30:00 AM 22.01 71.618 0.115 6.88 3.85 7.57
6/29/2021 3:45:00 AM 21.93 71.474 0.115 6.89 4.48 7.58
6/29/2021 4:00:00 AM 21.85 71.33 0.115 6.89 4.11 7.6
6/29/2021 4:15:00 AM 21.74 71.132 0.115 6.87 4.11 7.62
6/29/2021 4:30:00 AM 21.67 71.006 0.115 6.89 3.95 7.63
6/29/2021 4:45:00 AM 21.59 70.862 0.115 6.89 4.41 7.65
6/29/2021 5:00:00 AM 21.52 70.736 0.115 6.87 4.11 7.67
6/29/2021 5:15:00 AM 21.42 70.556 0.115 6.88 8.56 7.69
6/29/2021 5:30:00 AM 21.37 70.466 0.115 6.88 5.77 7.7
6/29/2021 5:45:00 AM 21.28 70.304 0.115 6.88 3.85 7.74
6/29/2021 6:00:00 AM 21.24 70.232 0.115 6.9 3.87 7.78
6/29/2021 6:15:00 AM 21.14 70.052 0.115 6.9 4.37 7.84
6/29/2021 6:30:00 AM 21.08 69.944 0.115 6.91 5.38 7.92
6/29/2021 6:45:00 AM 21.02 69.836 0.115 6.91 10.73 7.98
6/29/2021 7:00:00 AM 20.95 69.71 0.115 6.91 5.91 8.05
6/29/2021 7:15:00 AM 20.94 69.692 0.115 6.95 8.82 8.13
6/29/2021 7:30:00 AM 20.92 69.656 0.114 6.95 9.57 8.2
6/29/2021 7:45:00 AM 20.89 69.602 0.114 6.96 3.83 8.3
6/29/2021 8:00:00 AM 20.92 69.656 0.114 7.01 3.82 8.43
6/29/2021 8:15:00 AM 20.97 69.746 0.114 7.03 3.95 8.47
6/29/2021 8:30:00 AM 21.05 69.89 0.114 7.05 4.27 8.6
6/29/2021 8:45:00 AM 21.14 70.052 0.114 7.05 3.9 8.67
6/29/2021 9:00:00 AM 21.24 70.232 0.113 7.09 3.47 8.73
6/29/2021 9:15:00 AM 21.35 70.43 0.113 7.14 3.85 8.77
6/29/2021 9:30:00 AM 21.51 70.718 0.113 7.14 3.36 8.83
6/29/2021 9:45:00 AM 21.73 71.114 0.113 7.2 3.75 8.87
6/29/2021 10:00:00 AM 21.92 71.456 0.113 7.22 3.58 8.9
6/29/2021 10:15:00 AM 22.07 71.726 0.113 7.26 3.48 8.92
6/29/2021 10:30:00 AM 22.29 72.122 0.113 7.24 3.6 8.92
6/29/2021 10:45:00 AM 22.5 72.5 0.112 7.26 3.41 8.92
6/29/2021 11:00:00 AM 22.76 72.968 0.112 7.21 3.7 8.87
6/29/2021 11:15:00 AM 23.07 73.526 0.112 7.28 3.35 8.94
6/29/2021 11:30:00 AM 23.3 73.94 0.112 7.29 4.69 8.83
6/29/2021 11:45:00 AM 23.59 74.462 0.112 7.39 3.3 8.92
6/29/2021 12:00:00 PM 23.89 75.002 0.111 7.39 3.85 8.86
6/29/2021 12:15:00 PM 24.13 75.434 0.111 7.34 3.54 8.77
6/29/2021 12:30:00 PM 24.28 75.704 0.111 7.31 5.73 8.67
6/29/2021 12:45:00 PM 24.52 76.136 0.111 7.31 3.17 8.67
6/29/2021 1:00:00 PM 24.79 76.622 0.11 7.33 4.75 8.65
6/29/2021 1:15:00 PM 25.04 77.07201 0.111 7.33 3.47 8.63
6/29/2021 1:30:00 PM 25.32 77.576 0.11 7.46 3.3 8.61
6/29/2021 1:45:00 PM 25.42 77.756 0.11 7.26 3.31 8.34
6/29/2021 2:00:00 PM 25.65 78.17 0.111 7.41 2.69 8.44
6/29/2021 2:15:00 PM 25.87 78.566 0.11 7.37 3.04 8.34
6/29/2021 2:30:00 PM 26.02 78.836 0.111 7.27 5.33 8.15
6/29/2021 2:45:00 PM 26.17 79.106 0.111 7.32 3.05 8.16
6/29/2021 3:00:00 PM 26.34 79.412 0.111 7.39 2.89 8.15
6/29/2021 3:15:00 PM 26.5 79.7 0.111 7.37 3.26 8.18
6/29/2021 3:30:00 PM 26.51 79.718 0.111 7.28 3.29 8.01
6/29/2021 3:45:00 PM 26.75 80.15 0.111 7.32 2.72 8
6/29/2021 4:00:00 PM 26.91 80.438 0.111 7.32 2.79 8.04
6/29/2021 4:15:00 PM 26.9 80.42 0.111 7.29 3.13 7.88
6/29/2021 4:30:00 PM 26.98 80.564 0.111 7.27 3.31 7.88
6/29/2021 4:45:00 PM 27.02 80.636 0.111 7.25 2.69 7.86
6/29/2021 5:00:00 PM 27.01 80.618 0.111 7.28 2.67 7.82
6/29/2021 5:15:00 PM 26.97 80.546 0.111 7.23 2.81 7.61
6/29/2021 5:30:00 PM 26.94 80.492 0.111 7.17 2.73 7.62
6/29/2021 5:45:00 PM 26.87 80.366 0.11 7.18 3 7.65
6/29/2021 6:00:00 PM 26.78 80.204 0.111 7.11 2.76 7.56
6/29/2021 6:15:00 PM 26.66 79.988 0.111 7.08 2.88 7.47
6/29/2021 6:30:00 PM 26.5 79.7 0.111 7.02 2.96 7.34
6/29/2021 6:45:00 PM 26.4 79.52 0.111 6.99 2.94 7.29
6/29/2021 7:00:00 PM 26.4 79.52 0.112 7.08 4.3 7.34
6/29/2021 7:15:00 PM 26.25 79.25 0.111 7.01 3.24 7.26
6/29/2021 7:30:00 PM 26.14 79.052 0.112 7.02 3.37 7.23
6/29/2021 7:45:00 PM 26.01 78.818 0.112 6.96 3.03 7.16
6/29/2021 8:00:00 PM 25.9 78.62 0.112 6.94 3.05 7.13
6/29/2021 8:15:00 PM 25.74 78.332 0.112 6.96 3.19 7.08
6/29/2021 8:30:00 PM 25.65 78.17 0.112 6.93 3.85 7.02
6/29/2021 8:45:00 PM 25.57 78.026 0.113 6.96 3.13 7.02
6/29/2021 9:00:00 PM 25.38 77.684 0.113 6.94 3.39 6.99
6/29/2021 9:15:00 PM 25.33 77.594 0.113 6.98 3.46 6.99
6/29/2021 9:30:00 PM 25.19 77.342 0.113 6.92 3.69 6.95
6/29/2021 9:45:00 PM 25.03 77.054 0.112 6.92 3.78 7.02
6/29/2021 10:00:00 PM 24.86 76.748 0.112 6.89 3.53 6.97
6/29/2021 10:15:00 PM 24.77 76.586 0.113 6.92 3.48 6.97
6/29/2021 10:30:00 PM 24.67 76.406 0.113 6.94 3.48 7
6/29/2021 10:45:00 PM 24.52 76.136 0.113 6.92 3.79 7.05
6/29/2021 11:00:00 PM 24.4 75.92 0.113 6.92 3.53 7.06
6/29/2021 11:15:00 PM 24.29 75.722 0.114 6.93 3.85 7.08
6/29/2021 11:30:00 PM 24.18 75.524 0.114 6.93 3.64 7.09
6/29/2021 11:45:00 PM 24.04 75.272 0.114 6.91 3.93 7.12
6/30/2021 12:00:00 AM 23.92 75.056 0.114 6.9 3.48 7.15
6/30/2021 12:15:00 AM 23.79 74.82201 0.114 6.91 3.62 7.18
6/30/2021 12:30:00 AM 23.67 74.606 0.114 6.89 3.62 7.2
6/30/2021 12:45:00 AM 23.57 74.426 0.114 6.92 3.69 7.21
6/30/2021 1:00:00 AM 23.46 74.228 0.115 6.91 3.68 7.24
6/30/2021 1:15:00 AM 23.4 74.12 0.115 6.93 3.59 7.28
6/30/2021 1:30:00 AM 23.3 73.94 0.115 6.93 3.6 7.29
6/30/2021 1:45:00 AM 23.2 73.76 0.115 6.93 3.7 7.32
6/30/2021 2:00:00 AM 23.11 73.598 0.115 6.92 3.56 7.34
6/30/2021 2:15:00 AM 23.01 73.418 0.115 6.91 3.92 7.34
6/30/2021 2:30:00 AM 22.88 73.184 0.115 6.9 3.76 7.35
6/30/2021 2:45:00 AM 22.83 73.094 0.115 6.9 3.75 7.38
6/30/2021 3:00:00 AM 22.71 72.878 0.115 6.9 3.61 7.39
6/30/2021 3:15:00 AM 22.66 72.788 0.115 6.91 3.93 7.42
6/30/2021 3:30:00 AM 22.56 72.608 0.114 6.91 3.71 7.42
6/30/2021 3:45:00 AM 22.49 72.482 0.115 6.91 3.7 7.44
6/30/2021 4:00:00 AM 22.41 72.338 0.115 6.91 4.28 7.46
6/30/2021 4:15:00 AM 22.33 72.194 0.115 6.9 3.69 7.46
6/30/2021 4:30:00 AM 22.27 72.086 0.115 6.92 4.14 7.49
6/30/2021 4:45:00 AM 22.16 71.888 0.115 6.89 3.85 7.5
6/30/2021 5:00:00 AM 22.09 71.762 0.115 6.91 4.12 7.53
6/30/2021 5:15:00 AM 22.02 71.636 0.115 6.9 4.02 7.54
6/30/2021 5:30:00 AM 21.94 71.492 0.115 6.91 4.62 7.56
6/30/2021 5:45:00 AM 21.84 71.312 0.115 6.9 3.88 7.57
6/30/2021 6:00:00 AM 21.82 71.276 0.115 6.92 4.31 7.63
6/30/2021 6:15:00 AM 21.75 71.15 0.115 6.93 3.89 7.68
6/30/2021 6:30:00 AM 21.7 71.06 0.115 6.92 3.95 7.76
6/30/2021 6:45:00 AM 21.61 70.898 0.115 6.93 4.26 7.82
6/30/2021 7:00:00 AM 21.59 70.862 0.115 6.95 5.24 7.93
6/30/2021 7:15:00 AM 21.51 70.718 0.114 6.95 3.78 8.05
6/30/2021 7:30:00 AM 21.51 70.718 0.114 6.99 3.81 8.16
6/30/2021 7:45:00 AM 21.51 70.718 0.114 7.02 3.74 8.19
6/30/2021 8:00:00 AM 21.51 70.718 0.114 7.01 3.75 8.24
6/30/2021 8:15:00 AM 21.53 70.754 0.114 7.06 3.57 8.3
6/30/2021 8:30:00 AM 21.6 70.88 0.114 7.08 3.96 8.37
6/30/2021 8:45:00 AM 21.66 70.988 0.114 7.1 3.85 8.45
6/30/2021 9:00:00 AM 21.72 71.096 0.113 7.08 3.88 8.46
6/30/2021 9:15:00 AM 21.8 71.24 0.113 7.1 3.57 8.53
6/30/2021 9:30:00 AM 21.88 71.384 0.113 7.09 3.77 8.54
6/30/2021 9:45:00 AM 22.13 71.834 0.113 7.15 3.55 8.6
6/30/2021 10:00:00 AM 22.26 72.068 0.113 7.11 3.74 8.61
6/30/2021 10:15:00 AM 22.44 72.392 0.113 7.16 3.71 8.64
6/30/2021 10:30:00 AM 22.63 72.734 0.112 7.19 3.52 8.66
6/30/2021 10:45:00 AM 22.88 73.184 0.112 7.22 3.65 8.65
6/30/2021 11:00:00 AM 23.18 73.724 0.112 7.26 3.13 8.68
6/30/2021 11:15:00 AM 23.46 74.228 0.112 7.28 3.43 8.68
6/30/2021 11:30:00 AM 23.8 74.84 0.112 7.31 3.42 8.69
6/30/2021 11:45:00 AM 24.04 75.272 0.111 7.27 3.54 8.63
6/30/2021 12:00:00 PM 24.31 75.758 0.111 7.31 3.29 8.65
6/30/2021 12:15:00 PM 24.72 76.496 0.111 7.42 3.49 8.64
6/30/2021 12:30:00 PM 24.94 76.892 0.111 7.32 3.42 8.55
6/30/2021 12:45:00 PM 25.25 77.45 0.111 7.36 3.02 8.5
6/30/2021 1:00:00 PM 25.61 78.098 0.111 7.42 3.5 8.49
6/30/2021 1:15:00 PM 25.94 78.692 0.111 7.44 3.46 8.45
6/30/2021 1:30:00 PM 26.25 79.25 0.111 7.39 3.29 8.37
6/30/2021 1:45:00 PM 26.54 79.772 0.111 7.42 3.52 8.31
6/30/2021 2:00:00 PM 26.73 80.114 0.111 7.42 3.32 8.25
6/30/2021 2:15:00 PM 26.84 80.312 0.111 7.41 3.32 8.15
6/30/2021 2:30:00 PM 26.93 80.474 0.111 7.33 3.13 8.14
6/30/2021 2:45:00 PM 26.93 80.474 0.111 7.26 3.29 8
6/30/2021 3:00:00 PM 27.1 80.78 0.111 7.47 3.13 8.13
6/30/2021 3:15:00 PM 26.99 80.582 0.111 7.31 2.93 7.92
6/30/2021 3:30:00 PM 26.89 80.402 0.111 7.13 3 7.63
6/30/2021 3:45:00 PM 26.95 80.51 0.111 7.2 3.35 7.64
6/30/2021 4:00:00 PM 26.89 80.402 0.111 7.24 2.65 7.76
6/30/2021 4:15:00 PM 26.84 80.312 0.111 7.23 2.95 7.72
6/30/2021 4:30:00 PM 26.78 80.204 0.111 7.2 2.86 7.8
6/30/2021 4:45:00 PM 26.66 79.988 0.111 7.2 3.39 7.69
6/30/2021 5:00:00 PM 26.54 79.772 0.111 7.18 3.04 7.6
6/30/2021 5:15:00 PM 26.42 79.556 0.112 7.11 3.38 7.42
6/30/2021 5:30:00 PM 26.2 79.16 0.11 7.06 3.66 7.27
6/30/2021 5:45:00 PM 25.96 78.728 0.109 6.95 3.69 7.17
6/30/2021 6:00:00 PM 25.88 78.584 0.11 7.04 3.52 7.17
6/30/2021 6:15:00 PM 25.8 78.44 0.11 7.03 3.57 7.12
6/30/2021 6:30:00 PM 25.55 77.99 0.111 6.92 3.59 7.09
6/30/2021 6:45:00 PM 25.5 77.9 0.112 7 3.79 7.1
6/30/2021 7:00:00 PM 25.31 77.558 0.11 6.98 3.59 7.1
6/30/2021 7:15:00 PM 25.14 77.252 0.11 6.94 3.53 7.07
6/30/2021 7:30:00 PM 24.97 76.946 0.11 6.9 3.78 7.05
6/30/2021 7:45:00 PM 24.92 76.856 0.11 6.97 3.93 7.11
6/30/2021 8:00:00 PM 24.71 76.478 0.11 6.89 3.94 7.08
6/30/2021 8:15:00 PM 24.61 76.298 0.11 6.93 3.85 7.14
6/30/2021 8:30:00 PM 24.45 76.01 0.11 6.92 3.88 7.15
6/30/2021 8:45:00 PM 24.29 75.722 0.11 6.87 3.99 7.12
6/30/2021 9:00:00 PM 24.11 75.398 0.11 6.86 4.11 7.14
6/30/2021 9:15:00 PM 23.95 75.11 0.11 6.88 5.89 7.14
6/30/2021 9:30:00 PM 23.79 74.82201 0.11 6.84 4.6 7.15
6/30/2021 9:45:00 PM 23.69 74.642 0.11 6.84 4.47 7.17
6/30/2021 10:00:00 PM 23.57 74.426 0.11 6.86 5.43 7.18
6/30/2021 10:15:00 PM 23.43 74.174 0.11 6.81 4.18 7.18
6/30/2021 10:30:00 PM 23.3 73.94 0.11 6.87 4.5 7.23
6/30/2021 10:45:00 PM 23.18 73.724 0.111 6.81 4.42 7.26
6/30/2021 11:00:00 PM 23.04 73.472 0.11 6.81 4.46 7.27
6/30/2021 11:15:00 PM 23.02 73.436 0.111 6.79 4.39 7.31
6/30/2021 11:30:00 PM 22.96 73.328 0.111 6.84 4.7 7.32
6/30/2021 11:45:00 PM 22.84 73.112 0.11 6.88 4.22 7.39
7/1/2021 12:00:00 AM 22.68 72.824 0.11 6.78 4.62 7.31
7/1/2021 12:15:00 AM 22.65 72.77 0.11 6.82 5.18 7.35
7/1/2021 12:30:00 AM 22.54 72.57201 0.11 6.78 4.14 7.38
7/1/2021 12:45:00 AM 22.54 72.57201 0.111 6.85 4.8 7.44
7/1/2021 1:00:00 AM 22.44 72.392 0.11 6.86 4.42 7.46
7/1/2021 1:15:00 AM 22.34 72.212 0.11 6.8 4.68 7.39
7/1/2021 1:30:00 AM 22.29 72.122 0.11 6.85 5.27 7.45
7/1/2021 1:45:00 AM 22.19 71.942 0.11 6.85 6.44 7.48
7/1/2021 2:00:00 AM 22.14 71.852 0.11 6.85 5.74 7.5
7/1/2021 2:15:00 AM 22.03 71.654 0.11 6.84 4.04 7.47
7/1/2021 2:30:00 AM 22.05 71.69 0.11 6.87 4.14 7.56
7/1/2021 2:45:00 AM 21.81 71.258 0.109 6.77 3.92 7.49
7/1/2021 3:00:00 AM 21.85 71.33 0.11 6.83 4.27 7.59
7/1/2021 3:15:00 AM 21.8 71.24 0.11 6.84 5.4 7.61
7/1/2021 3:30:00 AM 21.72 71.096 0.11 6.79 5 7.59
7/1/2021 3:45:00 AM 21.68 71.024 0.11 6.83 4.55 7.6
7/1/2021 4:00:00 AM 21.58 70.844 0.11 6.79 4.34 7.6
7/1/2021 4:15:00 AM 21.53 70.754 0.11 6.85 4.91 7.68
7/1/2021 4:30:00 AM 21.46 70.628 0.11 6.81 7.49 7.7
7/1/2021 4:45:00 AM 21.42 70.556 0.11 6.81 6.05 7.65
7/1/2021 5:00:00 AM 21.29 70.32201 0.11 6.75 5.12 7.66
7/1/2021 5:15:00 AM 21.29 70.32201 0.11 6.87 4.36 7.77
7/1/2021 5:30:00 AM 21.22 70.196 0.11 6.82 4.65 7.76
7/1/2021 5:45:00 AM 21.05 69.89 0.109 6.77 4.44 7.67
7/1/2021 6:00:00 AM 21.04 69.872 0.109 6.81 5.18 7.73
7/1/2021 6:15:00 AM 21.08 69.944 0.11 6.86 4.62 7.86
7/1/2021 6:30:00 AM 20.89 69.602 0.109 6.78 4.95 7.76
7/1/2021 6:45:00 AM 20.88 69.584 0.109 6.82 4.18 7.81
7/1/2021 7:00:00 AM 20.83 69.494 0.109 6.79 4.03 7.87
7/1/2021 7:15:00 AM 20.74 69.332 0.109 6.81 3.99 7.9
7/1/2021 7:30:00 AM 20.74 69.332 0.109 6.8 4.48 7.95
7/1/2021 7:45:00 AM 20.72 69.296 0.109 6.84 4.68 8.02
7/1/2021 8:00:00 AM 20.65 69.17 0.109 6.82 3.94 8.08
7/1/2021 8:15:00 AM 20.6 69.08 0.108 6.84 4.55 8.1
7/1/2021 8:30:00 AM 20.66 69.188 0.109 6.9 3.55 8.27
7/1/2021 8:45:00 AM 20.7 69.26 0.109 6.9 3.99 8.32
7/1/2021 9:00:00 AM 20.61 69.098 0.109 6.89 3.88 8.43
7/1/2021 9:15:00 AM 20.64 69.152 0.109 6.92 5.41 8.5
7/1/2021 9:30:00 AM 20.63 69.134 0.109 7 3.77 8.51
7/1/2021 9:45:00 AM 20.65 69.17 0.11 6.94 3.75 8.47
7/1/2021 10:00:00 AM 20.61 69.098 0.11 6.94 4.03 8.52
7/1/2021 10:15:00 AM 20.59 69.062 0.11 6.94 3.84 8.58
7/1/2021 10:30:00 AM 20.68 69.224 0.11 7.04 4.02 8.67
7/1/2021 10:45:00 AM 20.67 69.206 0.11 7.01 3.53 8.78
7/1/2021 11:00:00 AM 20.7 69.26 0.111 7.04 3.4 8.78
7/1/2021 11:15:00 AM 20.75 69.35 0.111 7.06 3.79 8.83
7/1/2021 11:30:00 AM 20.78 69.404 0.111 7.08 3.62 8.87
7/1/2021 11:45:00 AM 20.81 69.458 0.111 7.04 3.5 8.92
7/1/2021 12:00:00 PM 20.88 69.584 0.111 7.08 4.35 8.96
7/1/2021 12:15:00 PM 20.87 69.566 0.111 7.05 3.7 8.91
7/1/2021 12:30:00 PM 20.95 69.71 0.11 7.11 3.47 8.92
7/1/2021 12:45:00 PM 20.97 69.746 0.11 7.09 3.73 8.96
7/1/2021 1:00:00 PM 21.04 69.872 0.11 7.11 4.12 8.97
7/1/2021 1:15:00 PM 21.12 70.016 0.11 7.14 3.53 9.01
7/1/2021 1:30:00 PM 21.1 69.98 0.109 7.09 3.86 8.97
7/1/2021 1:45:00 PM 21.22 70.196 0.11 7.09 3.43 9.01
7/1/2021 2:00:00 PM 21.26 70.268 0.109 7.18 3.74 8.93
7/1/2021 2:15:00 PM 21.24 70.232 0.109 7.09 3.5 8.84
7/1/2021 2:30:00 PM 21.26 70.268 0.109 7.06 3.62 8.8
7/1/2021 2:45:00 PM 21.34 70.412 0.109 7.17 3.51 8.82
7/1/2021 3:00:00 PM 21.26 70.268 0.108 7.09 3.4 8.74
7/1/2021 3:15:00 PM 21.23 70.214 0.108 7.01 3.48 8.67
7/1/2021 3:30:00 PM 21.23 70.214 0.108 7.07 3.87 8.66
7/1/2021 3:45:00 PM 21.15 70.07 0.106 6.94 3.86 8.52
7/1/2021 4:00:00 PM 21.13 70.034 0.106 6.98 3.57 8.47
7/1/2021 4:15:00 PM 21.15 70.07 0.107 7 2.95 8.5
7/1/2021 4:30:00 PM 21.07 69.926 0.107 6.95 3.65 8.4
7/1/2021 4:45:00 PM 21.08 69.944 0.107 7.05 3.76 8.39
7/1/2021 5:00:00 PM 20.97 69.746 0.107 6.95 4.04 8.3
7/1/2021 5:15:00 PM 20.96 69.728 0.106 6.96 3.48 8.29
7/1/2021 5:30:00 PM 20.88 69.584 0.105 6.91 4.36 8.21
7/1/2021 5:45:00 PM 20.85 69.53 0.105 6.92 3.97 8.16
7/1/2021 6:00:00 PM 20.74 69.332 0.105 6.88 3.92 8.1
7/1/2021 6:15:00 PM 20.84 69.512 0.106 6.99 3.81 8.26
7/1/2021 6:30:00 PM 20.72 69.296 0.105 6.91 3.79 8.23
7/1/2021 6:45:00 PM 20.7 69.26 0.106 6.93 4.04 8.27
7/1/2021 7:00:00 PM 20.66 69.188 0.105 6.95 4.27 8.3
7/1/2021 7:15:00 PM 20.6 69.08 0.105 6.93 5.46 8.28
7/1/2021 7:30:00 PM 20.59 69.062 0.106 6.97 6.03 8.28
7/1/2021 7:45:00 PM 20.48 68.864 0.106 6.94 11.53 8.26
7/1/2021 8:00:00 PM 20.58 69.044 0.107 7.1 53.99 8.41
7/1/2021 8:15:00 PM 20.31 68.558 0.105 7.03 64.42 8.47
7/1/2021 8:30:00 PM 19.93 67.874 0.103 6.9 69.3 8.56
7/1/2021 8:45:00 PM 19.63 67.334 0.099 6.85 101.51 8.63
7/1/2021 9:00:00 PM 19.42 66.956 0.094 6.83 74.57 8.68
7/1/2021 9:15:00 PM 19.28 66.704 0.09 6.82 68.89 8.7
7/1/2021 9:30:00 PM 19.17 66.506 0.086 6.8 75.57 8.71
7/1/2021 9:45:00 PM 19.08 66.344 0.083 6.79 76.09 8.73
7/1/2021 10:00:00 PM 19.02 66.236 0.08 6.77 73.45 8.74
7/1/2021 10:15:00 PM 18.98 66.164 0.078 6.76 67.57 8.74
7/1/2021 10:30:00 PM 18.94 66.092 0.076 6.78 58.15 8.75
7/1/2021 10:45:00 PM 18.92 66.056 0.074 6.8 56.83 8.76
7/1/2021 11:00:00 PM 18.89 66.002 0.074 6.79 44.24 8.76
7/1/2021 11:15:00 PM 18.87 65.966 0.074 6.8 40.69 8.76
7/1/2021 11:30:00 PM 18.86 65.948 0.076 6.8 39.71 8.76
7/1/2021 11:45:00 PM 18.84 65.912 0.079 6.81 43.83 8.77
7/2/2021 12:00:00 AM 18.82 65.876 0.081 6.81 33.36 8.77
7/2/2021 12:15:00 AM 18.8 65.84 0.083 6.83 30.31 8.77
7/2/2021 12:30:00 AM 18.79 65.82201 0.084 6.83 28.93 8.77
7/2/2021 12:45:00 AM 18.77 65.786 0.084 6.83 28.79 8.77
7/2/2021 1:00:00 AM 18.75 65.75 0.084 6.83 25.39 8.77
7/2/2021 1:15:00 AM 18.74 65.732 0.084 6.84 24.94 8.78
7/2/2021 1:30:00 AM 18.73 65.714 0.085 6.84 22.71 8.79
7/2/2021 1:45:00 AM 18.71 65.67799 0.085 6.84 20.92 8.79
7/2/2021 2:00:00 AM 18.7 65.66 0.086 6.83 25.78 8.79
7/2/2021 2:15:00 AM 18.69 65.642 0.086 6.84 19.28 8.79
7/2/2021 2:30:00 AM 18.68 65.624 0.085 6.84 18.28 8.79
7/2/2021 2:45:00 AM 18.67 65.606 0.085 6.85 17.77 8.79
7/2/2021 3:00:00 AM 18.67 65.606 0.085 6.85 17.19 8.78
7/2/2021 3:15:00 AM 18.66 65.588 0.084 6.85 16.08 8.78
7/2/2021 3:30:00 AM 18.66 65.588 0.084 6.85 16.09 8.78
7/2/2021 3:45:00 AM 18.65 65.57 0.083 6.85 15.37 8.77
7/2/2021 4:00:00 AM 18.65 65.57 0.083 6.86 15.19 8.77
7/2/2021 4:15:00 AM 18.66 65.588 0.083 6.87 14.95 8.77
7/2/2021 4:30:00 AM 18.69 65.642 0.083 6.88 14.48 8.76
7/2/2021 4:45:00 AM 18.72 65.696 0.083 6.88 14.11 8.75
7/2/2021 5:00:00 AM 18.75 65.75 0.084 6.88 14.57 8.75
7/2/2021 5:15:00 AM 18.78 65.804 0.084 6.89 14.25 8.74
7/2/2021 5:30:00 AM 18.81 65.858 0.084 6.9 13.57 8.73
7/2/2021 5:45:00 AM 18.83 65.894 0.084 6.91 13.3 8.72
7/2/2021 6:00:00 AM 18.85 65.93 0.084 6.92 13.08 8.72
7/2/2021 6:15:00 AM 18.86 65.948 0.084 6.91 12.55 8.72
7/2/2021 6:30:00 AM 18.88 65.984 0.084 6.93 12.45 8.73
7/2/2021 6:45:00 AM 18.89 66.002 0.084 6.93 11.93 8.74
7/2/2021 7:00:00 AM 18.9 66.02 0.084 6.92 11.35 8.75
7/2/2021 7:15:00 AM 18.92 66.056 0.084 6.95 11.81 8.78
7/2/2021 7:30:00 AM 18.93 66.074 0.084 6.97 10.12 8.8
7/2/2021 7:45:00 AM 18.95 66.11 0.084 6.99 10.29 8.85
7/2/2021 8:00:00 AM 18.97 66.146 0.084 7 10.1 8.88
7/2/2021 8:15:00 AM 19 66.2 0.084 7.03 10.14 8.92
7/2/2021 8:30:00 AM 19.02 66.236 0.085 7.05 9.62 8.94
7/2/2021 8:45:00 AM 19.05 66.29 0.085 7.06 8.98 8.94
7/2/2021 9:00:00 AM 19.07 66.326 0.085 7.06 9.24 8.94
7/2/2021 9:15:00 AM 19.09 66.362 0.085 7.06 8.45 8.93
7/2/2021 9:30:00 AM 19.09 66.362 0.085 7.07 8.2 8.91
7/2/2021 9:45:00 AM 19.1 66.38 0.085 7.08 7.95 8.91
7/2/2021 10:00:00 AM 19.1 66.38 0.086 7.07 7.83 8.9
7/2/2021 10:15:00 AM 19.1 66.38 0.086 7.07 7.73 8.9
7/2/2021 10:30:00 AM 19.11 66.398 0.086 7.09 7.15 8.93
7/2/2021 10:45:00 AM 19.13 66.434 0.086 7.1 6.94 8.95
7/2/2021 11:00:00 AM 19.16 66.488 0.086 7.12 6.67 8.98
7/2/2021 11:15:00 AM 19.17 66.506 0.086 7.13 6.46 9
7/2/2021 11:30:00 AM 19.18 66.524 0.087 7.13 6.38 9
7/2/2021 11:45:00 AM 19.2 66.56 0.087 7.13 5.94 8.98
7/2/2021 12:00:00 PM 19.22 66.596 0.087 7.14 6.75 8.98
7/2/2021 12:15:00 PM 19.24 66.632 0.087 7.14 6.22 9
7/2/2021 12:30:00 PM 19.31 66.758 0.087 7.18 5.96 9.07
7/2/2021 12:45:00 PM 19.48 67.064 0.087 7.24 5.84 9.11
7/2/2021 1:00:00 PM 19.66 67.388 0.087 7.29 6.77 9.14
7/2/2021 1:15:00 PM 19.81 67.658 0.088 7.31 5.95 9.16
7/2/2021 1:30:00 PM 19.97 67.946 0.088 7.34 5.7 9.15
7/2/2021 1:45:00 PM 20.16 68.288 0.088 7.36 5.85 9.12
7/2/2021 2:00:00 PM 20.37 68.666 0.088 7.38 5.66 9.1
7/2/2021 2:15:00 PM 20.56 69.008 0.088 7.39 5.95 9.07
7/2/2021 2:30:00 PM 20.76 69.368 0.088 7.4 5.38 9.03
7/2/2021 2:45:00 PM 20.93 69.674 0.088 7.39 5.17 8.97
7/2/2021 3:00:00 PM 21.07 69.926 0.089 7.37 5.17 8.93
7/2/2021 3:15:00 PM 21.16 70.088 0.089 7.35 5.86 8.87
7/2/2021 3:30:00 PM 21.25 70.25 0.089 7.34 5.56 8.85
7/2/2021 3:45:00 PM 21.4 70.52 0.089 7.36 5.03 8.81
7/2/2021 4:00:00 PM 21.43 70.574 0.089 7.31 5.02 8.75
7/2/2021 4:15:00 PM 21.45 70.61 0.089 7.29 5.13 8.71
7/2/2021 4:30:00 PM 21.46 70.628 0.09 7.27 5.96 8.69
7/2/2021 4:45:00 PM 21.5 70.7 0.09 7.28 5.6 8.64
7/2/2021 5:00:00 PM 21.42 70.556 0.09 7.2 5.38 8.54
7/2/2021 5:15:00 PM 21.38 70.484 0.09 7.18 5.59 8.54
7/2/2021 5:30:00 PM 21.3 70.34 0.09 7.15 5.11 8.51
7/2/2021 5:45:00 PM 21.26 70.268 0.09 7.17 5.44 8.54
7/2/2021 6:00:00 PM 21.21 70.17799 0.091 7.16 5.51 8.54
7/2/2021 6:15:00 PM 21.16 70.088 0.091 7.16 5.59 8.58
7/2/2021 6:30:00 PM 21.13 70.034 0.091 7.15 5.31 8.56
7/2/2021 6:45:00 PM 21.08 69.944 0.091 7.13 5.42 8.5
7/2/2021 7:00:00 PM 21.02 69.836 0.092 7.09 5.17 8.42
7/2/2021 7:15:00 PM 20.94 69.692 0.092 7.05 5 8.34
7/2/2021 7:30:00 PM 20.86 69.548 0.092 7.02 5.35 8.29
7/2/2021 7:45:00 PM 20.8 69.44 0.092 7.02 4.96 8.26
7/2/2021 8:00:00 PM 20.65 69.17 0.09 6.97 9.31 8.28
7/2/2021 8:15:00 PM 20.3 68.54 0.087 6.87 6.37 8.39
7/2/2021 8:30:00 PM 20.05 68.09 0.086 6.89 21.63 8.46
7/2/2021 8:45:00 PM 19.71 67.478 0.081 6.79 26.38 8.53
7/2/2021 9:00:00 PM 19.35 66.83 0.076 6.72 20.17 8.58
7/2/2021 9:15:00 PM 19.09 66.362 0.075 6.7 33.34 8.6
7/2/2021 9:30:00 PM 18.94 66.092 0.075 6.73 52.38 8.59
7/2/2021 9:45:00 PM 18.87 65.966 0.076 6.76 27.85 8.58
7/2/2021 10:00:00 PM 18.81 65.858 0.077 6.8 25.83 8.59
7/2/2021 10:15:00 PM 18.73 65.714 0.078 6.81 27.61 8.61
7/2/2021 10:30:00 PM 18.67 65.606 0.08 6.82 24.74 8.61
7/2/2021 10:45:00 PM 18.62 65.516 0.081 6.84 22.33 8.62
7/2/2021 11:00:00 PM 18.56 65.408 0.081 6.84 19.88 8.63
7/2/2021 11:15:00 PM 18.47 65.246 0.082 6.85 33.36 8.64
7/2/2021 11:30:00 PM 18.38 65.084 0.083 6.84 39.69 8.66
7/2/2021 11:45:00 PM 18.31 64.958 0.083 6.85 42.25 8.67
7/3/2021 12:00:00 AM 18.25 64.85 0.084 6.84 44.07 8.68
7/3/2021 12:15:00 AM 18.2 64.76 0.085 6.86 36.48 8.68
7/3/2021 12:30:00 AM 18.15 64.67 0.086 6.87 38.68 8.7
7/3/2021 12:45:00 AM 18.1 64.58 0.087 6.87 34.18 8.7
7/3/2021 1:00:00 AM 18.06 64.508 0.088 6.87 28.16 8.71
7/3/2021 1:15:00 AM 18.01 64.418 0.089 6.86 21.23 8.7
7/3/2021 1:30:00 AM 17.96 64.328 0.09 6.88 18.75 8.73
7/3/2021 1:45:00 AM 17.9 64.22 0.09 6.88 17.32 8.73
7/3/2021 2:00:00 AM 17.85 64.13 0.091 6.87 14.04 8.73
7/3/2021 2:15:00 AM 17.81 64.058 0.092 6.89 12.94 8.75
7/3/2021 2:30:00 AM 17.76 63.968 0.092 6.89 11.46 8.77
7/3/2021 2:45:00 AM 17.7 63.86 0.092 6.89 10.69 8.77
7/3/2021 3:00:00 AM 17.66 63.788 0.093 6.89 10.01 8.79
7/3/2021 3:15:00 AM 17.61 63.698 0.093 6.9 9.34 8.79
7/3/2021 3:30:00 AM 17.56 63.608 0.093 6.87 9.11 8.8
7/3/2021 3:45:00 AM 17.5 63.5 0.093 6.89 8.33 8.81
7/3/2021 4:00:00 AM 17.45 63.41 0.094 6.88 8.61 8.82
7/3/2021 4:15:00 AM 17.39 63.302 0.094 6.88 8.21 8.82
7/3/2021 4:30:00 AM 17.35 63.23 0.094 6.88 7.88 8.84
7/3/2021 4:45:00 AM 17.3 63.14 0.094 6.88 7.96 8.85
7/3/2021 5:00:00 AM 17.26 63.068 0.094 6.89 7.33 8.86
7/3/2021 5:15:00 AM 17.22 62.996 0.094 6.88 11.25 8.86
7/3/2021 5:30:00 AM 17.18 62.924 0.095 6.88 7.61 8.87
7/3/2021 5:45:00 AM 17.16 62.888 0.095 6.89 8.3 8.88
7/3/2021 6:00:00 AM 17.12 62.816 0.095 6.88 7.58 8.89
7/3/2021 6:15:00 AM 17.1 62.78 0.095 6.89 7.21 8.93
7/3/2021 6:30:00 AM 17.08 62.744 0.095 6.91 7.63 8.96
7/3/2021 6:45:00 AM 17.06 62.708 0.095 6.91 13.53 9
7/3/2021 7:00:00 AM 17.05 62.69 0.095 6.91 12.03 9.02
7/3/2021 7:15:00 AM 17.03 62.654 0.095 6.92 14.09 9.07
7/3/2021 7:30:00 AM 17.04 62.672 0.095 6.93 14.35 9.14
7/3/2021 7:45:00 AM 17.05 62.69 0.095 6.98 13.22 9.22
7/3/2021 8:00:00 AM 17.08 62.744 0.095 6.99 13.26 9.29
7/3/2021 8:15:00 AM 17.1 62.78 0.095 7.01 9.64 9.33
7/3/2021 8:30:00 AM 17.13 62.834 0.095 7.02 9.08 9.35
7/3/2021 8:45:00 AM 17.18 62.924 0.095 7.05 6.74 9.4
7/3/2021 9:00:00 AM 17.23 63.014 0.095 7.07 6.24 9.46
7/3/2021 9:15:00 AM 17.31 63.158 0.095 7.11 7.35 9.51
7/3/2021 9:30:00 AM 17.38 63.284 0.095 7.11 7.74 9.5
7/3/2021 9:45:00 AM 17.46 63.428 0.095 7.11 6.21 9.53
7/3/2021 10:00:00 AM 17.56 63.608 0.095 7.15 5.95 9.53
7/3/2021 10:15:00 AM 17.63 63.734 0.095 7.13 5.62 9.51
7/3/2021 10:30:00 AM 17.76 63.968 0.095 7.19 5.57 9.55
7/3/2021 10:45:00 AM 17.94 64.292 0.095 7.21 5.66 9.51
7/3/2021 11:00:00 AM 18.06 64.508 0.095 7.19 5.29 9.5
7/3/2021 11:15:00 AM 18.12 64.616 0.095 7.2 5.5 9.48
7/3/2021 11:30:00 AM 18.18 64.724 0.096 7.19 5.06 9.43
7/3/2021 11:45:00 AM 18.27 64.886 0.096 7.19 5.11 9.41
7/3/2021 12:00:00 PM 18.43 65.174 0.095 7.25 5.67 9.45
7/3/2021 12:15:00 PM 18.58 65.444 0.096 7.24 4.79 9.42
7/3/2021 12:30:00 PM 18.87 65.966 0.096 7.26 5.85 9.39
7/3/2021 12:45:00 PM 19.41 66.938 0.096 7.29 5.11 9.36
7/3/2021 1:00:00 PM 19.77 67.586 0.096 7.26 5.07 9.23
7/3/2021 1:15:00 PM 20.01 68.018 0.096 7.24 5.34 9.15
7/3/2021 1:30:00 PM 20.32 68.576 0.096 7.26 5.02 9.09
7/3/2021 1:45:00 PM 20.55 68.99 0.096 7.23 5.05 9.01
7/3/2021 2:00:00 PM 20.82 69.476 0.096 7.25 5.1 9.01
7/3/2021 2:15:00 PM 21.09 69.962 0.096 7.26 4.89 8.98
7/3/2021 2:30:00 PM 21.21 70.17799 0.097 7.22 4.95 8.87
7/3/2021 2:45:00 PM 21.32 70.376 0.097 7.2 4.47 8.83
7/3/2021 3:00:00 PM 21.46 70.628 0.097 7.18 4.98 8.8
7/3/2021 3:15:00 PM 21.5 70.7 0.097 7.16 4.84 8.74
7/3/2021 3:30:00 PM 21.63 70.934 0.097 7.2 5.05 8.72
7/3/2021 3:45:00 PM 21.63 70.934 0.097 7.2 5.34 8.62
7/3/2021 4:00:00 PM 21.56 70.808 0.098 7.16 5.09 8.54
7/3/2021 4:15:00 PM 21.38 70.484 0.098 7.09 4.96 8.49
7/3/2021 4:30:00 PM 21.05 69.89 0.096 7.01 5.2 8.42
7/3/2021 4:45:00 PM 20.82 69.476 0.094 6.99 5.57 8.42
7/3/2021 5:00:00 PM 20.68 69.224 0.095 6.99 6.51 8.37
7/3/2021 5:15:00 PM 20.53 68.954 0.094 6.98 6.94 8.37
7/3/2021 5:30:00 PM 20.32 68.576 0.094 6.95 7.21 8.41
7/3/2021 5:45:00 PM 20.11 68.198 0.094 6.95 6.35 8.5
7/3/2021 6:00:00 PM 19.93 67.874 0.093 6.96 8.47 8.58
7/3/2021 6:15:00 PM 19.7 67.46 0.092 6.95 9.33 8.62
7/3/2021 6:30:00 PM 19.49 67.082 0.091 6.94 12.62 8.67
7/3/2021 6:45:00 PM 19.31 66.758 0.09 6.93 14.39 8.71
7/3/2021 7:00:00 PM 19.16 66.488 0.089 6.92 16.99 8.79
7/3/2021 7:15:00 PM 18.96 66.128 0.086 6.89 21.67 8.82
7/3/2021 7:30:00 PM 18.68 65.624 0.084 6.82 41.54 8.83
7/3/2021 7:45:00 PM 18.44 65.192 0.083 6.82 41.6 8.85
7/3/2021 8:00:00 PM 18.26 64.868 0.081 6.77 45.52 8.88
7/3/2021 8:15:00 PM 18.06 64.508 0.08 6.76 62.08 8.92
7/3/2021 8:30:00 PM 17.88 64.184 0.079 6.76 52.62 8.97
7/3/2021 8:45:00 PM 17.77 63.986 0.082 6.81 44.37 8.99
7/3/2021 9:00:00 PM 17.73 63.914 0.085 6.84 38.66 9.01
7/3/2021 9:15:00 PM 17.67 63.806 0.087 6.85 33.75 9.02
7/3/2021 9:30:00 PM 17.55 63.59 0.087 6.82 41.83 9.05
7/3/2021 9:45:00 PM 17.41 63.338 0.082 6.77 41.52 9.08
7/3/2021 10:00:00 PM 17.29 63.122 0.076 6.73 83.65 9.11
7/3/2021 10:15:00 PM 17.21 62.978 0.074 6.71 46.15 9.13
7/3/2021 10:30:00 PM 17.14 62.852 0.075 6.73 46.82 9.14
7/3/2021 10:45:00 PM 17.11 62.798 0.077 6.74 46.05 9.15
7/3/2021 11:00:00 PM 17.09 62.762 0.078 6.75 35.48 9.14
7/3/2021 11:15:00 PM 17.09 62.762 0.079 6.76 35.05 9.14
7/3/2021 11:30:00 PM 17.08 62.744 0.079 6.77 102.53 9.15
7/3/2021 11:45:00 PM 17.08 62.744 0.079 6.76 32.07 9.15
7/4/2021 12:00:00 AM 17.08 62.744 0.079 6.75 30.57 9.15
7/4/2021 12:15:00 AM 17.08 62.744 0.079 6.76 30.17 9.15
7/4/2021 12:30:00 AM 17.08 62.744 0.078 6.76 67.28 9.15
7/4/2021 12:45:00 AM 17.08 62.744 0.078 6.76 28.73 9.16
7/4/2021 1:00:00 AM 17.08 62.744 0.077 6.74 30.96 9.16
7/4/2021 1:15:00 AM 17.07 62.726 0.076 6.75 28.36 9.16
7/4/2021 1:30:00 AM 17.06 62.708 0.076 6.72 45.74 9.16
7/4/2021 1:45:00 AM 17.05 62.69 0.075 6.72 26.97 9.17
7/4/2021 2:00:00 AM 17.04 62.672 0.074 6.71 38.55 9.18
7/4/2021 2:15:00 AM 17.03 62.654 0.074 6.71 25.76 9.17
7/4/2021 2:30:00 AM 17.01 62.618 0.073 6.71 25.7 9.17
7/4/2021 2:45:00 AM 16.99 62.582 0.073 6.7 30.37 9.18
7/4/2021 3:00:00 AM 16.97 62.546 0.073 6.71 23.75 9.18
7/4/2021 3:15:00 AM 16.95 62.51 0.073 6.71 24.16 9.19
7/4/2021 3:30:00 AM 16.92 62.456 0.073 6.7 20.7 9.19
7/4/2021 3:45:00 AM 16.9 62.42 0.073 6.71 20.39 9.2
7/4/2021 4:00:00 AM 16.88 62.384 0.074 6.73 19.83 9.19
7/4/2021 4:15:00 AM 16.86 62.348 0.074 6.74 18.32 9.2
7/4/2021 4:30:00 AM 16.85 62.33 0.074 6.74 17.9 9.19
7/4/2021 4:45:00 AM 16.83 62.294 0.074 6.73 17.05 9.2
7/4/2021 5:00:00 AM 16.81 62.258 0.074 6.75 16.73 9.2
7/4/2021 5:15:00 AM 16.79 62.222 0.074 6.75 16.33 9.21
7/4/2021 5:30:00 AM 16.75 62.15 0.075 6.75 15.88 9.22
7/4/2021 5:45:00 AM 16.71 62.078 0.075 6.75 15.57 9.22
7/4/2021 6:00:00 AM 16.67 62.006 0.075 6.75 14.87 9.23
7/4/2021 6:15:00 AM 16.64 61.952 0.075 6.75 14.61 9.24
7/4/2021 6:30:00 AM 16.6 61.88 0.075 6.74 13.94 9.26
7/4/2021 6:45:00 AM 16.59 61.862 0.075 6.76 13.42 9.28
7/4/2021 7:00:00 AM 16.58 61.844 0.075 6.76 13.23 9.3
7/4/2021 7:15:00 AM 16.58 61.844 0.075 6.78 12.85 9.31
7/4/2021 7:30:00 AM 16.59 61.862 0.076 6.79 12.46 9.34
7/4/2021 7:45:00 AM 16.6 61.88 0.076 6.8 12.11 9.37
7/4/2021 8:00:00 AM 16.6 61.88 0.076 6.81 11.84 9.39
7/4/2021 8:15:00 AM 16.63 61.934 0.076 6.84 11.5 9.43
7/4/2021 8:30:00 AM 16.66 61.988 0.076 6.84 10.95 9.45
7/4/2021 8:45:00 AM 16.66 61.988 0.076 6.84 10.68 9.44
7/4/2021 9:00:00 AM 16.68 62.024 0.076 6.85 10.64 9.44
7/4/2021 9:15:00 AM 16.71 62.078 0.076 6.87 10.31 9.47
7/4/2021 9:30:00 AM 16.76 62.168 0.076 6.88 10.05 9.48
7/4/2021 9:45:00 AM 16.81 62.258 0.077 6.91 9.92 9.5
7/4/2021 10:00:00 AM 16.94 62.492 0.077 6.94 9.63 9.53
7/4/2021 10:15:00 AM 17.16 62.888 0.077 6.98 18.09 9.54
7/4/2021 10:30:00 AM 17.32 63.176 0.077 7 9.21 9.54
7/4/2021 10:45:00 AM 17.49 63.482 0.077 7.02 9.03 9.53
7/4/2021 11:00:00 AM 17.64 63.752 0.077 7.03 8.91 9.5
7/4/2021 11:15:00 AM 17.71 63.878 0.078 7.02 8.83 9.48
7/4/2021 11:30:00 AM 17.9 64.22 0.078 7.06 8.59 9.48
7/4/2021 11:45:00 AM 18.08 64.544 0.078 7.07 8.39 9.45
7/4/2021 12:00:00 PM 18.16 64.688 0.078 7.04 8.34 9.43
7/4/2021 12:15:00 PM 18.3 64.94 0.078 7.08 8.04 9.41
7/4/2021 12:30:00 PM 18.54 65.372 0.078 7.11 8.04 9.4
7/4/2021 12:45:00 PM 18.68 65.624 0.078 7.11 7.82 9.38
7/4/2021 1:00:00 PM 18.69 65.642 0.078 7.07 7.67 9.31
7/4/2021 1:15:00 PM 18.87 65.966 0.078 7.11 7.7 9.29
7/4/2021 1:30:00 PM 18.98 66.164 0.078 7.11 7.52 9.29
7/4/2021 1:45:00 PM 18.97 66.146 0.079 7.08 7.43 9.26
7/4/2021 2:00:00 PM 19.09 66.362 0.079 7.1 7.5 9.26
7/4/2021 2:15:00 PM 19.25 66.65 0.079 7.14 7.31 9.26
7/4/2021 2:30:00 PM 19.38 66.884 0.079 7.14 7.39 9.25
7/4/2021 2:45:00 PM 19.45 67.01 0.079 7.14 7.45 9.21
7/4/2021 3:00:00 PM 19.58 67.244 0.079 7.13 7.67 9.16
7/4/2021 3:15:00 PM 19.72 67.496 0.079 7.13 7.26 9.13
7/4/2021 3:30:00 PM 19.74 67.532 0.08 7.1 7.03 9.11
7/4/2021 3:45:00 PM 19.8 67.64 0.08 7.12 7.29 9.09
7/4/2021 4:00:00 PM 19.92 67.856 0.08 7.12 6.82 9.07
7/4/2021 4:15:00 PM 19.88 67.784 0.08 7.09 7.06 9.05
7/4/2021 4:30:00 PM 19.9 67.82 0.08 7.09 7 9.03
7/4/2021 4:45:00 PM 19.85 67.73 0.08 7.04 7.04 8.97
7/4/2021 5:00:00 PM 19.86 67.748 0.079 7.04 7.07 8.95
7/4/2021 5:15:00 PM 19.84 67.712 0.079 7.03 7.48 8.93
7/4/2021 5:30:00 PM 19.81 67.658 0.079 7.02 6.99 8.93
7/4/2021 5:45:00 PM 19.78 67.604 0.079 7.01 7.39 8.92
7/4/2021 6:00:00 PM 19.75 67.55 0.08 7.01 6.93 8.92
7/4/2021 6:15:00 PM 19.71 67.478 0.08 7 6.93 8.91
7/4/2021 6:30:00 PM 19.64 67.352 0.08 6.98 6.82 8.88
7/4/2021 6:45:00 PM 19.55 67.19 0.08 6.95 7.18 8.85
7/4/2021 7:00:00 PM 19.47 67.046 0.081 6.94 7.07 8.82
7/4/2021 7:15:00 PM 19.39 66.902 0.081 6.91 6.92 8.81
7/4/2021 7:30:00 PM 19.29 66.722 0.081 6.9 6.63 8.8
7/4/2021 7:45:00 PM 19.19 66.542 0.081 6.89 6.64 8.8
7/4/2021 8:00:00 PM 19.1 66.38 0.082 6.88 6.58 8.79
7/4/2021 8:15:00 PM 19.01 66.218 0.082 6.87 6.91 8.79
7/4/2021 8:30:00 PM 18.91 66.038 0.082 6.86 6.8 8.79
7/4/2021 8:45:00 PM 18.81 65.858 0.082 6.85 6.78 8.79
7/4/2021 9:00:00 PM 18.71 65.67799 0.083 6.85 7.44 8.79
7/4/2021 9:15:00 PM 18.62 65.516 0.083 6.85 7.19 8.8
7/4/2021 9:30:00 PM 18.53 65.354 0.083 6.84 6.95 8.81
7/4/2021 9:45:00 PM 18.44 65.192 0.083 6.84 7.12 8.82
7/4/2021 10:00:00 PM 18.35 65.03 0.083 6.83 7.04 8.83
7/4/2021 10:15:00 PM 18.25 64.85 0.083 6.85 7.02 8.85
7/4/2021 10:30:00 PM 18.16 64.688 0.084 6.83 7 8.87
7/4/2021 10:45:00 PM 18.07 64.526 0.084 6.83 6.7 8.89
7/4/2021 11:00:00 PM 17.98 64.364 0.084 6.83 7 8.91
7/4/2021 11:15:00 PM 17.88 64.184 0.084 6.82 6.82 8.93
7/4/2021 11:30:00 PM 17.79 64.022 0.084 6.83 6.79 8.95
7/4/2021 11:45:00 PM 17.7 63.86 0.084 6.83 6.49 8.97
7/5/2021 12:00:00 AM 17.61 63.698 0.084 6.83 6.66 8.98
7/5/2021 12:15:00 AM 17.53 63.554 0.084 6.83 6.36 9
7/5/2021 12:30:00 AM 17.45 63.41 0.085 6.82 6.6 9.01
7/5/2021 12:45:00 AM 17.36 63.248 0.085 6.83 8.31 9.03
7/5/2021 1:00:00 AM 17.28 63.104 0.085 6.83 6.56 9.05
7/5/2021 1:15:00 AM 17.2 62.96 0.085 6.82 6.41 9.06
7/5/2021 1:30:00 AM 17.12 62.816 0.085 6.82 6.3 9.08
7/5/2021 1:45:00 AM 17.03 62.654 0.085 6.8 6.14 9.1
7/5/2021 2:00:00 AM 16.96 62.528 0.085 6.83 6.08 9.11
7/5/2021 2:15:00 AM 16.88 62.384 0.085 6.82 6.33 9.12
7/5/2021 2:30:00 AM 16.81 62.258 0.085 6.82 6.2 9.13
7/5/2021 2:45:00 AM 16.73 62.114 0.085 6.82 6.04 9.15
7/5/2021 3:00:00 AM 16.66 61.988 0.085 6.83 6.46 9.17
7/5/2021 3:15:00 AM 16.59 61.862 0.085 6.83 6.05 9.19
7/5/2021 3:30:00 AM 16.52 61.736 0.085 6.83 5.72 9.2
7/5/2021 3:45:00 AM 16.44 61.592 0.085 6.82 5.91 9.21
7/5/2021 4:00:00 AM 16.37 61.466 0.085 6.82 5.85 9.23
7/5/2021 4:15:00 AM 16.3 61.34 0.085 6.82 6.1 9.25
7/5/2021 4:30:00 AM 16.23 61.214 0.085 6.82 5.81 9.26
7/5/2021 4:45:00 AM 16.16 61.088 0.085 6.81 5.94 9.27
7/5/2021 5:00:00 AM 16.09 60.962 0.085 6.83 5.89 9.29
7/5/2021 5:15:00 AM 16.02 60.836 0.085 6.83 5.75 9.3
7/5/2021 5:30:00 AM 15.95 60.71 0.085 6.81 5.96 9.32
7/5/2021 5:45:00 AM 15.88 60.584 0.085 6.82 5.77 9.33
7/5/2021 6:00:00 AM 15.83 60.494 0.085 6.83 5.92 9.36
7/5/2021 6:15:00 AM 15.78 60.404 0.085 6.83 5.67 9.39
7/5/2021 6:30:00 AM 15.73 60.314 0.085 6.83 5.91 9.44
7/5/2021 6:45:00 AM 15.69 60.242 0.085 6.86 5.8 9.48
7/5/2021 7:00:00 AM 15.66 60.188 0.085 6.87 5.7 9.53
7/5/2021 7:15:00 AM 15.65 60.17 0.085 6.89 5.67 9.6
7/5/2021 7:30:00 AM 15.65 60.17 0.085 6.91 5.5 9.64
7/5/2021 7:45:00 AM 15.64 60.152 0.085 6.92 5.18 9.67
7/5/2021 8:00:00 AM 15.64 60.152 0.085 6.95 5.42 9.7
7/5/2021 8:15:00 AM 15.67 60.206 0.085 6.96 5.38 9.71
7/5/2021 8:30:00 AM 15.72 60.296 0.085 6.98 5.13 9.73
7/5/2021 8:45:00 AM 15.78 60.404 0.085 6.98 5.5 9.74
7/5/2021 9:00:00 AM 15.85 60.53 0.085 7.01 5.13 9.76
7/5/2021 9:15:00 AM 15.94 60.692 0.085 7.01 4.95 9.77
7/5/2021 9:30:00 AM 16.06 60.908 0.085 7.05 5.16 9.79
7/5/2021 9:45:00 AM 16.21 61.178 0.085 7.07 5.33 9.8
7/5/2021 10:00:00 AM 16.38 61.484 0.085 7.1 5 9.8
7/5/2021 10:15:00 AM 16.57 61.826 0.085 7.11 4.82 9.81
7/5/2021 10:30:00 AM 16.78 62.204 0.086 7.15 4.79 9.8
7/5/2021 10:45:00 AM 17 62.6 0.086 7.18 4.52 9.79
7/5/2021 11:00:00 AM 17.23 63.014 0.086 7.2 4.5 9.77
7/5/2021 11:15:00 AM 17.48 63.464 0.086 7.23 5.12 9.77
7/5/2021 11:30:00 AM 17.73 63.914 0.086 7.25 4.52 9.74
7/5/2021 11:45:00 AM 17.98 64.364 0.086 7.27 4.7 9.7
7/5/2021 12:00:00 PM 18.25 64.85 0.086 7.3 4.8 9.68
7/5/2021 12:15:00 PM 18.53 65.354 0.086 7.3 4.2 9.64
7/5/2021 12:30:00 PM 18.79 65.82201 0.086 7.32 4.81 9.6
7/5/2021 12:45:00 PM 19.01 66.218 0.086 7.32 4.63 9.55
7/5/2021 1:00:00 PM 19.3 66.74 0.086 7.35 4.48 9.5
7/5/2021 1:15:00 PM 19.48 67.064 0.086 7.34 4.43 9.46
7/5/2021 1:30:00 PM 19.68 67.424 0.086 7.34 4.58 9.38
7/5/2021 1:45:00 PM 19.82 67.676 0.086 7.29 4.59 9.32
7/5/2021 2:00:00 PM 20.03 68.054 0.086 7.32 4.29 9.3
7/5/2021 2:15:00 PM 20.29 68.522 0.086 7.34 4.4 9.26
7/5/2021 2:30:00 PM 20.51 68.918 0.086 7.34 4.46 9.2
7/5/2021 2:45:00 PM 20.62 69.116 0.087 7.32 4.49 9.15
7/5/2021 3:00:00 PM 20.72 69.296 0.087 7.29 4.42 9.12
7/5/2021 3:15:00 PM 20.86 69.548 0.087 7.32 4.66 9.09
7/5/2021 3:30:00 PM 21.04 69.872 0.087 7.32 4.51 9.06
7/5/2021 3:45:00 PM 21.19 70.142 0.087 7.33 4.54 9.01
7/5/2021 4:00:00 PM 21.3 70.34 0.087 7.32 4.16 8.98
7/5/2021 4:15:00 PM 21.37 70.466 0.087 7.3 4.49 8.94
7/5/2021 4:30:00 PM 21.36 70.448 0.087 7.26 4.31 8.91
7/5/2021 4:45:00 PM 21.35 70.43 0.088 7.24 4.23 8.89
7/5/2021 5:00:00 PM 21.37 70.466 0.088 7.23 4.3 8.85
7/5/2021 5:15:00 PM 21.42 70.556 0.088 7.24 4.51 8.82
7/5/2021 5:30:00 PM 21.45 70.61 0.088 7.21 4.54 8.78
7/5/2021 5:45:00 PM 21.45 70.61 0.088 7.17 4.51 8.74
7/5/2021 6:00:00 PM 21.44 70.592 0.088 7.16 4.47 8.71
7/5/2021 6:15:00 PM 21.4 70.52 0.088 7.13 4.62 8.68
7/5/2021 6:30:00 PM 21.31 70.358 0.089 7.1 4.38 8.65
7/5/2021 6:45:00 PM 21.21 70.17799 0.089 7.07 4.29 8.63
7/5/2021 7:00:00 PM 21.11 69.998 0.089 7.03 4.47 8.6
7/5/2021 7:15:00 PM 21 69.8 0.089 7 4.62 8.57
7/5/2021 7:30:00 PM 20.9 69.62 0.089 6.98 4.45 8.55
7/5/2021 7:45:00 PM 20.79 69.422 0.089 6.96 4.36 8.53
7/5/2021 8:00:00 PM 20.69 69.242 0.089 6.94 4.38 8.51
7/5/2021 8:15:00 PM 20.58 69.044 0.089 6.93 5.08 8.48
7/5/2021 8:30:00 PM 20.47 68.846 0.09 6.9 4.99 8.45
7/5/2021 8:45:00 PM 20.36 68.648 0.09 6.89 4.97 8.43
7/5/2021 9:00:00 PM 20.25 68.45 0.09 6.86 5.12 8.41
7/5/2021 9:15:00 PM 20.13 68.234 0.09 6.86 5.06 8.41
7/5/2021 9:30:00 PM 20.02 68.036 0.09 6.84 5.18 8.41
7/5/2021 9:45:00 PM 19.91 67.838 0.091 6.84 4.9 8.42
7/5/2021 10:00:00 PM 19.79 67.622 0.091 6.83 4.92 8.43
7/5/2021 10:15:00 PM 19.69 67.442 0.091 6.83 4.93 8.45
7/5/2021 10:30:00 PM 19.59 67.262 0.091 6.84 5.42 8.48
7/5/2021 10:45:00 PM 19.48 67.064 0.091 6.83 5.05 8.49
7/5/2021 11:00:00 PM 19.39 66.902 0.091 6.82 4.93 8.52
7/5/2021 11:15:00 PM 19.29 66.722 0.091 6.84 5.29 8.53
7/5/2021 11:30:00 PM 19.2 66.56 0.091 6.83 4.63 8.55
7/5/2021 11:45:00 PM 19.11 66.398 0.091 6.83 5.05 8.56
7/6/2021 12:00:00 AM 19.02 66.236 0.091 6.83 5.18 8.58
7/6/2021 12:15:00 AM 18.95 66.11 0.092 6.84 4.93 8.61
7/6/2021 12:30:00 AM 18.87 65.966 0.092 6.83 4.96 8.61
7/6/2021 12:45:00 AM 18.79 65.82201 0.092 6.83 5.44 8.63
7/6/2021 1:00:00 AM 18.71 65.67799 0.092 6.83 5.03 8.62
7/6/2021 1:15:00 AM 18.65 65.57 0.092 6.83 4.76 8.66
7/6/2021 1:30:00 AM 18.58 65.444 0.092 6.83 5.19 8.66
7/6/2021 1:45:00 AM 18.52 65.336 0.092 6.83 5.04 8.68
7/6/2021 2:00:00 AM 18.45 65.21 0.092 6.84 4.97 8.69
7/6/2021 2:15:00 AM 18.39 65.102 0.092 6.83 4.81 8.7
7/6/2021 2:30:00 AM 18.33 64.994 0.092 6.82 4.82 8.71
7/6/2021 2:45:00 AM 18.28 64.904 0.092 6.83 4.67 8.73
7/6/2021 3:00:00 AM 18.23 64.814 0.092 6.83 5.1 8.73
7/6/2021 3:15:00 AM 18.17 64.706 0.092 6.82 5.25 8.74
7/6/2021 3:30:00 AM 18.12 64.616 0.093 6.83 4.66 8.75
7/6/2021 3:45:00 AM 18.07 64.526 0.093 6.81 4.81 8.76
7/6/2021 4:00:00 AM 18.02 64.436 0.093 6.82 4.79 8.77
7/6/2021 4:15:00 AM 17.98 64.364 0.093 6.82 4.89 8.78
7/6/2021 4:30:00 AM 17.93 64.274 0.093 6.82 4.84 8.79
7/6/2021 4:45:00 AM 17.88 64.184 0.093 6.82 5.09 8.8
7/6/2021 5:00:00 AM 17.84 64.112 0.093 6.82 5.18 8.81
7/6/2021 5:15:00 AM 17.79 64.022 0.093 6.82 4.69 8.81
7/6/2021 5:30:00 AM 17.75 63.95 0.093 6.82 4.56 8.83
7/6/2021 5:45:00 AM 17.71 63.878 0.093 6.82 5.19 8.84
7/6/2021 6:00:00 AM 17.67 63.806 0.093 6.81 4.95 8.85
7/6/2021 6:15:00 AM 17.64 63.752 0.093 6.81 5.08 8.88
7/6/2021 6:30:00 AM 17.61 63.698 0.093 6.83 4.69 8.92
7/6/2021 6:45:00 AM 17.59 63.662 0.093 6.84 4.77 8.96
7/6/2021 7:00:00 AM 17.57 63.626 0.093 6.86 4.81 9.01
7/6/2021 7:15:00 AM 17.56 63.608 0.093 6.87 5.41 9.06
7/6/2021 7:30:00 AM 17.56 63.608 0.093 6.89 5.18 9.15
7/6/2021 7:45:00 AM 17.58 63.644 0.093 6.92 7.6 9.21
7/6/2021 8:00:00 AM 17.63 63.734 0.092 6.95 4.35 9.32
7/6/2021 8:15:00 AM 17.68 63.824 0.092 6.98 4.11 9.39
7/6/2021 8:30:00 AM 17.76 63.968 0.092 7.02 4.52 9.44
7/6/2021 8:45:00 AM 17.83 64.094 0.092 7.04 4.6 9.47
7/6/2021 9:00:00 AM 17.9 64.22 0.092 7.05 5.14 9.48
7/6/2021 9:15:00 AM 18 64.4 0.092 7.1 4.1 9.51
7/6/2021 9:30:00 AM 18.1 64.58 0.092 7.12 4.62 9.49
7/6/2021 9:45:00 AM 18.18 64.724 0.092 7.12 4.07 9.47
7/6/2021 10:00:00 AM 18.29 64.922 0.092 7.14 3.98 9.44
7/6/2021 10:15:00 AM 18.46 65.228 0.092 7.2 4.21 9.52
7/6/2021 10:30:00 AM 18.64 65.552 0.092 7.24 4.35 9.53
7/6/2021 10:45:00 AM 18.82 65.876 0.092 7.27 3.97 9.54
7/6/2021 11:00:00 AM 18.98 66.164 0.092 7.29 4.26 9.52
7/6/2021 11:15:00 AM 19.09 66.362 0.092 7.28 3.89 9.51
7/6/2021 11:30:00 AM 19.27 66.686 0.092 7.32 3.73 9.52
7/6/2021 11:45:00 AM 19.49 67.082 0.092 7.35 3.95 9.5
7/6/2021 12:00:00 PM 19.77 67.586 0.092 7.4 3.72 9.49
7/6/2021 12:15:00 PM 20.03 68.054 0.092 7.41 3.78 9.47
7/6/2021 12:30:00 PM 20.24 68.432 0.092 7.42 3.96 9.38
7/6/2021 12:45:00 PM 20.37 68.666 0.092 7.38 3.46 9.3
7/6/2021 1:00:00 PM 20.57 69.026 0.092 7.42 3.59 9.29
7/6/2021 1:15:00 PM 20.69 69.242 0.092 7.38 3.65 9.23
7/6/2021 1:30:00 PM 20.82 69.476 0.092 7.35 4.12 9.13
7/6/2021 1:45:00 PM 20.93 69.674 0.092 7.38 3.86 9.14
7/6/2021 2:00:00 PM 21 69.8 0.092 7.37 3.91 9.12
7/6/2021 2:15:00 PM 21.14 70.052 0.092 7.37 3.81 9.12
7/6/2021 2:30:00 PM 21.37 70.466 0.092 7.4 3.67 9.12
7/6/2021 2:45:00 PM 21.56 70.808 0.092 7.41 3.83 9.07
7/6/2021 3:00:00 PM 21.64 70.952 0.092 7.33 3.92 8.89
7/6/2021 3:15:00 PM 21.61 70.898 0.092 7.3 3.63 8.88
7/6/2021 3:30:00 PM 21.55 70.79 0.092 7.28 3.69 8.85
7/6/2021 3:45:00 PM 21.56 70.808 0.092 7.22 3.63 8.72
7/6/2021 4:00:00 PM 21.48 70.664 0.087 7.09 8.43 8.57
7/6/2021 4:15:00 PM 21.35 70.43 0.087 7.04 7.75 8.43
7/6/2021 4:30:00 PM 21.32 70.376 0.09 7.03 18.77 8.31
7/6/2021 4:45:00 PM 21.25 70.25 0.088 6.96 19.03 8.24
7/6/2021 5:00:00 PM 21.18 70.124 0.088 6.95 10.49 8.28
7/6/2021 5:15:00 PM 21.11 69.998 0.089 6.97 6.64 8.42
7/6/2021 5:30:00 PM 21.06 69.908 0.088 7.02 6.04 8.56
7/6/2021 5:45:00 PM 21.04 69.872 0.088 7.08 8.39 8.67
7/6/2021 6:00:00 PM 21.04 69.872 0.088 7.11 6.72 8.7
7/6/2021 6:15:00 PM 21 69.8 0.088 7.1 9.19 8.71
7/6/2021 6:30:00 PM 20.96 69.728 0.088 7.08 11.41 8.68
7/6/2021 6:45:00 PM 20.93 69.674 0.088 7.07 10.76 8.64
7/6/2021 7:00:00 PM 20.85 69.53 0.087 7.03 12.08 8.57
7/6/2021 7:15:00 PM 20.77 69.386 0.087 7 13.49 8.55
7/6/2021 7:30:00 PM 20.69 69.242 0.087 6.98 13.74 8.52
7/6/2021 7:45:00 PM 20.6 69.08 0.088 6.96 19.36 8.51
7/6/2021 8:00:00 PM 20.48 68.864 0.088 6.92 22.86 8.48
7/6/2021 8:15:00 PM 20.32 68.576 0.088 6.91 26.46 8.48
7/6/2021 8:30:00 PM 20.18 68.324 0.088 6.89 22.42 8.49
7/6/2021 8:45:00 PM 20.06 68.108 0.088 6.9 23.03 8.5
7/6/2021 9:00:00 PM 19.97 67.946 0.089 6.88 17.95 8.51
7/6/2021 9:15:00 PM 19.89 67.802 0.089 6.9 19.46 8.5
7/6/2021 9:30:00 PM 19.83 67.694 0.09 6.9 15.17 8.53
7/6/2021 9:45:00 PM 19.78 67.604 0.09 6.9 12.81 8.52
7/6/2021 10:00:00 PM 19.73 67.514 0.09 6.9 11.69 8.53
7/6/2021 10:15:00 PM 19.68 67.424 0.091 6.9 11.23 8.53
7/6/2021 10:30:00 PM 19.63 67.334 0.09 6.9 10.87 8.53
7/6/2021 10:45:00 PM 19.57 67.226 0.09 6.9 10.55 8.55
7/6/2021 11:00:00 PM 19.5 67.1 0.09 6.9 10.18 8.56
7/6/2021 11:15:00 PM 19.43 66.974 0.09 6.9 10.84 8.57
7/6/2021 11:30:00 PM 19.37 66.866 0.091 6.9 11.41 8.58
7/6/2021 11:45:00 PM 19.31 66.758 0.092 6.9 12.42 8.59
7/7/2021 12:00:00 AM 19.26 66.668 0.093 6.92 10.85 8.6
7/7/2021 12:15:00 AM 19.22 66.596 0.093 6.92 11.31 8.61
7/7/2021 12:30:00 AM 19.17 66.506 0.093 6.91 13.34 8.61
7/7/2021 12:45:00 AM 19.13 66.434 0.092 6.92 9.66 8.61
7/7/2021 1:00:00 AM 19.08 66.344 0.092 6.92 8.94 8.62
7/7/2021 1:15:00 AM 19.03 66.254 0.092 6.92 8.35 8.63
7/7/2021 1:30:00 AM 18.99 66.182 0.092 6.93 8.14 8.64
7/7/2021 1:45:00 AM 18.95 66.11 0.091 6.92 7.81 8.65
7/7/2021 2:00:00 AM 18.9 66.02 0.092 6.93 7.5 8.67
7/7/2021 2:15:00 AM 18.86 65.948 0.092 6.93 7.41 8.68
7/7/2021 2:30:00 AM 18.81 65.858 0.092 6.92 7.76 8.69
7/7/2021 2:45:00 AM 18.77 65.786 0.092 6.92 6.84 8.7
7/7/2021 3:00:00 AM 18.72 65.696 0.092 6.91 7.08 8.71
7/7/2021 3:15:00 AM 18.68 65.624 0.092 6.91 6.95 8.72
7/7/2021 3:30:00 AM 18.64 65.552 0.092 6.92 6.74 8.73
7/7/2021 3:45:00 AM 18.59 65.462 0.092 6.91 6.55 8.73
7/7/2021 4:00:00 AM 18.55 65.39 0.092 6.91 6.46 8.74
7/7/2021 4:15:00 AM 18.51 65.318 0.092 6.91 6 8.75
7/7/2021 4:30:00 AM 18.47 65.246 0.092 6.89 6.28 8.76
7/7/2021 4:45:00 AM 18.42 65.156 0.092 6.9 6.12 8.76
7/7/2021 5:00:00 AM 18.37 65.066 0.092 6.89 6 8.76
7/7/2021 5:15:00 AM 18.34 65.012 0.092 6.9 5.96 8.77
7/7/2021 5:30:00 AM 18.3 64.94 0.092 6.89 6.11 8.78
7/7/2021 5:45:00 AM 18.26 64.868 0.092 6.89 6.42 8.79
7/7/2021 6:00:00 AM 18.22 64.796 0.093 6.89 5.88 8.82
7/7/2021 6:15:00 AM 18.19 64.742 0.092 6.9 5.99 8.85
7/7/2021 6:30:00 AM 18.16 64.688 0.092 6.9 5.47 8.89
7/7/2021 6:45:00 AM 18.13 64.634 0.092 6.92 5.54 8.95
7/7/2021 7:00:00 AM 18.12 64.616 0.092 6.93 5.48 9.01
7/7/2021 7:15:00 AM 18.12 64.616 0.092 6.95 5.5 9.07
7/7/2021 7:30:00 AM 18.12 64.616 0.092 6.97 5.04 9.13
7/7/2021 7:45:00 AM 18.12 64.616 0.092 6.98 5.24 9.2
7/7/2021 8:00:00 AM 18.16 64.688 0.092 7.02 5.16 9.29
7/7/2021 8:15:00 AM 18.2 64.76 0.092 7.04 5.01 9.32
7/7/2021 8:30:00 AM 18.24 64.832 0.092 7.07 5.11 9.37
7/7/2021 8:45:00 AM 18.29 64.922 0.092 7.09 4.91 9.4
7/7/2021 9:00:00 AM 18.36 65.048 0.091 7.11 5.32 9.42
7/7/2021 9:15:00 AM 18.44 65.192 0.091 7.13 5.04 9.46
7/7/2021 9:30:00 AM 18.54 65.372 0.091 7.16 5.66 9.48
7/7/2021 9:45:00 AM 18.65 65.57 0.091 7.2 5.05 9.51
7/7/2021 10:00:00 AM 18.79 65.82201 0.091 7.23 4.63 9.53
7/7/2021 10:15:00 AM 18.93 66.074 0.091 7.26 4.81 9.52
7/7/2021 10:30:00 AM 19.13 66.434 0.091 7.31 4.72 9.54
7/7/2021 10:45:00 AM 19.32 66.776 0.091 7.33 4.56 9.5
7/7/2021 11:00:00 AM 19.53 67.154 0.091 7.36 4.85 9.5
7/7/2021 11:15:00 AM 19.68 67.424 0.091 7.34 4.29 9.4
7/7/2021 11:30:00 AM 19.87 67.766 0.091 7.37 4.41 9.4
7/7/2021 11:45:00 AM 20.13 68.234 0.091 7.42 4.44 9.39
7/7/2021 12:00:00 PM 20.28 68.504 0.091 7.38 4.62 9.34
7/7/2021 12:15:00 PM 20.46 68.828 0.091 7.41 4.37 9.27
7/7/2021 12:30:00 PM 20.6 69.08 0.091 7.41 5.06 9.25
7/7/2021 12:45:00 PM 20.86 69.548 0.091 7.44 4.3 9.24
7/7/2021 1:00:00 PM 21.13 70.034 0.091 7.49 4.49 9.25
7/7/2021 1:15:00 PM 21.4 70.52 0.091 7.51 4.67 9.22
7/7/2021 1:30:00 PM 21.59 70.862 0.091 7.53 4.37 9.19
7/7/2021 1:45:00 PM 21.79 71.222 0.091 7.52 4.08 9.13
7/7/2021 2:00:00 PM 21.96 71.528 0.091 7.53 4.8 9.1
7/7/2021 2:15:00 PM 22.23 72.014 0.091 7.56 4.3 9.06
7/7/2021 2:30:00 PM 22.45 72.41 0.091 7.53 4.54 8.99
7/7/2021 2:45:00 PM 22.69 72.842 0.091 7.56 4.77 8.93
7/7/2021 3:00:00 PM 22.93 73.274 0.091 7.56 4.22 8.88
7/7/2021 3:15:00 PM 23.13 73.634 0.091 7.58 4.58 8.85
7/7/2021 3:30:00 PM 23.23 73.814 0.091 7.53 4.53 8.78
7/7/2021 3:45:00 PM 23.34 74.012 0.091 7.51 3.9 8.74
7/7/2021 4:00:00 PM 23.41 74.138 0.091 7.48 4.31 8.68
7/7/2021 4:15:00 PM 23.5 74.3 0.091 7.46 4.29 8.65
7/7/2021 4:30:00 PM 23.55 74.39 0.091 7.45 4.08 8.62
7/7/2021 4:45:00 PM 23.57 74.426 0.092 7.41 4.21 8.57
7/7/2021 5:00:00 PM 23.57 74.426 0.092 7.38 4.41 8.54
7/7/2021 5:15:00 PM 23.56 74.408 0.092 7.36 4.15 8.51
7/7/2021 5:30:00 PM 23.55 74.39 0.092 7.33 4.12 8.47
7/7/2021 5:45:00 PM 23.51 74.318 0.092 7.3 4.05 8.44
7/7/2021 6:00:00 PM 23.48 74.264 0.092 7.28 4.02 8.4
7/7/2021 6:15:00 PM 23.43 74.174 0.092 7.23 4.25 8.35
7/7/2021 6:30:00 PM 23.37 74.066 0.092 7.19 4.25 8.3
7/7/2021 6:45:00 PM 23.32 73.976 0.092 7.17 4.06 8.26
7/7/2021 7:00:00 PM 23.25 73.85 0.093 7.12 4.18 8.2
7/7/2021 7:15:00 PM 23.18 73.724 0.093 7.1 3.95 8.19
7/7/2021 7:30:00 PM 23.1 73.58 0.093 7.08 4.05 8.14
7/7/2021 7:45:00 PM 22.99 73.382 0.093 7.03 4.47 8.08
7/7/2021 8:00:00 PM 22.89 73.202 0.093 7.01 4.34 8.03
7/7/2021 8:15:00 PM 22.79 73.022 0.094 6.98 4.09 7.99
7/7/2021 8:30:00 PM 22.68 72.824 0.094 6.96 4.87 7.96
7/7/2021 8:45:00 PM 22.56 72.608 0.094 6.93 4.52 7.94
7/7/2021 9:00:00 PM 22.45 72.41 0.094 6.92 5.8 7.93
7/7/2021 9:15:00 PM 22.33 72.194 0.092 6.88 5.08 7.96
7/7/2021 9:30:00 PM 22.22 71.996 0.092 6.88 5 7.92
7/7/2021 9:45:00 PM 22.13 71.834 0.094 6.89 6.27 7.92
7/7/2021 10:00:00 PM 22.04 71.672 0.094 6.88 5.85 7.92
7/7/2021 10:15:00 PM 21.95 71.51 0.093 6.88 5.89 7.93
7/7/2021 10:30:00 PM 21.82 71.276 0.093 6.87 5.6 7.97
7/7/2021 10:45:00 PM 21.67 71.006 0.093 6.84 4.94 7.99
7/7/2021 11:00:00 PM 21.55 70.79 0.094 6.88 4.97 8.02
7/7/2021 11:15:00 PM 21.42 70.556 0.094 6.87 4.73 8.05
7/7/2021 11:30:00 PM 21.3 70.34 0.093 6.87 5.19 8.07
7/7/2021 11:45:00 PM 21.19 70.142 0.093 6.87 5.18 8.1
7/8/2021 12:00:00 AM 21.08 69.944 0.093 6.88 5.43 8.12
7/8/2021 12:15:00 AM 20.97 69.746 0.093 6.88 5.16 8.15
7/8/2021 12:30:00 AM 20.86 69.548 0.093 6.88 5.72 8.17
7/8/2021 12:45:00 AM 20.75 69.35 0.093 6.89 5.46 8.2
7/8/2021 1:00:00 AM 20.64 69.152 0.093 6.86 6.34 8.23
7/8/2021 1:15:00 AM 20.55 68.99 0.093 6.89 5.99 8.27
7/8/2021 1:30:00 AM 20.46 68.828 0.093 6.9 6.61 8.31
7/8/2021 1:45:00 AM 20.37 68.666 0.093 6.92 7.22 8.34
7/8/2021 2:00:00 AM 20.26 68.468 0.093 6.92 12.09 8.38
7/8/2021 2:15:00 AM 20.15 68.27 0.093 6.91 15 8.45
7/8/2021 2:30:00 AM 20.03 68.054 0.092 6.91 17.78 8.51
7/8/2021 2:45:00 AM 19.92 67.856 0.092 6.91 19.32 8.55
7/8/2021 3:00:00 AM 19.82 67.676 0.092 6.92 19.5 8.59
7/8/2021 3:15:00 AM 19.73 67.514 0.092 6.91 19.67 8.62
7/8/2021 3:30:00 AM 19.62 67.316 0.091 6.92 20.77 8.64
7/8/2021 3:45:00 AM 19.5 67.1 0.089 6.88 22.89 8.67
7/8/2021 4:00:00 AM 19.39 66.902 0.085 6.84 28.26 8.7
7/8/2021 4:15:00 AM 19.27 66.686 0.082 6.8 33.63 8.72
7/8/2021 4:30:00 AM 19.15 66.47 0.079 6.78 33.77 8.75
7/8/2021 4:45:00 AM 19.07 66.326 0.078 6.77 29.91 8.77
7/8/2021 5:00:00 AM 19.01 66.218 0.078 6.79 29.28 8.78
7/8/2021 5:15:00 AM 18.96 66.128 0.079 6.79 25.53 8.79
7/8/2021 5:30:00 AM 18.93 66.074 0.079 6.8 26.57 8.8
7/8/2021 5:45:00 AM 18.89 66.002 0.079 6.78 25.11 8.81
7/8/2021 6:00:00 AM 18.87 65.966 0.079 6.8 21.78 8.82
7/8/2021 6:15:00 AM 18.85 65.93 0.079 6.81 21.01 8.82
7/8/2021 6:30:00 AM 18.83 65.894 0.079 6.81 20.9 8.83
7/8/2021 6:45:00 AM 18.83 65.894 0.078 6.81 19.76 8.85
7/8/2021 7:00:00 AM 18.84 65.912 0.078 6.83 18.86 8.87
7/8/2021 7:15:00 AM 18.85 65.93 0.078 6.84 18.35 8.9
7/8/2021 7:30:00 AM 18.87 65.966 0.078 6.84 17.02 8.92
7/8/2021 7:45:00 AM 18.89 66.002 0.077 6.87 16.32 8.95
7/8/2021 8:00:00 AM 18.91 66.038 0.077 6.87 15.76 8.96
7/8/2021 8:15:00 AM 18.95 66.11 0.077 6.89 14.81 8.99
7/8/2021 8:30:00 AM 19 66.2 0.077 6.91 14.4 9.03
7/8/2021 8:45:00 AM 19.07 66.326 0.076 6.94 13.98 9.07
7/8/2021 9:00:00 AM 19.14 66.452 0.076 6.97 13.38 9.09
7/8/2021 9:15:00 AM 19.22 66.596 0.076 6.98 12.62 9.1
7/8/2021 9:30:00 AM 19.33 66.794 0.076 7.01 12.42 9.12
7/8/2021 9:45:00 AM 19.43 66.974 0.076 7.03 11.74 9.13
7/8/2021 10:00:00 AM 19.56 67.208 0.076 7.05 11.46 9.15
7/8/2021 10:15:00 AM 19.7 67.46 0.076 7.1 10.78 9.19
7/8/2021 10:30:00 AM 19.79 67.622 0.076 7.09 10.84 9.15
7/8/2021 10:45:00 AM 19.85 67.73 0.076 7.09 10.16 9.14
7/8/2021 11:00:00 AM 19.98 67.964 0.076 7.13 10.02 9.16
7/8/2021 11:15:00 AM 20.07 68.126 0.076 7.15 9.7 9.18
7/8/2021 11:30:00 AM 20.17 68.306 0.076 7.16 9.34 9.17
7/8/2021 11:45:00 AM 20.27 68.486 0.076 7.18 9.07 9.15
7/8/2021 12:00:00 PM 20.33 68.594 0.076 7.16 8.87 9.08
7/8/2021 12:15:00 PM 20.35 68.63 0.076 7.11 8.83 8.98
7/8/2021 12:30:00 PM 20.37 68.666 0.076 7.07 8.36 8.94
7/8/2021 12:45:00 PM 20.37 68.666 0.076 7.06 8.05 8.92
7/8/2021 1:00:00 PM 20.36 68.648 0.076 7.05 8.1 8.94
7/8/2021 1:15:00 PM 20.35 68.63 0.077 7.01 7.86 8.89
7/8/2021 1:30:00 PM 20.33 68.594 0.077 7 7.82 8.86
7/8/2021 1:45:00 PM 20.34 68.612 0.077 7.02 7.58 8.87
7/8/2021 2:00:00 PM 20.34 68.612 0.077 7.03 7.54 8.91
7/8/2021 2:15:00 PM 20.36 68.648 0.077 7.05 7.2 8.96
7/8/2021 2:30:00 PM 20.39 68.702 0.077 7.08 7.5 9
7/8/2021 2:45:00 PM 20.44 68.792 0.078 7.11 7.16 9.04
7/8/2021 3:00:00 PM 20.53 68.954 0.078 7.15 7.31 9.08
7/8/2021 3:15:00 PM 20.6 69.08 0.078 7.19 7.19 9.08
7/8/2021 3:30:00 PM 20.64 69.152 0.078 7.18 7.24 9.05
7/8/2021 3:45:00 PM 20.67 69.206 0.078 7.15 6.98 8.97
7/8/2021 4:00:00 PM 20.7 69.26 0.078 7.15 7.24 8.95
7/8/2021 4:15:00 PM 20.72 69.296 0.078 7.16 7.12 8.97
7/8/2021 4:30:00 PM 20.72 69.296 0.078 7.15 7.07 8.97
7/8/2021 4:45:00 PM 20.71 69.278 0.078 7.14 7.18 8.94
7/8/2021 5:00:00 PM 20.7 69.26 0.079 7.12 6.86 8.88
7/8/2021 5:15:00 PM 20.7 69.26 0.079 7.07 6.74 8.83
7/8/2021 5:30:00 PM 20.7 69.26 0.079 7.08 6.93 8.81
7/8/2021 5:45:00 PM 20.7 69.26 0.079 7.07 6.85 8.78
7/8/2021 6:00:00 PM 20.68 69.224 0.079 7.02 6.88 8.71
7/8/2021 6:15:00 PM 20.66 69.188 0.079 6.99 6.81 8.66
7/8/2021 6:30:00 PM 20.65 69.17 0.079 6.95 7.05 8.62
7/8/2021 6:45:00 PM 20.63 69.134 0.08 6.94 6.69 8.6
7/8/2021 7:00:00 PM 20.61 69.098 0.08 6.92 6.85 8.59
7/8/2021 7:15:00 PM 20.59 69.062 0.08 6.91 6.71 8.58
7/8/2021 7:30:00 PM 20.56 69.008 0.08 6.9 6.86 8.58
7/8/2021 7:45:00 PM 20.54 68.972 0.08 6.9 7 8.58
7/8/2021 8:00:00 PM 20.51 68.918 0.08 6.9 6.9 8.57
7/8/2021 8:15:00 PM 20.48 68.864 0.08 6.9 7.25 8.54
7/8/2021 8:30:00 PM 20.44 68.792 0.08 6.88 6.9 8.52
7/8/2021 8:45:00 PM 20.39 68.702 0.08 6.87 6.93 8.52
7/8/2021 9:00:00 PM 20.35 68.63 0.08 6.88 6.99 8.51
7/8/2021 9:15:00 PM 20.3 68.54 0.081 6.87 6.81 8.51
7/8/2021 9:30:00 PM 20.26 68.468 0.081 6.86 7.01 8.51
7/8/2021 9:45:00 PM 20.22 68.396 0.081 6.86 7.2 8.51
7/8/2021 10:00:00 PM 20.18 68.324 0.081 6.87 6.99 8.52
7/8/2021 10:15:00 PM 20.14 68.252 0.081 6.86 6.82 8.53
7/8/2021 10:30:00 PM 20.1 68.18 0.081 6.86 6.88 8.53
7/8/2021 10:45:00 PM 20.06 68.108 0.081 6.86 6.91 8.54
7/8/2021 11:00:00 PM 20.02 68.036 0.081 6.86 6.84 8.55
7/8/2021 11:15:00 PM 19.98 67.964 0.081 6.86 6.86 8.55
7/8/2021 11:30:00 PM 19.94 67.892 0.081 6.86 6.72 8.56
7/8/2021 11:45:00 PM 19.9 67.82 0.082 6.86 6.89 8.57
7/9/2021 12:00:00 AM 19.87 67.766 0.082 6.87 6.98 8.58
7/9/2021 12:15:00 AM 19.83 67.694 0.082 6.85 6.78 8.58
7/9/2021 12:30:00 AM 19.79 67.622 0.082 6.85 6.91 8.6
7/9/2021 12:45:00 AM 19.75 67.55 0.082 6.85 7.09 8.6
7/9/2021 1:00:00 AM 19.72 67.496 0.082 6.86 6.69 8.61
7/9/2021 1:15:00 AM 19.68 67.424 0.082 6.85 6.75 8.62
7/9/2021 1:30:00 AM 19.65 67.37 0.082 6.84 7.12 8.62
7/9/2021 1:45:00 AM 19.62 67.316 0.082 6.85 6.82 8.62
7/9/2021 2:00:00 AM 19.59 67.262 0.082 6.86 6.79 8.63
7/9/2021 2:15:00 AM 19.56 67.208 0.082 6.85 6.77 8.63
7/9/2021 2:30:00 AM 19.53 67.154 0.082 6.83 6.54 8.64
7/9/2021 2:45:00 AM 19.49 67.082 0.082 6.85 6.69 8.65
7/9/2021 3:00:00 AM 19.46 67.028 0.082 6.85 6.76 8.65
7/9/2021 3:15:00 AM 19.42 66.956 0.082 6.83 6.71 8.66
7/9/2021 3:30:00 AM 19.39 66.902 0.082 6.84 6.72 8.67
7/9/2021 3:45:00 AM 19.35 66.83 0.082 6.84 6.62 8.67
7/9/2021 4:00:00 AM 19.3 66.74 0.082 6.84 6.58 8.67
7/9/2021 4:15:00 AM 19.26 66.668 0.082 6.84 6.48 8.68
7/9/2021 4:30:00 AM 19.22 66.596 0.082 6.82 6.53 8.69
7/9/2021 4:45:00 AM 19.17 66.506 0.082 6.84 6.47 8.69
7/9/2021 5:00:00 AM 19.12 66.416 0.082 6.84 6.68 8.7
7/9/2021 5:15:00 AM 19.08 66.344 0.082 6.83 6.77 8.71
7/9/2021 5:30:00 AM 19.04 66.272 0.082 6.84 7.13 8.72
7/9/2021 5:45:00 AM 19 66.2 0.082 6.81 7.14 8.73
7/9/2021 6:00:00 AM 18.96 66.128 0.082 6.84 6.67 8.74
7/9/2021 6:15:00 AM 18.92 66.056 0.082 6.85 6.68 8.77
7/9/2021 6:30:00 AM 18.89 66.002 0.082 6.85 6.67 8.81
7/9/2021 6:45:00 AM 18.86 65.948 0.082 6.87 6.65 8.84
7/9/2021 7:00:00 AM 18.84 65.912 0.082 6.87 6.61 8.87
7/9/2021 7:15:00 AM 18.82 65.876 0.082 6.88 6.4 8.9
7/9/2021 7:30:00 AM 18.8 65.84 0.082 6.91 6.36 8.94
7/9/2021 7:45:00 AM 18.79 65.82201 0.082 6.92 6.37 8.98
7/9/2021 8:00:00 AM 18.78 65.804 0.082 6.94 6.54 9.02
7/9/2021 8:15:00 AM 18.78 65.804 0.082 6.95 6.13 9.04
7/9/2021 8:30:00 AM 18.78 65.804 0.083 6.96 5.97 9.05
7/9/2021 8:45:00 AM 18.78 65.804 0.083 6.98 5.91 9.08
7/9/2021 9:00:00 AM 18.82 65.876 0.083 7 6.06 9.16
7/9/2021 9:15:00 AM 18.86 65.948 0.083 7.04 6.22 9.2
7/9/2021 9:30:00 AM 18.93 66.074 0.083 7.08 5.77 9.29
7/9/2021 9:45:00 AM 19.03 66.254 0.083 7.14 6.12 9.33
7/9/2021 10:00:00 AM 19.13 66.434 0.082 7.17 5.86 9.34
7/9/2021 10:15:00 AM 19.17 66.506 0.083 7.18 5.55 9.31
7/9/2021 10:30:00 AM 19.21 66.578 0.082 7.17 5.45 9.3
7/9/2021 10:45:00 AM 19.29 66.722 0.082 7.19 5.27 9.26
7/9/2021 11:00:00 AM 19.37 66.866 0.082 7.21 5.33 9.29
7/9/2021 11:15:00 AM 19.41 66.938 0.082 7.2 5.19 9.26
7/9/2021 11:30:00 AM 19.43 66.974 0.082 7.2 5.15 9.23
7/9/2021 11:45:00 AM 19.48 67.064 0.083 7.22 5.05 9.25
7/9/2021 12:00:00 PM 19.61 67.298 0.083 7.26 5.12 9.28
7/9/2021 12:15:00 PM 19.88 67.784 0.083 7.34 4.99 9.33
7/9/2021 12:30:00 PM 19.99 67.982 0.083 7.34 4.77 9.3
7/9/2021 12:45:00 PM 20.12 68.216 0.083 7.37 5 9.3
7/9/2021 1:00:00 PM 20.29 68.522 0.083 7.38 4.97 9.29
7/9/2021 1:15:00 PM 20.44 68.792 0.083 7.4 4.96 9.25
7/9/2021 1:30:00 PM 20.64 69.152 0.083 7.41 4.84 9.2
7/9/2021 1:45:00 PM 20.92 69.656 0.083 7.45 4.89 9.17
7/9/2021 2:00:00 PM 20.98 69.764 0.083 7.37 4.5 9.09
7/9/2021 2:15:00 PM 21 69.8 0.083 7.37 4.88 9.07
7/9/2021 2:30:00 PM 21.02 69.836 0.083 7.36 4.73 9.06
7/9/2021 2:45:00 PM 21.04 69.872 0.083 7.37 4.84 9.06
7/9/2021 3:00:00 PM 21.04 69.872 0.083 7.35 4.83 9.04
7/9/2021 3:15:00 PM 21.04 69.872 0.083 7.33 4.9 8.99
7/9/2021 3:30:00 PM 21.06 69.908 0.083 7.33 4.62 8.99
7/9/2021 3:45:00 PM 21.12 70.016 0.083 7.35 4.77 9.02
7/9/2021 4:00:00 PM 21.17 70.106 0.083 7.35 4.67 9.01
7/9/2021 4:15:00 PM 21.2 70.16 0.084 7.35 4.91 9.01
7/9/2021 4:30:00 PM 21.29 70.32201 0.084 7.39 4.85 9.02
7/9/2021 4:45:00 PM 21.34 70.412 0.084 7.34 4.85 8.91
7/9/2021 5:00:00 PM 21.29 70.32201 0.084 7.23 5.02 8.76
7/9/2021 5:15:00 PM 21.19 70.142 0.084 7.15 5.05 8.63
7/9/2021 5:30:00 PM 21.18 70.124 0.083 7.13 5.39 8.61
7/9/2021 5:45:00 PM 21.12 70.016 0.083 7.09 5.63 8.62
7/9/2021 6:00:00 PM 20.99 69.782 0.083 7.07 5.06 8.66
7/9/2021 6:15:00 PM 20.89 69.602 0.083 7.07 5 8.71
7/9/2021 6:30:00 PM 20.83 69.494 0.083 7.1 4.91 8.78
7/9/2021 6:45:00 PM 20.8 69.44 0.083 7.12 5.02 8.81
7/9/2021 7:00:00 PM 20.76 69.368 0.083 7.12 4.98 8.79
7/9/2021 7:15:00 PM 20.71 69.278 0.084 7.1 5.38 8.73
7/9/2021 7:30:00 PM 20.67 69.206 0.084 7.07 5.27 8.66
7/9/2021 7:45:00 PM 20.63 69.134 0.084 7.04 5.32 8.63
7/9/2021 8:00:00 PM 20.57 69.026 0.084 7.01 5.78 8.59
7/9/2021 8:15:00 PM 20.47 68.846 0.084 6.98 6.76 8.57
7/9/2021 8:30:00 PM 20.35 68.63 0.084 6.95 8.24 8.56
7/9/2021 8:45:00 PM 20.26 68.468 0.083 6.91 9.27 8.55
7/9/2021 9:00:00 PM 20.19 68.342 0.083 6.91 9.93 8.55
7/9/2021 9:15:00 PM 20.14 68.252 0.083 6.91 10.78 8.55
7/9/2021 9:30:00 PM 20.07 68.126 0.083 6.88 11.71 8.56
7/9/2021 9:45:00 PM 19.98 67.964 0.082 6.87 12.92 8.57
7/9/2021 10:00:00 PM 19.88 67.784 0.081 6.85 13.76 8.6
7/9/2021 10:15:00 PM 19.8 67.64 0.08 6.84 13.67 8.61
7/9/2021 10:30:00 PM 19.73 67.514 0.079 6.82 14.41 8.62
7/9/2021 10:45:00 PM 19.69 67.442 0.078 6.82 14.96 8.62
7/9/2021 11:00:00 PM 19.65 67.37 0.077 6.81 16.74 8.63
7/9/2021 11:15:00 PM 19.6 67.28 0.077 6.82 16.48 8.64
7/9/2021 11:30:00 PM 19.56 67.208 0.077 6.81 16.04 8.65
7/9/2021 11:45:00 PM 19.52 67.136 0.077 6.82 15.56 8.66
7/10/2021 12:00:00 AM 19.49 67.082 0.077 6.82 14.85 8.67
7/10/2021 12:15:00 AM 19.46 67.028 0.077 6.83 14.18 8.68
7/10/2021 12:30:00 AM 19.43 66.974 0.077 6.84 13.54 8.68
7/10/2021 12:45:00 AM 19.4 66.92 0.077 6.85 12.73 8.69
7/10/2021 1:00:00 AM 19.37 66.866 0.078 6.85 11.83 8.7
7/10/2021 1:15:00 AM 19.33 66.794 0.078 6.85 11.04 8.71
7/10/2021 1:30:00 AM 19.29 66.722 0.079 6.85 10.36 8.71
7/10/2021 1:45:00 AM 19.25 66.65 0.079 6.85 9.89 8.72
7/10/2021 2:00:00 AM 19.22 66.596 0.079 6.85 9.43 8.73
7/10/2021 2:15:00 AM 19.18 66.524 0.079 6.85 9.31 8.74
7/10/2021 2:30:00 AM 19.15 66.47 0.08 6.86 9.1 8.74
7/10/2021 2:45:00 AM 19.11 66.398 0.08 6.85 8.89 8.75
7/10/2021 3:00:00 AM 19.08 66.344 0.08 6.87 9.01 8.76
7/10/2021 3:15:00 AM 19.05 66.29 0.08 6.86 8.83 8.76
7/10/2021 3:30:00 AM 19.02 66.236 0.08 6.86 8.64 8.76
7/10/2021 3:45:00 AM 18.98 66.164 0.08 6.86 8.51 8.77
7/10/2021 4:00:00 AM 18.95 66.11 0.08 6.86 8.67 8.77
7/10/2021 4:15:00 AM 18.92 66.056 0.079 6.86 8.43 8.78
7/10/2021 4:30:00 AM 18.88 65.984 0.079 6.85 8.5 8.79
7/10/2021 4:45:00 AM 18.84 65.912 0.079 6.86 8.32 8.79
7/10/2021 5:00:00 AM 18.81 65.858 0.079 6.86 8.15 8.8
7/10/2021 5:15:00 AM 18.78 65.804 0.079 6.87 7.96 8.8
7/10/2021 5:30:00 AM 18.76 65.768 0.079 6.86 8.13 8.8
7/10/2021 5:45:00 AM 18.74 65.732 0.08 6.85 8 8.82
7/10/2021 6:00:00 AM 18.71 65.67799 0.08 6.87 7.95 8.83
7/10/2021 6:15:00 AM 18.68 65.624 0.08 6.87 7.64 8.85
7/10/2021 6:30:00 AM 18.66 65.588 0.08 6.87 7.32 8.88
7/10/2021 6:45:00 AM 18.64 65.552 0.08 6.9 7.57 8.91
7/10/2021 7:00:00 AM 18.62 65.516 0.08 6.89 6.89 8.92
7/10/2021 7:15:00 AM 18.61 65.498 0.08 6.89 6.98 8.94
7/10/2021 7:30:00 AM 18.59 65.462 0.08 6.91 6.83 8.97
7/10/2021 7:45:00 AM 18.59 65.462 0.08 6.92 6.96 9
7/10/2021 8:00:00 AM 18.58 65.444 0.08 6.94 6.55 9.04
7/10/2021 8:15:00 AM 18.58 65.444 0.08 6.96 6.71 9.09
7/10/2021 8:30:00 AM 18.57 65.426 0.08 6.96 6.55 9.1
7/10/2021 8:45:00 AM 18.56 65.408 0.08 6.97 6.53 9.1
7/10/2021 9:00:00 AM 18.54 65.372 0.08 6.97 6.32 9.11
7/10/2021 9:15:00 AM 18.54 65.372 0.08 6.99 5.97 9.13
7/10/2021 9:30:00 AM 18.55 65.39 0.081 7.01 6.04 9.15
7/10/2021 9:45:00 AM 18.56 65.408 0.081 7.02 5.94 9.19
7/10/2021 10:00:00 AM 18.56 65.408 0.081 7.03 6.12 9.18
7/10/2021 10:15:00 AM 18.57 65.426 0.081 7.04 6.02 9.21
7/10/2021 10:30:00 AM 18.58 65.444 0.081 7.05 5.79 9.23
7/10/2021 10:45:00 AM 18.6 65.48 0.081 7.1 5.53 9.3
7/10/2021 11:00:00 AM 18.6 65.48 0.081 7.09 5.72 9.29
7/10/2021 11:15:00 AM 18.6 65.48 0.081 7.1 5.45 9.3
7/10/2021 11:30:00 AM 18.63 65.534 0.081 7.14 5.53 9.38
7/10/2021 11:45:00 AM 18.69 65.642 0.081 7.19 5.37 9.43
7/10/2021 12:00:00 PM 18.76 65.768 0.081 7.24 5.34 9.51
7/10/2021 12:15:00 PM 18.81 65.858 0.081 7.25 5.19 9.48
7/10/2021 12:30:00 PM 18.88 65.984 0.081 7.29 5.09 9.53
7/10/2021 12:45:00 PM 18.97 66.146 0.081 7.33 5.07 9.53
7/10/2021 1:00:00 PM 19.05 66.29 0.081 7.34 4.84 9.51
7/10/2021 1:15:00 PM 19.06 66.308 0.081 7.32 4.95 9.47
7/10/2021 1:30:00 PM 19.11 66.398 0.081 7.36 5.03 9.51
7/10/2021 1:45:00 PM 19.25 66.65 0.081 7.42 5 9.54
7/10/2021 2:00:00 PM 19.35 66.83 0.081 7.44 5.04 9.55
7/10/2021 2:15:00 PM 19.39 66.902 0.081 7.44 4.84 9.51
7/10/2021 2:30:00 PM 19.44 66.992 0.081 7.43 4.78 9.48
7/10/2021 2:45:00 PM 19.5 67.1 0.082 7.42 4.81 9.45
7/10/2021 3:00:00 PM 19.55 67.19 0.082 7.41 4.91 9.43
7/10/2021 3:15:00 PM 19.58 67.244 0.082 7.42 4.83 9.4
7/10/2021 3:30:00 PM 19.63 67.334 0.082 7.43 4.81 9.41
7/10/2021 3:45:00 PM 19.68 67.424 0.082 7.4 4.81 9.34
7/10/2021 4:00:00 PM 19.8 67.64 0.082 7.41 4.79 9.34
7/10/2021 4:15:00 PM 19.84 67.712 0.082 7.38 4.82 9.31
7/10/2021 4:30:00 PM 19.87 67.766 0.082 7.35 4.51 9.25
7/10/2021 4:45:00 PM 19.94 67.892 0.082 7.33 4.73 9.19
7/10/2021 5:00:00 PM 19.94 67.892 0.083 7.28 4.51 9.14
7/10/2021 5:15:00 PM 19.96 67.92799 0.083 7.26 4.66 9.1
7/10/2021 5:30:00 PM 19.94 67.892 0.083 7.22 4.68 9.07
7/10/2021 5:45:00 PM 19.91 67.838 0.083 7.2 4.87 9.04
7/10/2021 6:00:00 PM 19.89 67.802 0.083 7.16 4.75 9.01
7/10/2021 6:15:00 PM 19.87 67.766 0.083 7.15 4.71 8.97
7/10/2021 6:30:00 PM 19.83 67.694 0.083 7.12 4.66 8.94
7/10/2021 6:45:00 PM 19.78 67.604 0.083 7.09 5 8.91
7/10/2021 7:00:00 PM 19.73 67.514 0.084 7.07 4.75 8.87
7/10/2021 7:15:00 PM 19.68 67.424 0.084 7.05 4.71 8.85
7/10/2021 7:30:00 PM 19.61 67.298 0.084 7.02 4.8 8.83
7/10/2021 7:45:00 PM 19.54 67.172 0.084 7.01 4.75 8.82
7/10/2021 8:00:00 PM 19.45 67.01 0.084 6.99 4.85 8.81
7/10/2021 8:15:00 PM 19.36 66.848 0.084 6.98 4.85 8.8
7/10/2021 8:30:00 PM 19.27 66.686 0.084 6.96 4.91 8.79
7/10/2021 8:45:00 PM 19.17 66.506 0.084 6.94 5.07 8.77
7/10/2021 9:00:00 PM 19.07 66.326 0.084 6.93 5.01 8.76
7/10/2021 9:15:00 PM 18.97 66.146 0.085 6.93 5.17 8.76
7/10/2021 9:30:00 PM 18.88 65.984 0.085 6.91 5.26 8.77
7/10/2021 9:45:00 PM 18.78 65.804 0.085 6.9 5.14 8.78
7/10/2021 10:00:00 PM 18.69 65.642 0.085 6.9 5.13 8.79
7/10/2021 10:15:00 PM 18.6 65.48 0.085 6.9 5.3 8.81
7/10/2021 10:30:00 PM 18.51 65.318 0.085 6.88 5.37 8.82
7/10/2021 10:45:00 PM 18.42 65.156 0.085 6.89 5.15 8.84
7/10/2021 11:00:00 PM 18.33 64.994 0.085 6.89 5.21 8.86
7/10/2021 11:15:00 PM 18.24 64.832 0.085 6.88 5.49 8.87
7/10/2021 11:30:00 PM 18.16 64.688 0.085 6.89 5.01 8.89
7/10/2021 11:45:00 PM 18.07 64.526 0.085 6.88 5.06 8.91
7/11/2021 12:00:00 AM 17.99 64.382 0.086 6.89 5.09 8.92
7/11/2021 12:15:00 AM 17.91 64.238 0.086 6.88 5.28 8.94
7/11/2021 12:30:00 AM 17.83 64.094 0.086 6.88 5.11 8.96
7/11/2021 12:45:00 AM 17.75 63.95 0.086 6.88 5.2 8.97
7/11/2021 1:00:00 AM 17.68 63.824 0.086 6.88 5.36 8.99
7/11/2021 1:15:00 AM 17.61 63.698 0.086 6.89 5.49 9
7/11/2021 1:30:00 AM 17.54 63.572 0.087 6.89 5.28 9.02
7/11/2021 1:45:00 AM 17.47 63.446 0.087 6.9 5.19 9.03
7/11/2021 2:00:00 AM 17.41 63.338 0.086 6.9 4.97 9.05
7/11/2021 2:15:00 AM 17.35 63.23 0.086 6.89 4.98 9.06
7/11/2021 2:30:00 AM 17.27 63.086 0.086 6.88 5.3 9.07
7/11/2021 2:45:00 AM 17.21 62.978 0.086 6.9 5.09 9.08
7/11/2021 3:00:00 AM 17.14 62.852 0.086 6.88 4.79 9.1
7/11/2021 3:15:00 AM 17.08 62.744 0.086 6.88 6.2 9.11
7/11/2021 3:30:00 AM 17.02 62.636 0.086 6.89 4.69 9.12
7/11/2021 3:45:00 AM 16.96 62.528 0.086 6.89 4.69 9.13
7/11/2021 4:00:00 AM 16.9 62.42 0.086 6.89 4.87 9.15
7/11/2021 4:15:00 AM 16.83 62.294 0.086 6.9 4.76 9.16
7/11/2021 4:30:00 AM 16.77 62.186 0.086 6.87 4.56 9.17
7/11/2021 4:45:00 AM 16.72 62.096 0.086 6.9 4.83 9.19
7/11/2021 5:00:00 AM 16.67 62.006 0.086 6.89 5.82 9.19
7/11/2021 5:15:00 AM 16.61 61.898 0.086 6.89 5.14 9.21
7/11/2021 5:30:00 AM 16.56 61.808 0.086 6.88 5.22 9.22
7/11/2021 5:45:00 AM 16.52 61.736 0.086 6.89 4.95 9.24
7/11/2021 6:00:00 AM 16.48 61.664 0.086 6.9 4.79 9.25
7/11/2021 6:15:00 AM 16.44 61.592 0.086 6.9 4.45 9.28
7/11/2021 6:30:00 AM 16.41 61.538 0.086 6.91 4.58 9.3
7/11/2021 6:45:00 AM 16.38 61.484 0.086 6.92 4.58 9.34
7/11/2021 7:00:00 AM 16.36 61.448 0.086 6.93 4.59 9.37
7/11/2021 7:15:00 AM 16.34 61.412 0.086 6.92 4.69 9.44
7/11/2021 7:30:00 AM 16.33 61.394 0.086 6.97 4.56 9.51
7/11/2021 7:45:00 AM 16.33 61.394 0.086 6.99 4.5 9.59
7/11/2021 8:00:00 AM 16.33 61.394 0.086 7.02 4.45 9.65
7/11/2021 8:15:00 AM 16.34 61.412 0.086 7.04 4.33 9.69
7/11/2021 8:30:00 AM 16.36 61.448 0.086 7.07 4.3 9.73
7/11/2021 8:45:00 AM 16.39 61.502 0.086 7.09 4.27 9.78
7/11/2021 9:00:00 AM 16.44 61.592 0.086 7.14 4.31 9.87
7/11/2021 9:15:00 AM 16.5 61.7 0.086 7.17 4.41 9.91
7/11/2021 9:30:00 AM 16.57 61.826 0.085 7.21 4.23 9.96
7/11/2021 9:45:00 AM 16.63 61.934 0.085 7.23 4.39 9.98
7/11/2021 10:00:00 AM 16.7 62.06 0.085 7.25 3.99 9.98
7/11/2021 10:15:00 AM 16.77 62.186 0.085 7.26 3.98 9.97
7/11/2021 10:30:00 AM 16.82 62.276 0.086 7.26 4.19 9.94
7/11/2021 10:45:00 AM 16.86 62.348 0.086 7.25 4.13 9.89
7/11/2021 11:00:00 AM 16.9 62.42 0.086 7.23 3.92 9.83
7/11/2021 11:15:00 AM 16.93 62.474 0.086 7.19 3.87 9.73
7/11/2021 11:30:00 AM 16.94 62.492 0.086 7.17 3.84 9.66
7/11/2021 11:45:00 AM 16.96 62.528 0.086 7.16 4.05 9.68
7/11/2021 12:00:00 PM 16.98 62.564 0.086 7.16 3.94 9.67
7/11/2021 12:15:00 PM 17.01 62.618 0.086 7.17 3.86 9.67
7/11/2021 12:30:00 PM 17.03 62.654 0.086 7.16 3.81 9.64
7/11/2021 12:45:00 PM 17.05 62.69 0.086 7.12 3.67 9.54
7/11/2021 1:00:00 PM 17.06 62.708 0.086 7.11 3.92 9.49
7/11/2021 1:15:00 PM 17.1 62.78 0.086 7.11 3.65 9.5
7/11/2021 1:30:00 PM 17.14 62.852 0.086 7.1 3.87 9.51
7/11/2021 1:45:00 PM 17.17 62.906 0.086 7.1 3.93 9.52
7/11/2021 2:00:00 PM 17.21 62.978 0.086 7.12 3.86 9.58
7/11/2021 2:15:00 PM 17.24 63.032 0.086 7.15 3.86 9.61
7/11/2021 2:30:00 PM 17.26 63.068 0.086 7.14 5.78 9.59
7/11/2021 2:45:00 PM 17.29 63.122 0.086 7.17 3.73 9.62
7/11/2021 3:00:00 PM 17.32 63.176 0.086 7.17 3.8 9.61
7/11/2021 3:15:00 PM 17.36 63.248 0.086 7.18 3.66 9.61
7/11/2021 3:30:00 PM 17.38 63.284 0.086 7.16 3.99 9.57
7/11/2021 3:45:00 PM 17.4 63.32 0.086 7.16 3.67 9.53
7/11/2021 4:00:00 PM 17.42 63.356 0.086 7.14 3.66 9.48
7/11/2021 4:15:00 PM 17.43 63.374 0.087 7.12 3.67 9.45
7/11/2021 4:30:00 PM 17.45 63.41 0.087 7.11 3.91 9.43
7/11/2021 4:45:00 PM 17.47 63.446 0.087 7.11 3.76 9.41
7/11/2021 5:00:00 PM 17.49 63.482 0.087 7.1 3.67 9.39
7/11/2021 5:15:00 PM 17.5 63.5 0.087 7.08 3.85 9.36
7/11/2021 5:30:00 PM 17.5 63.5 0.087 7.07 3.7 9.32
7/11/2021 5:45:00 PM 17.51 63.518 0.087 7.05 3.76 9.28
7/11/2021 6:00:00 PM 17.52 63.536 0.087 7.04 3.78 9.24
7/11/2021 6:15:00 PM 17.52 63.536 0.087 7.02 3.71 9.19
7/11/2021 6:30:00 PM 17.53 63.554 0.087 7.01 3.81 9.16
7/11/2021 6:45:00 PM 17.54 63.572 0.087 7 3.59 9.13
7/11/2021 7:00:00 PM 17.54 63.572 0.087 7 4.07 9.11
7/11/2021 7:15:00 PM 17.54 63.572 0.087 6.99 3.8 9.09
7/11/2021 7:30:00 PM 17.54 63.572 0.088 6.99 4.32 9.09
7/11/2021 7:45:00 PM 17.54 63.572 0.088 6.98 3.89 9.07
7/11/2021 8:00:00 PM 17.54 63.572 0.088 6.98 3.96 9.05
7/11/2021 8:15:00 PM 17.54 63.572 0.088 6.97 4.14 9.03
7/11/2021 8:30:00 PM 17.53 63.554 0.088 6.96 4.25 9.02
7/11/2021 8:45:00 PM 17.52 63.536 0.088 6.96 4.03 9.02
7/11/2021 9:00:00 PM 17.51 63.518 0.088 6.94 4.77 9.01
7/11/2021 9:15:00 PM 17.5 63.5 0.087 6.95 4.62 9.01
7/11/2021 9:30:00 PM 17.5 63.5 0.087 6.96 4.52 9.01
7/11/2021 9:45:00 PM 17.49 63.482 0.087 6.95 4.53 9.01
7/11/2021 10:00:00 PM 17.48 63.464 0.087 6.96 4.63 9.02
7/11/2021 10:15:00 PM 17.47 63.446 0.087 6.94 4.64 9.02
7/11/2021 10:30:00 PM 17.46 63.428 0.086 6.94 4.86 9.03
7/11/2021 10:45:00 PM 17.44 63.392 0.086 6.94 4.67 9.03
7/11/2021 11:00:00 PM 17.43 63.374 0.085 6.94 5.47 9.03
7/11/2021 11:15:00 PM 17.42 63.356 0.085 6.93 5.23 9.04
7/11/2021 11:30:00 PM 17.41 63.338 0.085 6.93 5.38 9.04
7/11/2021 11:45:00 PM 17.4 63.32 0.085 6.92 5.85 9.04
7/12/2021 12:00:00 AM 17.38 63.284 0.085 6.91 5.95 9.05
7/12/2021 12:15:00 AM 17.38 63.284 0.085 6.91 6.01 9.05
7/12/2021 12:30:00 AM 17.37 63.266 0.085 6.9 5.97 9.05
7/12/2021 12:45:00 AM 17.36 63.248 0.085 6.9 6.43 9.06
7/12/2021 1:00:00 AM 17.35 63.23 0.085 6.89 7.31 9.07
7/12/2021 1:15:00 AM 17.34 63.212 0.085 6.88 7.89 9.08
7/12/2021 1:30:00 AM 17.32 63.176 0.085 6.87 8.34 9.09
7/12/2021 1:45:00 AM 17.29 63.122 0.085 6.87 9.53 9.11
7/12/2021 2:00:00 AM 17.27 63.086 0.085 6.86 10.76 9.12
7/12/2021 2:15:00 AM 17.25 63.05 0.084 6.85 12.36 9.13
7/12/2021 2:30:00 AM 17.24 63.032 0.084 6.83 13.36 9.14
7/12/2021 2:45:00 AM 17.25 63.05 0.084 6.83 13.95 9.15
7/12/2021 3:00:00 AM 17.26 63.068 0.084 6.85 12.99 9.15
7/12/2021 3:15:00 AM 17.28 63.104 0.085 6.85 12.55 9.16
7/12/2021 3:30:00 AM 17.29 63.122 0.085 6.84 12.61 9.15
7/12/2021 3:45:00 AM 17.3 63.14 0.085 6.84 12.93 9.16
7/12/2021 4:00:00 AM 17.3 63.14 0.084 6.83 13.8 9.15
7/12/2021 4:15:00 AM 17.31 63.158 0.084 6.83 14.53 9.15
7/12/2021 4:30:00 AM 17.33 63.194 0.083 6.83 14.53 9.15
7/12/2021 4:45:00 AM 17.35 63.23 0.083 6.82 14.56 9.15
7/12/2021 5:00:00 AM 17.36 63.248 0.082 6.78 14.15 9.15
7/12/2021 5:15:00 AM 17.38 63.284 0.081 6.8 14.13 9.15
7/12/2021 5:30:00 AM 17.39 63.302 0.081 6.8 13.9 9.14
7/12/2021 5:45:00 AM 17.41 63.338 0.08 6.79 13.41 9.14
7/12/2021 6:00:00 AM 17.42 63.356 0.08 6.78 12.5 9.14
7/12/2021 6:15:00 AM 17.44 63.392 0.08 6.77 12.55 9.14
7/12/2021 6:30:00 AM 17.46 63.428 0.08 6.77 12.35 9.15
7/12/2021 6:45:00 AM 17.47 63.446 0.08 6.75 12.71 9.16
7/12/2021 7:00:00 AM 17.49 63.482 0.08 6.76 12.54 9.17
7/12/2021 7:15:00 AM 17.51 63.518 0.08 6.76 12.74 9.19
7/12/2021 7:30:00 AM 17.53 63.554 0.08 6.75 12.73 9.22
7/12/2021 7:45:00 AM 17.56 63.608 0.08 6.78 12.86 9.26
7/12/2021 8:00:00 AM 17.6 63.68 0.08 6.8 12.43 9.29
7/12/2021 8:15:00 AM 17.64 63.752 0.08 6.84 12.07 9.32
7/12/2021 8:30:00 AM 17.71 63.878 0.08 6.86 12.2 9.36
7/12/2021 8:45:00 AM 17.77 63.986 0.08 6.87 12.03 9.38
7/12/2021 9:00:00 AM 17.82 64.076 0.08 6.9 11.86 9.38
7/12/2021 9:15:00 AM 17.87 64.166 0.079 6.89 11.56 9.38
7/12/2021 9:30:00 AM 17.91 64.238 0.079 6.9 11.34 9.36
7/12/2021 9:45:00 AM 17.95 64.31 0.079 6.91 10.76 9.35
7/12/2021 10:00:00 AM 17.98 64.364 0.079 6.93 10.43 9.33
7/12/2021 10:15:00 AM 18.04 64.472 0.078 6.93 10.41 9.36
7/12/2021 10:30:00 AM 18.12 64.616 0.078 6.96 9.78 9.39
7/12/2021 10:45:00 AM 18.17 64.706 0.078 6.96 9.52 9.39
7/12/2021 11:00:00 AM 18.25 64.85 0.078 7.01 8.98 9.41
7/12/2021 11:15:00 AM 18.37 65.066 0.078 7.05 8.75 9.47
7/12/2021 11:30:00 AM 18.46 65.228 0.077 7.07 8.78 9.44
7/12/2021 11:45:00 AM 18.46 65.228 0.077 7.02 8.7 9.34
7/12/2021 12:00:00 PM 18.49 65.282 0.077 7.01 8.42 9.33
7/12/2021 12:15:00 PM 18.53 65.354 0.078 7.02 8.01 9.32
7/12/2021 12:30:00 PM 18.56 65.408 0.078 7.03 7.71 9.33
7/12/2021 12:45:00 PM 18.59 65.462 0.078 7.04 7.62 9.33
7/12/2021 1:00:00 PM 18.6 65.48 0.078 7.02 7.22 9.31
7/12/2021 1:15:00 PM 18.63 65.534 0.078 7 7.09 9.26
7/12/2021 1:30:00 PM 18.68 65.624 0.078 7.02 7.06 9.3
7/12/2021 1:45:00 PM 18.78 65.804 0.078 7.07 7.29 9.38
7/12/2021 2:00:00 PM 18.89 66.002 0.078 7.11 7.02 9.41
7/12/2021 2:15:00 PM 19.03 66.254 0.078 7.14 6.83 9.42
7/12/2021 2:30:00 PM 19.16 66.488 0.078 7.16 7.14 9.41
7/12/2021 2:45:00 PM 19.28 66.704 0.078 7.17 6.8 9.38
7/12/2021 3:00:00 PM 19.35 66.83 0.078 7.17 6.69 9.36
7/12/2021 3:15:00 PM 19.41 66.938 0.078 7.16 6.65 9.31
7/12/2021 3:30:00 PM 19.43 66.974 0.078 7.15 6.83 9.31
7/12/2021 3:45:00 PM 19.55 67.19 0.078 7.17 6.68 9.31
7/12/2021 4:00:00 PM 19.65 67.37 0.078 7.19 6.51 9.3
7/12/2021 4:15:00 PM 19.71 67.478 0.078 7.17 6.82 9.26
7/12/2021 4:30:00 PM 19.79 67.622 0.078 7.17 6.62 9.21
7/12/2021 4:45:00 PM 19.94 67.892 0.078 7.17 6.48 9.17
7/12/2021 5:00:00 PM 20 68 0.078 7.14 6.78 9.12
7/12/2021 5:15:00 PM 20.06 68.108 0.079 7.13 6.62 9.09
7/12/2021 5:30:00 PM 20.09 68.162 0.079 7.12 6.8 9.07
7/12/2021 5:45:00 PM 20.16 68.288 0.079 7.12 6.85 9.03
7/12/2021 6:00:00 PM 20.16 68.288 0.079 7.08 6.59 8.98
7/12/2021 6:15:00 PM 20.17 68.306 0.079 7.05 6.76 8.95
7/12/2021 6:30:00 PM 20.13 68.234 0.079 7.03 6.74 8.92
7/12/2021 6:45:00 PM 20.08 68.144 0.079 6.99 6.68 8.89
7/12/2021 7:00:00 PM 20.03 68.054 0.079 6.97 6.66 8.84
7/12/2021 7:15:00 PM 19.98 67.964 0.08 6.93 6.53 8.81
7/12/2021 7:30:00 PM 19.94 67.892 0.08 6.92 6.41 8.77
7/12/2021 7:45:00 PM 19.91 67.838 0.074 6.87 10.1 8.76
7/12/2021 8:00:00 PM 19.91 67.838 0.074 6.85 28.79 8.69
7/12/2021 8:15:00 PM 19.89 67.802 0.071 6.73 32.45 8.65
7/12/2021 8:30:00 PM 19.8 67.64 0.071 6.69 22.23 8.64
7/12/2021 8:45:00 PM 19.76 67.568 0.072 6.7 18.26 8.63
7/12/2021 9:00:00 PM 19.71 67.478 0.071 6.67 22.56 8.62
7/12/2021 9:15:00 PM 19.64 67.352 0.071 6.63 30.32 8.62
7/12/2021 9:30:00 PM 19.53 67.154 0.07 6.61 36.35 8.65
7/12/2021 9:45:00 PM 19.44 66.992 0.072 6.62 30.36 8.68
7/12/2021 10:00:00 PM 19.38 66.884 0.073 6.64 30.97 8.7
7/12/2021 10:15:00 PM 19.29 66.722 0.072 6.62 47.38 8.71
7/12/2021 10:30:00 PM 19.21 66.578 0.071 6.62 49.92 8.73
7/12/2021 10:45:00 PM 19.17 66.506 0.071 6.64 39.89 8.74
7/12/2021 11:00:00 PM 19.15 66.47 0.071 6.66 29.73 8.75
7/12/2021 11:15:00 PM 19.13 66.434 0.072 6.67 25.21 8.76
7/12/2021 11:30:00 PM 19.1 66.38 0.072 6.67 23.1 8.76
7/12/2021 11:45:00 PM 19.07 66.326 0.073 6.68 18.83 8.77
7/13/2021 12:00:00 AM 19.05 66.29 0.074 6.68 15.85 8.77
7/13/2021 12:15:00 AM 19.02 66.236 0.075 6.67 14.03 8.78
7/13/2021 12:30:00 AM 18.99 66.182 0.076 6.66 13.62 8.78
7/13/2021 12:45:00 AM 18.97 66.146 0.076 6.67 12.85 8.78
7/13/2021 1:00:00 AM 18.95 66.11 0.077 6.69 12.45 8.79
7/13/2021 1:15:00 AM 18.93 66.074 0.077 6.69 12.43 8.79
7/13/2021 1:30:00 AM 18.91 66.038 0.077 6.69 12.25 8.8
7/13/2021 1:45:00 AM 18.89 66.002 0.077 6.68 11.76 8.8
7/13/2021 2:00:00 AM 18.88 65.984 0.077 6.7 11.33 8.8
7/13/2021 2:15:00 AM 18.86 65.948 0.077 6.7 10.83 8.8
7/13/2021 2:30:00 AM 18.85 65.93 0.077 6.69 10.68 8.81
7/13/2021 2:45:00 AM 18.84 65.912 0.077 6.7 10.32 8.81
7/13/2021 3:00:00 AM 18.83 65.894 0.077 6.7 9.88 8.81
7/13/2021 3:15:00 AM 18.82 65.876 0.077 6.7 9.5 8.81
7/13/2021 3:30:00 AM 18.81 65.858 0.077 6.7 9.31 8.82
7/13/2021 3:45:00 AM 18.81 65.858 0.077 6.71 9.25 8.82
7/13/2021 4:00:00 AM 18.8 65.84 0.077 6.71 8.93 8.82
7/13/2021 4:15:00 AM 18.8 65.84 0.077 6.72 8.64 8.82
7/13/2021 4:30:00 AM 18.79 65.82201 0.077 6.72 8.47 8.82
7/13/2021 4:45:00 AM 18.78 65.804 0.077 6.72 8.47 8.82
7/13/2021 5:00:00 AM 18.77 65.786 0.077 6.72 8.34 8.82
7/13/2021 5:15:00 AM 18.76 65.768 0.077 6.72 8.5 8.82
7/13/2021 5:30:00 AM 18.74 65.732 0.077 6.71 8.52 8.82
7/13/2021 5:45:00 AM 18.73 65.714 0.077 6.72 8.31 8.83
7/13/2021 6:00:00 AM 18.71 65.67799 0.077 6.71 8.07 8.84
7/13/2021 6:15:00 AM 18.69 65.642 0.077 6.71 7.87 8.86
7/13/2021 6:30:00 AM 18.68 65.624 0.077 6.72 7.9 8.88
7/13/2021 6:45:00 AM 18.67 65.606 0.077 6.72 7.77 8.92
7/13/2021 7:00:00 AM 18.66 65.588 0.077 6.72 7.77 8.94
7/13/2021 7:15:00 AM 18.66 65.588 0.077 6.73 7.36 8.97
7/13/2021 7:30:00 AM 18.66 65.588 0.077 6.74 7.41 9
7/13/2021 7:45:00 AM 18.66 65.588 0.077 6.74 7.07 9.02
7/13/2021 8:00:00 AM 18.67 65.606 0.077 6.76 7.17 9.06
7/13/2021 8:15:00 AM 18.69 65.642 0.077 6.79 6.98 9.11
7/13/2021 8:30:00 AM 18.71 65.67799 0.077 6.81 6.72 9.16
7/13/2021 8:45:00 AM 18.74 65.732 0.076 6.83 6.86 9.19
7/13/2021 9:00:00 AM 18.77 65.786 0.076 6.84 6.48 9.2
7/13/2021 9:15:00 AM 18.79 65.82201 0.077 6.83 6.44 9.17
7/13/2021 9:30:00 AM 18.79 65.82201 0.077 6.84 6.4 9.18
7/13/2021 9:45:00 AM 18.8 65.84 0.077 6.85 6.49 9.2
7/13/2021 10:00:00 AM 18.81 65.858 0.077 6.85 6.18 9.2
7/13/2021 10:15:00 AM 18.85 65.93 0.077 6.85 6.42 9.25
7/13/2021 10:30:00 AM 18.91 66.038 0.076 6.91 5.88 9.31
7/13/2021 10:45:00 AM 19.02 66.236 0.076 6.94 5.82 9.38
7/13/2021 11:00:00 AM 19.11 66.398 0.076 6.97 5.85 9.41
7/13/2021 11:15:00 AM 19.24 66.632 0.076 7.01 5.68 9.44
7/13/2021 11:30:00 AM 19.37 66.866 0.076 7.03 5.7 9.43
7/13/2021 11:45:00 AM 19.45 67.01 0.077 7.02 5.57 9.39
7/13/2021 12:00:00 PM 19.4 66.92 0.077 6.98 5.73 9.35
7/13/2021 12:15:00 PM 19.35 66.83 0.077 6.96 5.5 9.31
7/13/2021 12:30:00 PM 19.33 66.794 0.077 6.97 5.18 9.34
7/13/2021 12:45:00 PM 19.43 66.974 0.077 7.02 5.48 9.41
7/13/2021 1:00:00 PM 19.55 67.19 0.077 7.05 5.28 9.43
7/13/2021 1:15:00 PM 19.64 67.352 0.077 7.07 5.31 9.45
7/13/2021 1:30:00 PM 19.72 67.496 0.077 7.08 5.24 9.43
7/13/2021 1:45:00 PM 19.89 67.802 0.077 7.09 5.09 9.4
7/13/2021 2:00:00 PM 19.99 67.982 0.077 7.09 5.19 9.36
7/13/2021 2:15:00 PM 20.17 68.306 0.077 7.12 5.21 9.35
7/13/2021 2:30:00 PM 20.35 68.63 0.077 7.11 5.21 9.3
7/13/2021 2:45:00 PM 20.54 68.972 0.077 7.13 5.08 9.3
7/13/2021 3:00:00 PM 20.68 69.224 0.077 7.12 5.1 9.24
7/13/2021 3:15:00 PM 20.82 69.476 0.077 7.11 5.16 9.17
7/13/2021 3:30:00 PM 20.92 69.656 0.077 7.09 5.2 9.11
7/13/2021 3:45:00 PM 20.95 69.71 0.077 7.06 5.34 9.09
7/13/2021 4:00:00 PM 20.98 69.764 0.077 7.06 5.04 9.05
7/13/2021 4:15:00 PM 20.94 69.692 0.077 7.03 5.36 9.02
7/13/2021 4:30:00 PM 20.92 69.656 0.077 7.02 4.99 9.01
7/13/2021 4:45:00 PM 20.94 69.692 0.077 7.02 5.12 8.98
7/13/2021 5:00:00 PM 21 69.8 0.077 7.02 5.17 8.96
7/13/2021 5:15:00 PM 20.98 69.764 0.077 7 5.16 8.94
7/13/2021 5:30:00 PM 21 69.8 0.077 7.01 5.13 8.93
7/13/2021 5:45:00 PM 20.99 69.782 0.077 6.99 5.43 8.9
7/13/2021 6:00:00 PM 20.97 69.746 0.078 6.99 5.73 8.89
7/13/2021 6:15:00 PM 20.95 69.71 0.078 6.97 5.61 8.89
7/13/2021 6:30:00 PM 20.9 69.62 0.078 6.97 5.72 8.86
7/13/2021 6:45:00 PM 20.84 69.512 0.078 6.95 5.51 8.83
7/13/2021 7:00:00 PM 20.78 69.404 0.078 6.93 5.54 8.77
7/13/2021 7:15:00 PM 20.71 69.278 0.078 6.88 5.61 8.7
7/13/2021 7:30:00 PM 20.64 69.152 0.078 6.88 5.49 8.68
7/13/2021 7:45:00 PM 20.57 69.026 0.079 6.85 5.61 8.66
7/13/2021 8:00:00 PM 20.48 68.864 0.079 6.83 5.64 8.62
7/13/2021 8:15:00 PM 20.39 68.702 0.079 6.82 5.75 8.6
7/13/2021 8:30:00 PM 20.31 68.558 0.079 6.8 5.84 8.57
7/13/2021 8:45:00 PM 20.23 68.414 0.079 6.79 6.01 8.56
7/13/2021 9:00:00 PM 20.16 68.288 0.079 6.76 6.1 8.55
7/13/2021 9:15:00 PM 20.09 68.162 0.079 6.76 6.1 8.55
7/13/2021 9:30:00 PM 20.04 68.07201 0.079 6.76 6.3 8.55
7/13/2021 9:45:00 PM 19.99 67.982 0.079 6.75 6.2 8.56
7/13/2021 10:00:00 PM 19.95 67.91 0.079 6.76 6.08 8.56
7/13/2021 10:15:00 PM 19.9 67.82 0.079 6.76 5.92 8.57
7/13/2021 10:30:00 PM 19.86 67.748 0.079 6.76 6.16 8.57
7/13/2021 10:45:00 PM 19.83 67.694 0.079 6.76 5.86 8.58
7/13/2021 11:00:00 PM 19.79 67.622 0.079 6.76 5.95 8.59
7/13/2021 11:15:00 PM 19.73 67.514 0.078 6.76 6.08 8.61
7/13/2021 11:30:00 PM 19.68 67.424 0.078 6.75 6.17 8.62
7/13/2021 11:45:00 PM 19.64 67.352 0.078 6.74 6.36 8.62
7/14/2021 12:00:00 AM 19.56 67.208 0.077 6.73 6.57 8.64
7/14/2021 12:15:00 AM 19.5 67.1 0.077 6.72 6.86 8.64
7/14/2021 12:30:00 AM 19.44 66.992 0.076 6.71 9.15 8.63
7/14/2021 12:45:00 AM 19.38 66.884 0.075 6.67 7.94 8.64
7/14/2021 1:00:00 AM 19.32 66.776 0.076 6.69 8.12 8.66
7/14/2021 1:15:00 AM 19.26 66.668 0.076 6.7 8.21 8.67
7/14/2021 1:30:00 AM 19.2 66.56 0.075 6.69 9.16 8.69
7/14/2021 1:45:00 AM 19.14 66.452 0.075 6.7 10.06 8.71
7/14/2021 2:00:00 AM 19.07 66.326 0.075 6.7 11.83 8.73
7/14/2021 2:15:00 AM 18.99 66.182 0.074 6.69 13.24 8.75
7/14/2021 2:30:00 AM 18.92 66.056 0.073 6.68 15.79 8.76
7/14/2021 2:45:00 AM 18.86 65.948 0.073 6.68 15.94 8.78
7/14/2021 3:00:00 AM 18.82 65.876 0.073 6.68 16.1 8.8
7/14/2021 3:15:00 AM 18.8 65.84 0.074 6.69 15.89 8.81
7/14/2021 3:30:00 AM 18.78 65.804 0.075 6.71 15.59 8.82
7/14/2021 3:45:00 AM 18.75 65.75 0.075 6.71 13.88 8.82
7/14/2021 4:00:00 AM 18.72 65.696 0.075 6.71 13.2 8.83
7/14/2021 4:15:00 AM 18.7 65.66 0.075 6.72 12.23 8.84
7/14/2021 4:30:00 AM 18.66 65.588 0.075 6.72 12.22 8.84
7/14/2021 4:45:00 AM 18.63 65.534 0.076 6.72 13.11 8.85
7/14/2021 5:00:00 AM 18.6 65.48 0.076 6.71 12.5 8.85
7/14/2021 5:15:00 AM 18.56 65.408 0.075 6.68 11.88 8.86
7/14/2021 5:30:00 AM 18.52 65.336 0.075 6.71 11.33 8.86
7/14/2021 5:45:00 AM 18.49 65.282 0.075 6.71 10.87 8.88
7/14/2021 6:00:00 AM 18.45 65.21 0.075 6.71 10.19 8.89
7/14/2021 6:15:00 AM 18.41 65.138 0.075 6.71 9.87 8.91
7/14/2021 6:30:00 AM 18.37 65.066 0.075 6.72 9.57 8.93
7/14/2021 6:45:00 AM 18.32 64.976 0.075 6.71 9.04 8.95
7/14/2021 7:00:00 AM 18.29 64.922 0.075 6.71 9.01 8.98
7/14/2021 7:15:00 AM 18.26 64.868 0.075 6.73 8.47 9.01
7/14/2021 7:30:00 AM 18.24 64.832 0.075 6.73 8.41 9.05
7/14/2021 7:45:00 AM 18.24 64.832 0.075 6.75 8.11 9.08
7/14/2021 8:00:00 AM 18.25 64.85 0.075 6.77 7.98 9.13
7/14/2021 8:15:00 AM 18.27 64.886 0.075 6.78 7.77 9.18
7/14/2021 8:30:00 AM 18.28 64.904 0.075 6.8 7.75 9.22
7/14/2021 8:45:00 AM 18.32 64.976 0.075 6.82 7.68 9.26
7/14/2021 9:00:00 AM 18.36 65.048 0.075 6.83 7.58 9.3
7/14/2021 9:15:00 AM 18.41 65.138 0.075 6.85 7.24 9.32
7/14/2021 9:30:00 AM 18.49 65.282 0.075 6.87 7.17 9.36
7/14/2021 9:45:00 AM 18.57 65.426 0.075 6.91 7.15 9.4
7/14/2021 10:00:00 AM 18.63 65.534 0.075 6.92 7.24 9.42
7/14/2021 10:15:00 AM 18.7 65.66 0.075 6.95 7.25 9.42
7/14/2021 10:30:00 AM 18.8 65.84 0.075 6.97 7.54 9.43
7/14/2021 10:45:00 AM 18.91 66.038 0.075 6.99 7.66 9.44
7/14/2021 11:00:00 AM 19.07 66.326 0.074 7.02 7.35 9.44
7/14/2021 11:15:00 AM 19.23 66.614 0.074 7.04 6.96 9.42
7/14/2021 11:30:00 AM 19.4 66.92 0.074 7.06 6.63 9.4
7/14/2021 11:45:00 AM 19.54 67.172 0.074 7.07 6.46 9.39
7/14/2021 12:00:00 PM 19.62 67.316 0.074 7.06 6.25 9.35
7/14/2021 12:15:00 PM 19.76 67.568 0.074 7.07 5.9 9.32
7/14/2021 12:30:00 PM 19.94 67.892 0.074 7.09 5.76 9.31
7/14/2021 12:45:00 PM 20.15 68.27 0.074 7.11 5.83 9.33
7/14/2021 1:00:00 PM 20.33 68.594 0.074 7.12 5.71 9.3
7/14/2021 1:15:00 PM 20.49 68.882 0.075 7.14 5.73 9.25
7/14/2021 1:30:00 PM 20.61 69.098 0.075 7.12 5.41 9.2
7/14/2021 1:45:00 PM 20.72 69.296 0.075 7.13 5.44 9.19
7/14/2021 2:00:00 PM 20.81 69.458 0.075 7.12 5.37 9.14
7/14/2021 2:15:00 PM 21.07 69.926 0.075 7.17 5.49 9.14
7/14/2021 2:30:00 PM 21.2 70.16 0.075 7.15 5.24 9.11
7/14/2021 2:45:00 PM 21.22 70.196 0.075 7.1 5.43 9.05
7/14/2021 3:00:00 PM 21.34 70.412 0.075 7.1 5.32 9.04
7/14/2021 3:15:00 PM 21.34 70.412 0.075 7.1 5.31 9.04
7/14/2021 3:30:00 PM 21.37 70.466 0.075 7.09 5.27 9.01
7/14/2021 3:45:00 PM 21.41 70.538 0.075 7.11 5.45 9
7/14/2021 4:00:00 PM 21.43 70.574 0.075 7.08 5.44 8.94
7/14/2021 4:15:00 PM 21.39 70.502 0.075 7.02 5.44 8.83
7/14/2021 4:30:00 PM 21.33 70.394 0.076 7 5.47 8.78
7/14/2021 4:45:00 PM 21.31 70.358 0.076 6.99 5.35 8.74
7/14/2021 5:00:00 PM 21.2 70.16 0.076 6.93 5.54 8.68
7/14/2021 5:15:00 PM 21.11 69.998 0.076 6.92 5.59 8.72
7/14/2021 5:30:00 PM 21.09 69.962 0.076 6.95 5.5 8.79
7/14/2021 5:45:00 PM 21.04 69.872 0.076 6.94 5.46 8.79
7/14/2021 6:00:00 PM 20.99 69.782 0.076 6.91 5.71 8.73
7/14/2021 6:15:00 PM 20.98 69.764 0.075 6.91 5.67 8.72
7/14/2021 6:30:00 PM 20.93 69.674 0.075 6.9 5.81 8.74
7/14/2021 6:45:00 PM 20.83 69.494 0.075 6.89 5.62 8.78
7/14/2021 7:00:00 PM 20.73 69.314 0.074 6.86 5.49 8.76
7/14/2021 7:15:00 PM 20.62 69.116 0.074 6.84 5.59 8.72
7/14/2021 7:30:00 PM 20.55 68.99 0.074 6.83 5.82 8.7
7/14/2021 7:45:00 PM 20.49 68.882 0.074 6.83 5.83 8.68
7/14/2021 8:00:00 PM 20.43 68.774 0.075 6.82 5.67 8.65
7/14/2021 8:15:00 PM 20.36 68.648 0.075 6.8 5.83 8.62
7/14/2021 8:30:00 PM 20.28 68.504 0.075 6.79 5.9 8.6
7/14/2021 8:45:00 PM 20.19 68.342 0.075 6.76 6.47 8.59
7/14/2021 9:00:00 PM 20.11 68.198 0.075 6.76 5.99 8.58
7/14/2021 9:15:00 PM 20.04 68.07201 0.075 6.76 5.96 8.58
7/14/2021 9:30:00 PM 19.96 67.92799 0.076 6.75 5.99 8.58
7/14/2021 9:45:00 PM 19.89 67.802 0.076 6.74 6.16 8.59
7/14/2021 10:00:00 PM 19.82 67.676 0.076 6.74 5.93 8.6
7/14/2021 10:15:00 PM 19.75 67.55 0.076 6.73 5.93 8.6
7/14/2021 10:30:00 PM 19.69 67.442 0.076 6.73 6.08 8.62
7/14/2021 10:45:00 PM 19.64 67.352 0.076 6.74 5.95 8.63
7/14/2021 11:00:00 PM 19.6 67.28 0.076 6.74 5.98 8.64
7/14/2021 11:15:00 PM 19.55 67.19 0.076 6.71 6.06 8.65
7/14/2021 11:30:00 PM 19.51 67.118 0.076 6.74 5.95 8.66
7/14/2021 11:45:00 PM 19.45 67.01 0.076 6.72 5.85 8.67
7/15/2021 12:00:00 AM 19.4 66.92 0.077 6.74 5.91 8.68
7/15/2021 12:15:00 AM 19.34 66.812 0.077 6.74 5.7 8.69
7/15/2021 12:30:00 AM 19.29 66.722 0.077 6.75 5.8 8.7
7/15/2021 12:45:00 AM 19.24 66.632 0.077 6.75 5.49 8.72
7/15/2021 1:00:00 AM 19.19 66.542 0.077 6.75 5.73 8.72
7/15/2021 1:15:00 AM 19.16 66.488 0.077 6.76 5.48 8.73
7/15/2021 1:30:00 AM 19.14 66.452 0.077 6.76 5.61 8.74
7/15/2021 1:45:00 AM 19.11 66.398 0.077 6.76 5.36 8.74
7/15/2021 2:00:00 AM 19.08 66.344 0.077 6.76 5.44 8.74
7/15/2021 2:15:00 AM 19.04 66.272 0.077 6.77 5.62 8.75
7/15/2021 2:30:00 AM 19 66.2 0.077 6.76 5.63 8.76
7/15/2021 2:45:00 AM 18.97 66.146 0.077 6.77 5.43 8.77
7/15/2021 3:00:00 AM 18.93 66.074 0.077 6.77 5.48 8.78
7/15/2021 3:15:00 AM 18.89 66.002 0.077 6.75 5.4 8.78
7/15/2021 3:30:00 AM 18.85 65.93 0.077 6.76 5.46 8.79
7/15/2021 3:45:00 AM 18.81 65.858 0.077 6.76 5.4 8.8
7/15/2021 4:00:00 AM 18.77 65.786 0.077 6.76 5.38 8.8
7/15/2021 4:15:00 AM 18.73 65.714 0.077 6.76 5.36 8.81
7/15/2021 4:30:00 AM 18.69 65.642 0.078 6.74 5.46 8.82
7/15/2021 4:45:00 AM 18.65 65.57 0.078 6.75 5.61 8.83
7/15/2021 5:00:00 AM 18.61 65.498 0.078 6.76 5.3 8.83
7/15/2021 5:15:00 AM 18.57 65.426 0.078 6.76 5.27 8.84
7/15/2021 5:30:00 AM 18.53 65.354 0.078 6.76 5.52 8.85
7/15/2021 5:45:00 AM 18.49 65.282 0.078 6.76 5.54 8.86
7/15/2021 6:00:00 AM 18.44 65.192 0.078 6.76 5.41 8.88
7/15/2021 6:15:00 AM 18.41 65.138 0.078 6.76 5.6 8.9
7/15/2021 6:30:00 AM 18.37 65.066 0.078 6.76 5.41 8.94
7/15/2021 6:45:00 AM 18.33 64.994 0.078 6.78 5.41 8.97
7/15/2021 7:00:00 AM 18.3 64.94 0.078 6.79 5.34 9.02
7/15/2021 7:15:00 AM 18.27 64.886 0.078 6.8 5.22 9.08
7/15/2021 7:30:00 AM 18.23 64.814 0.078 6.81 4.99 9.12
7/15/2021 7:45:00 AM 18.22 64.796 0.078 6.83 5.15 9.19
7/15/2021 8:00:00 AM 18.22 64.796 0.078 6.84 4.99 9.24
7/15/2021 8:15:00 AM 18.22 64.796 0.078 6.87 4.94 9.27
7/15/2021 8:30:00 AM 18.23 64.814 0.078 6.89 5 9.31
7/15/2021 8:45:00 AM 18.25 64.85 0.078 6.9 4.84 9.35
7/15/2021 9:00:00 AM 18.3 64.94 0.078 6.93 4.95 9.38
7/15/2021 9:15:00 AM 18.37 65.066 0.078 6.95 4.89 9.42
7/15/2021 9:30:00 AM 18.46 65.228 0.078 6.98 4.72 9.44
7/15/2021 9:45:00 AM 18.56 65.408 0.078 7.01 4.73 9.48
7/15/2021 10:00:00 AM 18.68 65.624 0.078 7.03 4.8 9.5
7/15/2021 10:15:00 AM 18.81 65.858 0.078 7.06 4.57 9.52
7/15/2021 10:30:00 AM 18.97 66.146 0.078 7.09 4.52 9.53
7/15/2021 10:45:00 AM 19.11 66.398 0.078 7.13 4.67 9.53
7/15/2021 11:00:00 AM 19.28 66.704 0.078 7.15 4.46 9.53
7/15/2021 11:15:00 AM 19.47 67.046 0.078 7.18 4.53 9.53
7/15/2021 11:30:00 AM 19.67 67.406 0.078 7.21 4.6 9.52
7/15/2021 11:45:00 AM 19.84 67.712 0.078 7.22 4.46 9.51
7/15/2021 12:00:00 PM 20.07 68.126 0.078 7.26 4.39 9.48
7/15/2021 12:15:00 PM 20.26 68.468 0.078 7.27 4.39 9.45
7/15/2021 12:30:00 PM 20.4 68.72 0.078 7.26 4.4 9.41
7/15/2021 12:45:00 PM 20.57 69.026 0.078 7.27 4.35 9.37
7/15/2021 1:00:00 PM 20.84 69.512 0.078 7.31 4.2 9.36
7/15/2021 1:15:00 PM 21.01 69.818 0.078 7.3 4.12 9.31
7/15/2021 1:30:00 PM 21.17 70.106 0.078 7.3 4.29 9.27
7/15/2021 1:45:00 PM 21.33 70.394 0.078 7.32 4.25 9.25
7/15/2021 2:00:00 PM 21.42 70.556 0.078 7.28 4.32 9.19
7/15/2021 2:15:00 PM 21.58 70.844 0.078 7.3 4.14 9.18
7/15/2021 2:30:00 PM 21.6 70.88 0.079 7.28 4.51 9.13
7/15/2021 2:45:00 PM 21.63 70.934 0.079 7.25 4.32 9.09
7/15/2021 3:00:00 PM 21.61 70.898 0.079 7.21 4.61 9.04
7/15/2021 3:15:00 PM 21.69 71.042 0.079 7.23 4.13 9.04
7/15/2021 3:30:00 PM 21.81 71.258 0.079 7.25 4.21 9.01
7/15/2021 3:45:00 PM 21.92 71.456 0.079 7.26 4.1 9
7/15/2021 4:00:00 PM 21.94 71.492 0.079 7.23 4.18 8.95
7/15/2021 4:15:00 PM 21.98 71.564 0.079 7.23 4.2 8.94
7/15/2021 4:30:00 PM 22.04 71.672 0.079 7.21 4.44 8.91
7/15/2021 4:45:00 PM 22.05 71.69 0.079 7.2 4.31 8.88
7/15/2021 5:00:00 PM 22.05 71.69 0.079 7.17 4.37 8.85
7/15/2021 5:15:00 PM 22.01 71.618 0.079 7.15 4.24 8.81
7/15/2021 5:30:00 PM 21.99 71.582 0.079 7.13 4.4 8.78
7/15/2021 5:45:00 PM 21.96 71.528 0.079 7.12 4.44 8.77
7/15/2021 6:00:00 PM 21.91 71.438 0.079 7.08 4.44 8.76
7/15/2021 6:15:00 PM 21.81 71.258 0.079 7.07 4.47 8.74
7/15/2021 6:30:00 PM 21.69 71.042 0.079 7.03 4.52 8.7
7/15/2021 6:45:00 PM 21.59 70.862 0.079 7.01 4.45 8.67
7/15/2021 7:00:00 PM 21.48 70.664 0.079 6.98 4.35 8.64
7/15/2021 7:15:00 PM 21.37 70.466 0.08 6.96 4.83 8.61
7/15/2021 7:30:00 PM 21.26 70.268 0.08 6.93 4.46 8.58
7/15/2021 7:45:00 PM 21.17 70.106 0.08 6.9 4.68 8.54
7/15/2021 8:00:00 PM 21.09 69.962 0.08 6.89 4.58 8.5
7/15/2021 8:15:00 PM 21 69.8 0.08 6.86 4.71 8.45
7/15/2021 8:30:00 PM 20.91 69.638 0.08 6.85 4.65 8.43
7/15/2021 8:45:00 PM 20.81 69.458 0.08 6.83 4.83 8.41
7/15/2021 9:00:00 PM 20.72 69.296 0.08 6.81 4.82 8.39
7/15/2021 9:15:00 PM 20.63 69.134 0.08 6.81 4.73 8.39
7/15/2021 9:30:00 PM 20.56 69.008 0.081 6.81 4.74 8.39
7/15/2021 9:45:00 PM 20.48 68.864 0.081 6.8 4.95 8.39
7/15/2021 10:00:00 PM 20.41 68.738 0.081 6.79 5.06 8.4
7/15/2021 10:15:00 PM 20.33 68.594 0.081 6.79 4.88 8.42
7/15/2021 10:30:00 PM 20.25 68.45 0.081 6.79 4.91 8.43
7/15/2021 10:45:00 PM 20.18 68.324 0.081 6.78 4.82 8.44
7/15/2021 11:00:00 PM 20.1 68.18 0.081 6.79 4.9 8.46
7/15/2021 11:15:00 PM 20.03 68.054 0.081 6.79 4.97 8.46
7/15/2021 11:30:00 PM 19.96 67.92799 0.082 6.79 4.84 8.47
7/15/2021 11:45:00 PM 19.89 67.802 0.082 6.79 4.8 8.49
7/16/2021 12:00:00 AM 19.83 67.694 0.082 6.79 4.92 8.5
7/16/2021 12:15:00 AM 19.76 67.568 0.082 6.78 4.89 8.52
7/16/2021 12:30:00 AM 19.7 67.46 0.082 6.77 5.14 8.52
7/16/2021 12:45:00 AM 19.64 67.352 0.082 6.79 5.01 8.53
7/16/2021 1:00:00 AM 19.58 67.244 0.082 6.79 4.93 8.54
7/16/2021 1:15:00 AM 19.52 67.136 0.082 6.77 4.92 8.56
7/16/2021 1:30:00 AM 19.46 67.028 0.082 6.79 5.05 8.57
7/16/2021 1:45:00 AM 19.41 66.938 0.082 6.79 4.77 8.58
7/16/2021 2:00:00 AM 19.35 66.83 0.082 6.78 5.05 8.59
7/16/2021 2:15:00 AM 19.3 66.74 0.082 6.77 4.84 8.61
7/16/2021 2:30:00 AM 19.24 66.632 0.082 6.79 5.04 8.61
7/16/2021 2:45:00 AM 19.19 66.542 0.082 6.79 4.77 8.63
7/16/2021 3:00:00 AM 19.14 66.452 0.082 6.79 4.77 8.64
7/16/2021 3:15:00 AM 19.09 66.362 0.082 6.79 4.75 8.65
7/16/2021 3:30:00 AM 19.04 66.272 0.082 6.79 4.94 8.66
7/16/2021 3:45:00 AM 18.99 66.182 0.082 6.79 4.7 8.67
7/16/2021 4:00:00 AM 18.94 66.092 0.082 6.8 4.75 8.67
7/16/2021 4:15:00 AM 18.9 66.02 0.082 6.79 5.08 8.68
7/16/2021 4:30:00 AM 18.86 65.948 0.082 6.79 4.95 8.69
7/16/2021 4:45:00 AM 18.81 65.858 0.082 6.78 5.03 8.7
7/16/2021 5:00:00 AM 18.77 65.786 0.082 6.79 5.04 8.71
7/16/2021 5:15:00 AM 18.72 65.696 0.082 6.78 5.03 8.72
7/16/2021 5:30:00 AM 18.67 65.606 0.082 6.78 5.13 8.72
7/16/2021 5:45:00 AM 18.63 65.534 0.082 6.78 5 8.74
7/16/2021 6:00:00 AM 18.58 65.444 0.082 6.78 4.84 8.76
7/16/2021 6:15:00 AM 18.54 65.372 0.082 6.78 4.78 8.79
7/16/2021 6:30:00 AM 18.51 65.318 0.082 6.8 4.8 8.84
7/16/2021 6:45:00 AM 18.48 65.264 0.082 6.81 5.25 8.89
7/16/2021 7:00:00 AM 18.45 65.21 0.082 6.82 4.8 8.94
7/16/2021 7:15:00 AM 18.44 65.192 0.082 6.84 4.54 8.98
7/16/2021 7:30:00 AM 18.44 65.192 0.082 6.86 4.67 9.04
7/16/2021 7:45:00 AM 18.46 65.228 0.082 6.89 4.83 9.11
7/16/2021 8:00:00 AM 18.48 65.264 0.082 6.9 4.76 9.16
7/16/2021 8:15:00 AM 18.5 65.3 0.082 6.92 4.49 9.2
7/16/2021 8:30:00 AM 18.54 65.372 0.082 6.94 4.41 9.24
7/16/2021 8:45:00 AM 18.6 65.48 0.082 6.97 4.52 9.29
7/16/2021 9:00:00 AM 18.67 65.606 0.082 7 4.55 9.34
7/16/2021 9:15:00 AM 18.77 65.786 0.082 7.04 4.55 9.37
7/16/2021 9:30:00 AM 18.88 65.984 0.082 7.08 4.52 9.43
7/16/2021 9:45:00 AM 19.02 66.236 0.082 7.14 4.33 9.48
7/16/2021 10:00:00 AM 19.17 66.506 0.082 7.18 4.3 9.52
7/16/2021 10:15:00 AM 19.31 66.758 0.082 7.21 4.32 9.55
7/16/2021 10:30:00 AM 19.45 67.01 0.082 7.26 4.43 9.57
7/16/2021 10:45:00 AM 19.